<?xml version="1.0" encoding="UTF-8" standalone="no" ?>
<gpx xmlns="http://www.topografix.com/GPX/1/1" xmlns:xsi="http://www.w3.org/2001/XMLSchema-instance" xsi:schemaLocation="http://www.topografix.com/GPX/1/1 http://www.topografix.com/GPX/1/1/gpx.xsd" version="1.1" creator="VisuGPX - https://www.visugpx.com">
  <metadata>
    <name>Rando baudinard</name>
    <desc><![CDATA[Rando baudinard]]></desc>
  </metadata>
  <trk>
    <name><![CDATA[Rando baudinard_1]]></name>
    <trkseg>
      <trkpt lat="43.74591" lon="6.08296">
        <ele>398</ele>
        <time>2015-06-14T09:53:02Z</time>
      </trkpt>
      <trkpt lat="43.74591" lon="6.08296">
        <ele>398</ele>
        <time>2015-06-14T09:53:27Z</time>
      </trkpt>
      <trkpt lat="43.74586" lon="6.08299">
        <ele>415</ele>
        <time>2015-06-14T09:53:35Z</time>
      </trkpt>
      <trkpt lat="43.74584" lon="6.08303">
        <ele>424</ele>
        <time>2015-06-14T09:53:42Z</time>
      </trkpt>
      <trkpt lat="43.74583" lon="6.08305">
        <ele>426</ele>
        <time>2015-06-14T09:53:47Z</time>
      </trkpt>
      <trkpt lat="43.74583" lon="6.08306">
        <ele>427</ele>
        <time>2015-06-14T09:55:07Z</time>
      </trkpt>
      <trkpt lat="43.74583" lon="6.08306">
        <ele>427</ele>
        <time>2015-06-14T09:55:08Z</time>
      </trkpt>
      <trkpt lat="43.74581" lon="6.08308">
        <ele>431</ele>
        <time>2015-06-14T09:55:54Z</time>
      </trkpt>
      <trkpt lat="43.7458" lon="6.08308">
        <ele>432</ele>
        <time>2015-06-14T09:55:56Z</time>
      </trkpt>
      <trkpt lat="43.7458" lon="6.08308">
        <ele>436</ele>
        <time>2015-06-14T09:56:10Z</time>
      </trkpt>
      <trkpt lat="43.7458" lon="6.08308">
        <ele>437</ele>
        <time>2015-06-14T09:56:11Z</time>
      </trkpt>
      <trkpt lat="43.7458" lon="6.08314">
        <ele>440</ele>
        <time>2015-06-14T09:56:51Z</time>
      </trkpt>
      <trkpt lat="43.74577" lon="6.08317">
        <ele>443</ele>
        <time>2015-06-14T09:56:58Z</time>
      </trkpt>
      <trkpt lat="43.74576" lon="6.08318">
        <ele>445</ele>
        <time>2015-06-14T09:57:05Z</time>
      </trkpt>
      <trkpt lat="43.74573" lon="6.0832">
        <ele>448</ele>
        <time>2015-06-14T09:57:12Z</time>
      </trkpt>
      <trkpt lat="43.7457" lon="6.0832">
        <ele>449</ele>
        <time>2015-06-14T09:57:19Z</time>
      </trkpt>
      <trkpt lat="43.74567" lon="6.08319">
        <ele>449</ele>
        <time>2015-06-14T09:57:26Z</time>
      </trkpt>
      <trkpt lat="43.74563" lon="6.08319">
        <ele>450</ele>
        <time>2015-06-14T09:57:33Z</time>
      </trkpt>
      <trkpt lat="43.74558" lon="6.08318">
        <ele>451</ele>
        <time>2015-06-14T09:57:40Z</time>
      </trkpt>
      <trkpt lat="43.74554" lon="6.08317">
        <ele>452</ele>
        <time>2015-06-14T09:57:47Z</time>
      </trkpt>
      <trkpt lat="43.74549" lon="6.08315">
        <ele>452</ele>
        <time>2015-06-14T09:57:54Z</time>
      </trkpt>
      <trkpt lat="43.74518" lon="6.08302">
        <ele>454</ele>
        <time>2015-06-14T09:58:25Z</time>
      </trkpt>
      <trkpt lat="43.7452" lon="6.08308">
        <ele>456</ele>
        <time>2015-06-14T09:58:32Z</time>
      </trkpt>
      <trkpt lat="43.7452" lon="6.08311">
        <ele>455</ele>
        <time>2015-06-14T09:58:39Z</time>
      </trkpt>
      <trkpt lat="43.74519" lon="6.0831">
        <ele>455</ele>
        <time>2015-06-14T09:58:46Z</time>
      </trkpt>
      <trkpt lat="43.74518" lon="6.0831">
        <ele>455</ele>
        <time>2015-06-14T09:58:53Z</time>
      </trkpt>
      <trkpt lat="43.74518" lon="6.0831">
        <ele>455</ele>
        <time>2015-06-14T09:58:57Z</time>
      </trkpt>
      <trkpt lat="43.74515" lon="6.0831">
        <ele>455</ele>
        <time>2015-06-14T09:59:06Z</time>
      </trkpt>
      <trkpt lat="43.74514" lon="6.08311">
        <ele>455</ele>
        <time>2015-06-14T09:59:13Z</time>
      </trkpt>
      <trkpt lat="43.74514" lon="6.08312">
        <ele>455</ele>
        <time>2015-06-14T09:59:15Z</time>
      </trkpt>
      <trkpt lat="43.74513" lon="6.08318">
        <ele>454</ele>
        <time>2015-06-14T09:59:23Z</time>
      </trkpt>
      <trkpt lat="43.74514" lon="6.08321">
        <ele>453</ele>
        <time>2015-06-14T09:59:30Z</time>
      </trkpt>
      <trkpt lat="43.74514" lon="6.08324">
        <ele>451</ele>
        <time>2015-06-14T09:59:37Z</time>
      </trkpt>
      <trkpt lat="43.74513" lon="6.08327">
        <ele>451</ele>
        <time>2015-06-14T09:59:44Z</time>
      </trkpt>
      <trkpt lat="43.74513" lon="6.08336">
        <ele>442</ele>
        <time>2015-06-14T09:59:51Z</time>
      </trkpt>
      <trkpt lat="43.74513" lon="6.08338">
        <ele>441</ele>
        <time>2015-06-14T09:59:58Z</time>
      </trkpt>
      <trkpt lat="43.74513" lon="6.08339">
        <ele>442</ele>
        <time>2015-06-14T10:00:05Z</time>
      </trkpt>
      <trkpt lat="43.74513" lon="6.08339">
        <ele>441</ele>
        <time>2015-06-14T10:00:12Z</time>
      </trkpt>
      <trkpt lat="43.74514" lon="6.08343">
        <ele>441</ele>
        <time>2015-06-14T10:00:20Z</time>
      </trkpt>
      <trkpt lat="43.74513" lon="6.08348">
        <ele>442</ele>
        <time>2015-06-14T10:00:27Z</time>
      </trkpt>
      <trkpt lat="43.74515" lon="6.08352">
        <ele>444</ele>
        <time>2015-06-14T10:00:34Z</time>
      </trkpt>
      <trkpt lat="43.74515" lon="6.08357">
        <ele>443</ele>
        <time>2015-06-14T10:00:41Z</time>
      </trkpt>
      <trkpt lat="43.74515" lon="6.08359">
        <ele>444</ele>
        <time>2015-06-14T10:00:48Z</time>
      </trkpt>
      <trkpt lat="43.74515" lon="6.0836">
        <ele>444</ele>
        <time>2015-06-14T10:00:51Z</time>
      </trkpt>
      <trkpt lat="43.74513" lon="6.08365">
        <ele>445</ele>
        <time>2015-06-14T10:01:01Z</time>
      </trkpt>
      <trkpt lat="43.74512" lon="6.08372">
        <ele>447</ele>
        <time>2015-06-14T10:01:08Z</time>
      </trkpt>
      <trkpt lat="43.7451" lon="6.0838">
        <ele>447</ele>
        <time>2015-06-14T10:01:15Z</time>
      </trkpt>
      <trkpt lat="43.74508" lon="6.08388">
        <ele>449</ele>
        <time>2015-06-14T10:01:22Z</time>
      </trkpt>
      <trkpt lat="43.74506" lon="6.08397">
        <ele>449</ele>
        <time>2015-06-14T10:01:29Z</time>
      </trkpt>
      <trkpt lat="43.74505" lon="6.08404">
        <ele>449</ele>
        <time>2015-06-14T10:01:36Z</time>
      </trkpt>
      <trkpt lat="43.74503" lon="6.08413">
        <ele>450</ele>
        <time>2015-06-14T10:01:43Z</time>
      </trkpt>
      <trkpt lat="43.74501" lon="6.08419">
        <ele>449</ele>
        <time>2015-06-14T10:01:50Z</time>
      </trkpt>
      <trkpt lat="43.74498" lon="6.08428">
        <ele>451</ele>
        <time>2015-06-14T10:01:57Z</time>
      </trkpt>
      <trkpt lat="43.74496" lon="6.08435">
        <ele>451</ele>
        <time>2015-06-14T10:02:04Z</time>
      </trkpt>
      <trkpt lat="43.74494" lon="6.08443">
        <ele>451</ele>
        <time>2015-06-14T10:02:11Z</time>
      </trkpt>
      <trkpt lat="43.74492" lon="6.0845">
        <ele>452</ele>
        <time>2015-06-14T10:02:19Z</time>
      </trkpt>
      <trkpt lat="43.74491" lon="6.08457">
        <ele>453</ele>
        <time>2015-06-14T10:02:25Z</time>
      </trkpt>
      <trkpt lat="43.74489" lon="6.08465">
        <ele>453</ele>
        <time>2015-06-14T10:02:32Z</time>
      </trkpt>
      <trkpt lat="43.74488" lon="6.08473">
        <ele>454</ele>
        <time>2015-06-14T10:02:39Z</time>
      </trkpt>
      <trkpt lat="43.74486" lon="6.08482">
        <ele>454</ele>
        <time>2015-06-14T10:02:46Z</time>
      </trkpt>
      <trkpt lat="43.74483" lon="6.08491">
        <ele>454</ele>
        <time>2015-06-14T10:02:53Z</time>
      </trkpt>
      <trkpt lat="43.7448" lon="6.08499">
        <ele>454</ele>
        <time>2015-06-14T10:03:00Z</time>
      </trkpt>
      <trkpt lat="43.74477" lon="6.08505">
        <ele>453</ele>
        <time>2015-06-14T10:03:07Z</time>
      </trkpt>
      <trkpt lat="43.74475" lon="6.0851">
        <ele>454</ele>
        <time>2015-06-14T10:03:14Z</time>
      </trkpt>
      <trkpt lat="43.74474" lon="6.08517">
        <ele>454</ele>
        <time>2015-06-14T10:03:21Z</time>
      </trkpt>
      <trkpt lat="43.74475" lon="6.08527">
        <ele>455</ele>
        <time>2015-06-14T10:03:28Z</time>
      </trkpt>
      <trkpt lat="43.74473" lon="6.08536">
        <ele>455</ele>
        <time>2015-06-14T10:03:35Z</time>
      </trkpt>
      <trkpt lat="43.74471" lon="6.08543">
        <ele>455</ele>
        <time>2015-06-14T10:03:42Z</time>
      </trkpt>
      <trkpt lat="43.7447" lon="6.08549">
        <ele>455</ele>
        <time>2015-06-14T10:03:49Z</time>
      </trkpt>
      <trkpt lat="43.74468" lon="6.08554">
        <ele>454</ele>
        <time>2015-06-14T10:03:56Z</time>
      </trkpt>
      <trkpt lat="43.74469" lon="6.08557">
        <ele>455</ele>
        <time>2015-06-14T10:04:04Z</time>
      </trkpt>
      <trkpt lat="43.74469" lon="6.08558">
        <ele>455</ele>
        <time>2015-06-14T10:04:06Z</time>
      </trkpt>
      <trkpt lat="43.74468" lon="6.08563">
        <ele>454</ele>
        <time>2015-06-14T10:04:15Z</time>
      </trkpt>
      <trkpt lat="43.74468" lon="6.08568">
        <ele>455</ele>
        <time>2015-06-14T10:04:22Z</time>
      </trkpt>
      <trkpt lat="43.74469" lon="6.08573">
        <ele>454</ele>
        <time>2015-06-14T10:04:29Z</time>
      </trkpt>
      <trkpt lat="43.7447" lon="6.08575">
        <ele>455</ele>
        <time>2015-06-14T10:04:36Z</time>
      </trkpt>
      <trkpt lat="43.7447" lon="6.08576">
        <ele>455</ele>
        <time>2015-06-14T10:04:38Z</time>
      </trkpt>
      <trkpt lat="43.74469" lon="6.08581">
        <ele>453</ele>
        <time>2015-06-14T10:04:46Z</time>
      </trkpt>
      <trkpt lat="43.74468" lon="6.08586">
        <ele>453</ele>
        <time>2015-06-14T10:04:53Z</time>
      </trkpt>
      <trkpt lat="43.74466" lon="6.08594">
        <ele>453</ele>
        <time>2015-06-14T10:05:00Z</time>
      </trkpt>
      <trkpt lat="43.74463" lon="6.08602">
        <ele>453</ele>
        <time>2015-06-14T10:05:07Z</time>
      </trkpt>
      <trkpt lat="43.74461" lon="6.0861">
        <ele>453</ele>
        <time>2015-06-14T10:05:14Z</time>
      </trkpt>
      <trkpt lat="43.74459" lon="6.08617">
        <ele>453</ele>
        <time>2015-06-14T10:05:21Z</time>
      </trkpt>
      <trkpt lat="43.74457" lon="6.08624">
        <ele>453</ele>
        <time>2015-06-14T10:05:28Z</time>
      </trkpt>
      <trkpt lat="43.74456" lon="6.08632">
        <ele>453</ele>
        <time>2015-06-14T10:05:35Z</time>
      </trkpt>
      <trkpt lat="43.74454" lon="6.08639">
        <ele>453</ele>
        <time>2015-06-14T10:05:42Z</time>
      </trkpt>
      <trkpt lat="43.74454" lon="6.08648">
        <ele>453</ele>
        <time>2015-06-14T10:05:49Z</time>
      </trkpt>
      <trkpt lat="43.74453" lon="6.08659">
        <ele>452</ele>
        <time>2015-06-14T10:05:56Z</time>
      </trkpt>
      <trkpt lat="43.74451" lon="6.08667">
        <ele>452</ele>
        <time>2015-06-14T10:06:03Z</time>
      </trkpt>
      <trkpt lat="43.7445" lon="6.08676">
        <ele>452</ele>
        <time>2015-06-14T10:06:10Z</time>
      </trkpt>
      <trkpt lat="43.74446" lon="6.08684">
        <ele>452</ele>
        <time>2015-06-14T10:06:17Z</time>
      </trkpt>
      <trkpt lat="43.74445" lon="6.08693">
        <ele>452</ele>
        <time>2015-06-14T10:06:24Z</time>
      </trkpt>
      <trkpt lat="43.74444" lon="6.08702">
        <ele>452</ele>
        <time>2015-06-14T10:06:31Z</time>
      </trkpt>
      <trkpt lat="43.74442" lon="6.08711">
        <ele>452</ele>
        <time>2015-06-14T10:06:38Z</time>
      </trkpt>
      <trkpt lat="43.74441" lon="6.0872">
        <ele>452</ele>
        <time>2015-06-14T10:06:45Z</time>
      </trkpt>
      <trkpt lat="43.74439" lon="6.0873">
        <ele>453</ele>
        <time>2015-06-14T10:06:52Z</time>
      </trkpt>
      <trkpt lat="43.74438" lon="6.08738">
        <ele>453</ele>
        <time>2015-06-14T10:06:59Z</time>
      </trkpt>
      <trkpt lat="43.74435" lon="6.08746">
        <ele>453</ele>
        <time>2015-06-14T10:07:06Z</time>
      </trkpt>
      <trkpt lat="43.74434" lon="6.08755">
        <ele>453</ele>
        <time>2015-06-14T10:07:13Z</time>
      </trkpt>
      <trkpt lat="43.74432" lon="6.08764">
        <ele>452</ele>
        <time>2015-06-14T10:07:20Z</time>
      </trkpt>
      <trkpt lat="43.74431" lon="6.08773">
        <ele>453</ele>
        <time>2015-06-14T10:07:27Z</time>
      </trkpt>
      <trkpt lat="43.74429" lon="6.08782">
        <ele>453</ele>
        <time>2015-06-14T10:07:34Z</time>
      </trkpt>
      <trkpt lat="43.74429" lon="6.08791">
        <ele>452</ele>
        <time>2015-06-14T10:07:41Z</time>
      </trkpt>
      <trkpt lat="43.74429" lon="6.088">
        <ele>453</ele>
        <time>2015-06-14T10:07:48Z</time>
      </trkpt>
      <trkpt lat="43.7443" lon="6.08809">
        <ele>453</ele>
        <time>2015-06-14T10:07:55Z</time>
      </trkpt>
      <trkpt lat="43.74428" lon="6.08819">
        <ele>453</ele>
        <time>2015-06-14T10:08:02Z</time>
      </trkpt>
      <trkpt lat="43.74427" lon="6.08828">
        <ele>454</ele>
        <time>2015-06-14T10:08:09Z</time>
      </trkpt>
      <trkpt lat="43.74425" lon="6.08838">
        <ele>454</ele>
        <time>2015-06-14T10:08:16Z</time>
      </trkpt>
      <trkpt lat="43.74423" lon="6.08848">
        <ele>453</ele>
        <time>2015-06-14T10:08:23Z</time>
      </trkpt>
      <trkpt lat="43.74421" lon="6.08857">
        <ele>453</ele>
        <time>2015-06-14T10:08:30Z</time>
      </trkpt>
      <trkpt lat="43.74419" lon="6.08867">
        <ele>452</ele>
        <time>2015-06-14T10:08:37Z</time>
      </trkpt>
      <trkpt lat="43.74418" lon="6.08875">
        <ele>453</ele>
        <time>2015-06-14T10:08:44Z</time>
      </trkpt>
      <trkpt lat="43.74417" lon="6.08883">
        <ele>454</ele>
        <time>2015-06-14T10:08:51Z</time>
      </trkpt>
      <trkpt lat="43.74416" lon="6.0889">
        <ele>454</ele>
        <time>2015-06-14T10:08:58Z</time>
      </trkpt>
      <trkpt lat="43.74415" lon="6.089">
        <ele>453</ele>
        <time>2015-06-14T10:09:05Z</time>
      </trkpt>
      <trkpt lat="43.74412" lon="6.08911">
        <ele>453</ele>
        <time>2015-06-14T10:09:12Z</time>
      </trkpt>
      <trkpt lat="43.74411" lon="6.08918">
        <ele>453</ele>
        <time>2015-06-14T10:09:19Z</time>
      </trkpt>
      <trkpt lat="43.74409" lon="6.08926">
        <ele>453</ele>
        <time>2015-06-14T10:09:26Z</time>
      </trkpt>
      <trkpt lat="43.74408" lon="6.08934">
        <ele>454</ele>
        <time>2015-06-14T10:09:33Z</time>
      </trkpt>
      <trkpt lat="43.74407" lon="6.08942">
        <ele>454</ele>
        <time>2015-06-14T10:09:40Z</time>
      </trkpt>
      <trkpt lat="43.74407" lon="6.08949">
        <ele>455</ele>
        <time>2015-06-14T10:09:47Z</time>
      </trkpt>
      <trkpt lat="43.74405" lon="6.08956">
        <ele>455</ele>
        <time>2015-06-14T10:09:54Z</time>
      </trkpt>
      <trkpt lat="43.74403" lon="6.08965">
        <ele>455</ele>
        <time>2015-06-14T10:10:01Z</time>
      </trkpt>
      <trkpt lat="43.744" lon="6.08974">
        <ele>455</ele>
        <time>2015-06-14T10:10:08Z</time>
      </trkpt>
      <trkpt lat="43.74397" lon="6.08983">
        <ele>455</ele>
        <time>2015-06-14T10:10:15Z</time>
      </trkpt>
      <trkpt lat="43.74394" lon="6.08993">
        <ele>454</ele>
        <time>2015-06-14T10:10:22Z</time>
      </trkpt>
      <trkpt lat="43.74391" lon="6.09001">
        <ele>454</ele>
        <time>2015-06-14T10:10:29Z</time>
      </trkpt>
      <trkpt lat="43.7439" lon="6.09008">
        <ele>454</ele>
        <time>2015-06-14T10:10:36Z</time>
      </trkpt>
      <trkpt lat="43.74389" lon="6.09014">
        <ele>455</ele>
        <time>2015-06-14T10:10:43Z</time>
      </trkpt>
      <trkpt lat="43.74387" lon="6.09022">
        <ele>456</ele>
        <time>2015-06-14T10:10:50Z</time>
      </trkpt>
      <trkpt lat="43.74385" lon="6.09031">
        <ele>456</ele>
        <time>2015-06-14T10:10:57Z</time>
      </trkpt>
      <trkpt lat="43.74384" lon="6.09041">
        <ele>456</ele>
        <time>2015-06-14T10:11:04Z</time>
      </trkpt>
      <trkpt lat="43.7438" lon="6.0905">
        <ele>456</ele>
        <time>2015-06-14T10:11:11Z</time>
      </trkpt>
      <trkpt lat="43.7438" lon="6.09058">
        <ele>458</ele>
        <time>2015-06-14T10:11:18Z</time>
      </trkpt>
      <trkpt lat="43.74379" lon="6.09067">
        <ele>458</ele>
        <time>2015-06-14T10:11:25Z</time>
      </trkpt>
      <trkpt lat="43.74377" lon="6.09077">
        <ele>459</ele>
        <time>2015-06-14T10:11:32Z</time>
      </trkpt>
      <trkpt lat="43.74376" lon="6.09087">
        <ele>458</ele>
        <time>2015-06-14T10:11:39Z</time>
      </trkpt>
      <trkpt lat="43.74374" lon="6.09096">
        <ele>459</ele>
        <time>2015-06-14T10:11:46Z</time>
      </trkpt>
      <trkpt lat="43.74371" lon="6.09105">
        <ele>459</ele>
        <time>2015-06-14T10:11:53Z</time>
      </trkpt>
      <trkpt lat="43.7437" lon="6.0911">
        <ele>458</ele>
        <time>2015-06-14T10:12:00Z</time>
      </trkpt>
      <trkpt lat="43.74368" lon="6.09118">
        <ele>458</ele>
        <time>2015-06-14T10:12:07Z</time>
      </trkpt>
      <trkpt lat="43.74367" lon="6.09128">
        <ele>459</ele>
        <time>2015-06-14T10:12:14Z</time>
      </trkpt>
      <trkpt lat="43.74366" lon="6.09136">
        <ele>459</ele>
        <time>2015-06-14T10:12:21Z</time>
      </trkpt>
      <trkpt lat="43.74364" lon="6.09147">
        <ele>459</ele>
        <time>2015-06-14T10:12:28Z</time>
      </trkpt>
      <trkpt lat="43.74363" lon="6.09156">
        <ele>460</ele>
        <time>2015-06-14T10:12:35Z</time>
      </trkpt>
      <trkpt lat="43.74363" lon="6.09167">
        <ele>460</ele>
        <time>2015-06-14T10:12:42Z</time>
      </trkpt>
      <trkpt lat="43.74363" lon="6.09177">
        <ele>459</ele>
        <time>2015-06-14T10:12:49Z</time>
      </trkpt>
      <trkpt lat="43.74361" lon="6.09184">
        <ele>459</ele>
        <time>2015-06-14T10:12:56Z</time>
      </trkpt>
      <trkpt lat="43.74361" lon="6.09191">
        <ele>460</ele>
        <time>2015-06-14T10:13:03Z</time>
      </trkpt>
      <trkpt lat="43.74359" lon="6.09198">
        <ele>459</ele>
        <time>2015-06-14T10:13:10Z</time>
      </trkpt>
      <trkpt lat="43.74356" lon="6.09206">
        <ele>458</ele>
        <time>2015-06-14T10:13:17Z</time>
      </trkpt>
      <trkpt lat="43.7435" lon="6.09217">
        <ele>456</ele>
        <time>2015-06-14T10:13:24Z</time>
      </trkpt>
      <trkpt lat="43.74347" lon="6.09227">
        <ele>456</ele>
        <time>2015-06-14T10:13:30Z</time>
      </trkpt>
      <trkpt lat="43.74345" lon="6.09236">
        <ele>454</ele>
        <time>2015-06-14T10:13:37Z</time>
      </trkpt>
      <trkpt lat="43.74344" lon="6.09245">
        <ele>455</ele>
        <time>2015-06-14T10:13:44Z</time>
      </trkpt>
      <trkpt lat="43.74341" lon="6.09255">
        <ele>454</ele>
        <time>2015-06-14T10:13:50Z</time>
      </trkpt>
      <trkpt lat="43.74339" lon="6.09265">
        <ele>454</ele>
        <time>2015-06-14T10:13:56Z</time>
      </trkpt>
      <trkpt lat="43.74337" lon="6.09275">
        <ele>455</ele>
        <time>2015-06-14T10:14:03Z</time>
      </trkpt>
      <trkpt lat="43.74336" lon="6.09286">
        <ele>455</ele>
        <time>2015-06-14T10:14:10Z</time>
      </trkpt>
      <trkpt lat="43.74333" lon="6.09296">
        <ele>456</ele>
        <time>2015-06-14T10:14:16Z</time>
      </trkpt>
      <trkpt lat="43.74332" lon="6.09307">
        <ele>457</ele>
        <time>2015-06-14T10:14:23Z</time>
      </trkpt>
      <trkpt lat="43.74331" lon="6.09317">
        <ele>458</ele>
        <time>2015-06-14T10:14:29Z</time>
      </trkpt>
      <trkpt lat="43.7433" lon="6.09327">
        <ele>459</ele>
        <time>2015-06-14T10:14:36Z</time>
      </trkpt>
      <trkpt lat="43.74329" lon="6.09337">
        <ele>459</ele>
        <time>2015-06-14T10:14:43Z</time>
      </trkpt>
      <trkpt lat="43.74328" lon="6.09347">
        <ele>459</ele>
        <time>2015-06-14T10:14:50Z</time>
      </trkpt>
      <trkpt lat="43.74325" lon="6.09355">
        <ele>460</ele>
        <time>2015-06-14T10:14:57Z</time>
      </trkpt>
      <trkpt lat="43.74324" lon="6.09362">
        <ele>460</ele>
        <time>2015-06-14T10:15:04Z</time>
      </trkpt>
      <trkpt lat="43.74324" lon="6.09367">
        <ele>461</ele>
        <time>2015-06-14T10:15:12Z</time>
      </trkpt>
      <trkpt lat="43.74324" lon="6.09371">
        <ele>461</ele>
        <time>2015-06-14T10:15:18Z</time>
      </trkpt>
      <trkpt lat="43.74324" lon="6.09378">
        <ele>462</ele>
        <time>2015-06-14T10:15:25Z</time>
      </trkpt>
      <trkpt lat="43.74324" lon="6.09386">
        <ele>462</ele>
        <time>2015-06-14T10:15:32Z</time>
      </trkpt>
      <trkpt lat="43.74324" lon="6.09395">
        <ele>462</ele>
        <time>2015-06-14T10:15:39Z</time>
      </trkpt>
      <trkpt lat="43.74323" lon="6.09404">
        <ele>463</ele>
        <time>2015-06-14T10:15:46Z</time>
      </trkpt>
      <trkpt lat="43.74322" lon="6.09415">
        <ele>463</ele>
        <time>2015-06-14T10:15:53Z</time>
      </trkpt>
      <trkpt lat="43.74321" lon="6.09426">
        <ele>463</ele>
        <time>2015-06-14T10:16:00Z</time>
      </trkpt>
      <trkpt lat="43.7432" lon="6.09436">
        <ele>462</ele>
        <time>2015-06-14T10:16:06Z</time>
      </trkpt>
      <trkpt lat="43.74319" lon="6.09447">
        <ele>462</ele>
        <time>2015-06-14T10:16:12Z</time>
      </trkpt>
      <trkpt lat="43.74317" lon="6.09457">
        <ele>462</ele>
        <time>2015-06-14T10:16:19Z</time>
      </trkpt>
      <trkpt lat="43.74316" lon="6.09467">
        <ele>461</ele>
        <time>2015-06-14T10:16:26Z</time>
      </trkpt>
      <trkpt lat="43.74316" lon="6.09476">
        <ele>462</ele>
        <time>2015-06-14T10:16:33Z</time>
      </trkpt>
      <trkpt lat="43.74315" lon="6.09487">
        <ele>462</ele>
        <time>2015-06-14T10:16:40Z</time>
      </trkpt>
      <trkpt lat="43.74315" lon="6.09497">
        <ele>462</ele>
        <time>2015-06-14T10:16:47Z</time>
      </trkpt>
      <trkpt lat="43.74314" lon="6.09507">
        <ele>462</ele>
        <time>2015-06-14T10:16:54Z</time>
      </trkpt>
      <trkpt lat="43.74316" lon="6.09515">
        <ele>463</ele>
        <time>2015-06-14T10:17:01Z</time>
      </trkpt>
      <trkpt lat="43.74318" lon="6.0952">
        <ele>464</ele>
        <time>2015-06-14T10:17:08Z</time>
      </trkpt>
      <trkpt lat="43.74318" lon="6.09528">
        <ele>465</ele>
        <time>2015-06-14T10:17:15Z</time>
      </trkpt>
      <trkpt lat="43.7432" lon="6.09536">
        <ele>465</ele>
        <time>2015-06-14T10:17:22Z</time>
      </trkpt>
      <trkpt lat="43.74323" lon="6.09544">
        <ele>466</ele>
        <time>2015-06-14T10:17:29Z</time>
      </trkpt>
      <trkpt lat="43.74323" lon="6.09551">
        <ele>464</ele>
        <time>2015-06-14T10:17:36Z</time>
      </trkpt>
      <trkpt lat="43.74323" lon="6.09558">
        <ele>463</ele>
        <time>2015-06-14T10:17:43Z</time>
      </trkpt>
      <trkpt lat="43.74325" lon="6.09564">
        <ele>462</ele>
        <time>2015-06-14T10:17:50Z</time>
      </trkpt>
      <trkpt lat="43.74327" lon="6.0957">
        <ele>462</ele>
        <time>2015-06-14T10:17:57Z</time>
      </trkpt>
      <trkpt lat="43.74329" lon="6.0958">
        <ele>460</ele>
        <time>2015-06-14T10:18:04Z</time>
      </trkpt>
      <trkpt lat="43.74331" lon="6.09587">
        <ele>460</ele>
        <time>2015-06-14T10:18:11Z</time>
      </trkpt>
      <trkpt lat="43.74333" lon="6.09595">
        <ele>458</ele>
        <time>2015-06-14T10:18:18Z</time>
      </trkpt>
      <trkpt lat="43.74335" lon="6.09596">
        <ele>459</ele>
        <time>2015-06-14T10:18:23Z</time>
      </trkpt>
      <trkpt lat="43.74338" lon="6.09602">
        <ele>459</ele>
        <time>2015-06-14T10:18:30Z</time>
      </trkpt>
      <trkpt lat="43.74342" lon="6.09606">
        <ele>460</ele>
        <time>2015-06-14T10:18:37Z</time>
      </trkpt>
      <trkpt lat="43.74346" lon="6.0961">
        <ele>461</ele>
        <time>2015-06-14T10:18:44Z</time>
      </trkpt>
      <trkpt lat="43.74352" lon="6.09613">
        <ele>462</ele>
        <time>2015-06-14T10:18:51Z</time>
      </trkpt>
      <trkpt lat="43.74356" lon="6.09616">
        <ele>465</ele>
        <time>2015-06-14T10:18:58Z</time>
      </trkpt>
      <trkpt lat="43.74361" lon="6.09623">
        <ele>464</ele>
        <time>2015-06-14T10:19:05Z</time>
      </trkpt>
      <trkpt lat="43.74367" lon="6.09627">
        <ele>465</ele>
        <time>2015-06-14T10:19:12Z</time>
      </trkpt>
      <trkpt lat="43.74373" lon="6.09631">
        <ele>466</ele>
        <time>2015-06-14T10:19:19Z</time>
      </trkpt>
      <trkpt lat="43.7438" lon="6.09638">
        <ele>466</ele>
        <time>2015-06-14T10:19:25Z</time>
      </trkpt>
      <trkpt lat="43.74385" lon="6.09645">
        <ele>468</ele>
        <time>2015-06-14T10:19:31Z</time>
      </trkpt>
      <trkpt lat="43.74391" lon="6.0965">
        <ele>469</ele>
        <time>2015-06-14T10:19:38Z</time>
      </trkpt>
      <trkpt lat="43.74398" lon="6.09655">
        <ele>471</ele>
        <time>2015-06-14T10:19:45Z</time>
      </trkpt>
      <trkpt lat="43.74405" lon="6.0966">
        <ele>467</ele>
        <time>2015-06-14T10:19:52Z</time>
      </trkpt>
      <trkpt lat="43.74411" lon="6.09665">
        <ele>465</ele>
        <time>2015-06-14T10:19:58Z</time>
      </trkpt>
      <trkpt lat="43.74416" lon="6.09669">
        <ele>464</ele>
        <time>2015-06-14T10:20:05Z</time>
      </trkpt>
      <trkpt lat="43.74422" lon="6.09677">
        <ele>464</ele>
        <time>2015-06-14T10:20:12Z</time>
      </trkpt>
      <trkpt lat="43.74426" lon="6.09684">
        <ele>465</ele>
        <time>2015-06-14T10:20:19Z</time>
      </trkpt>
      <trkpt lat="43.74431" lon="6.09692">
        <ele>463</ele>
        <time>2015-06-14T10:20:26Z</time>
      </trkpt>
      <trkpt lat="43.74435" lon="6.097">
        <ele>461</ele>
        <time>2015-06-14T10:20:33Z</time>
      </trkpt>
      <trkpt lat="43.74439" lon="6.09708">
        <ele>461</ele>
        <time>2015-06-14T10:20:40Z</time>
      </trkpt>
      <trkpt lat="43.74442" lon="6.09719">
        <ele>459</ele>
        <time>2015-06-14T10:20:47Z</time>
      </trkpt>
      <trkpt lat="43.74446" lon="6.09729">
        <ele>458</ele>
        <time>2015-06-14T10:20:54Z</time>
      </trkpt>
      <trkpt lat="43.7445" lon="6.09739">
        <ele>457</ele>
        <time>2015-06-14T10:21:01Z</time>
      </trkpt>
      <trkpt lat="43.74453" lon="6.09745">
        <ele>458</ele>
        <time>2015-06-14T10:21:08Z</time>
      </trkpt>
      <trkpt lat="43.74455" lon="6.09753">
        <ele>456</ele>
        <time>2015-06-14T10:21:15Z</time>
      </trkpt>
      <trkpt lat="43.74457" lon="6.09762">
        <ele>455</ele>
        <time>2015-06-14T10:21:22Z</time>
      </trkpt>
      <trkpt lat="43.74458" lon="6.09774">
        <ele>454</ele>
        <time>2015-06-14T10:21:29Z</time>
      </trkpt>
      <trkpt lat="43.7446" lon="6.09775">
        <ele>456</ele>
        <time>2015-06-14T10:21:36Z</time>
      </trkpt>
      <trkpt lat="43.74462" lon="6.09777">
        <ele>455</ele>
        <time>2015-06-14T10:21:43Z</time>
      </trkpt>
      <trkpt lat="43.74464" lon="6.09779">
        <ele>457</ele>
        <time>2015-06-14T10:21:50Z</time>
      </trkpt>
      <trkpt lat="43.74464" lon="6.09779">
        <ele>456</ele>
        <time>2015-06-14T10:21:52Z</time>
      </trkpt>
      <trkpt lat="43.74464" lon="6.09782">
        <ele>457</ele>
        <time>2015-06-14T10:22:00Z</time>
      </trkpt>
      <trkpt lat="43.74465" lon="6.09782">
        <ele>457</ele>
        <time>2015-06-14T10:22:01Z</time>
      </trkpt>
      <trkpt lat="43.74465" lon="6.09783">
        <ele>456</ele>
        <time>2015-06-14T10:22:10Z</time>
      </trkpt>
      <trkpt lat="43.74465" lon="6.09784">
        <ele>457</ele>
        <time>2015-06-14T10:22:17Z</time>
      </trkpt>
      <trkpt lat="43.74466" lon="6.09788">
        <ele>457</ele>
        <time>2015-06-14T10:22:24Z</time>
      </trkpt>
      <trkpt lat="43.74467" lon="6.09796">
        <ele>458</ele>
        <time>2015-06-14T10:22:31Z</time>
      </trkpt>
      <trkpt lat="43.74467" lon="6.09807">
        <ele>458</ele>
        <time>2015-06-14T10:22:37Z</time>
      </trkpt>
      <trkpt lat="43.74467" lon="6.09817">
        <ele>459</ele>
        <time>2015-06-14T10:22:42Z</time>
      </trkpt>
      <trkpt lat="43.74468" lon="6.09827">
        <ele>459</ele>
        <time>2015-06-14T10:22:46Z</time>
      </trkpt>
      <trkpt lat="43.74469" lon="6.09838">
        <ele>459</ele>
        <time>2015-06-14T10:22:51Z</time>
      </trkpt>
      <trkpt lat="43.74468" lon="6.0985">
        <ele>457</ele>
        <time>2015-06-14T10:22:57Z</time>
      </trkpt>
      <trkpt lat="43.74469" lon="6.0986">
        <ele>457</ele>
        <time>2015-06-14T10:23:02Z</time>
      </trkpt>
      <trkpt lat="43.74469" lon="6.09871">
        <ele>458</ele>
        <time>2015-06-14T10:23:08Z</time>
      </trkpt>
      <trkpt lat="43.74469" lon="6.09882">
        <ele>459</ele>
        <time>2015-06-14T10:23:14Z</time>
      </trkpt>
      <trkpt lat="43.7447" lon="6.09893">
        <ele>459</ele>
        <time>2015-06-14T10:23:21Z</time>
      </trkpt>
      <trkpt lat="43.74473" lon="6.09902">
        <ele>460</ele>
        <time>2015-06-14T10:23:28Z</time>
      </trkpt>
      <trkpt lat="43.74476" lon="6.09912">
        <ele>460</ele>
        <time>2015-06-14T10:23:34Z</time>
      </trkpt>
      <trkpt lat="43.74477" lon="6.09922">
        <ele>459</ele>
        <time>2015-06-14T10:23:41Z</time>
      </trkpt>
      <trkpt lat="43.74479" lon="6.09933">
        <ele>459</ele>
        <time>2015-06-14T10:23:48Z</time>
      </trkpt>
      <trkpt lat="43.74479" lon="6.09943">
        <ele>458</ele>
        <time>2015-06-14T10:23:55Z</time>
      </trkpt>
      <trkpt lat="43.74477" lon="6.09953">
        <ele>456</ele>
        <time>2015-06-14T10:24:01Z</time>
      </trkpt>
      <trkpt lat="43.74478" lon="6.09963">
        <ele>456</ele>
        <time>2015-06-14T10:24:08Z</time>
      </trkpt>
      <trkpt lat="43.74479" lon="6.09974">
        <ele>457</ele>
        <time>2015-06-14T10:24:15Z</time>
      </trkpt>
      <trkpt lat="43.74479" lon="6.09985">
        <ele>456</ele>
        <time>2015-06-14T10:24:22Z</time>
      </trkpt>
      <trkpt lat="43.7448" lon="6.09993">
        <ele>456</ele>
        <time>2015-06-14T10:24:29Z</time>
      </trkpt>
      <trkpt lat="43.74481" lon="6.10003">
        <ele>456</ele>
        <time>2015-06-14T10:24:36Z</time>
      </trkpt>
      <trkpt lat="43.74481" lon="6.10013">
        <ele>456</ele>
        <time>2015-06-14T10:24:43Z</time>
      </trkpt>
      <trkpt lat="43.74482" lon="6.10022">
        <ele>457</ele>
        <time>2015-06-14T10:24:50Z</time>
      </trkpt>
      <trkpt lat="43.74483" lon="6.1003">
        <ele>456</ele>
        <time>2015-06-14T10:24:57Z</time>
      </trkpt>
      <trkpt lat="43.74484" lon="6.10037">
        <ele>456</ele>
        <time>2015-06-14T10:25:04Z</time>
      </trkpt>
      <trkpt lat="43.74484" lon="6.10046">
        <ele>456</ele>
        <time>2015-06-14T10:25:11Z</time>
      </trkpt>
      <trkpt lat="43.74486" lon="6.10054">
        <ele>457</ele>
        <time>2015-06-14T10:25:18Z</time>
      </trkpt>
      <trkpt lat="43.74487" lon="6.10062">
        <ele>457</ele>
        <time>2015-06-14T10:25:25Z</time>
      </trkpt>
      <trkpt lat="43.74488" lon="6.10071">
        <ele>457</ele>
        <time>2015-06-14T10:25:32Z</time>
      </trkpt>
      <trkpt lat="43.74491" lon="6.10079">
        <ele>458</ele>
        <time>2015-06-14T10:25:39Z</time>
      </trkpt>
      <trkpt lat="43.74492" lon="6.10089">
        <ele>457</ele>
        <time>2015-06-14T10:25:46Z</time>
      </trkpt>
      <trkpt lat="43.74492" lon="6.101">
        <ele>458</ele>
        <time>2015-06-14T10:25:52Z</time>
      </trkpt>
      <trkpt lat="43.74492" lon="6.10105">
        <ele>459</ele>
        <time>2015-06-14T10:25:59Z</time>
      </trkpt>
      <trkpt lat="43.74492" lon="6.10113">
        <ele>459</ele>
        <time>2015-06-14T10:26:06Z</time>
      </trkpt>
      <trkpt lat="43.74492" lon="6.10122">
        <ele>458</ele>
        <time>2015-06-14T10:26:13Z</time>
      </trkpt>
      <trkpt lat="43.74491" lon="6.1013">
        <ele>458</ele>
        <time>2015-06-14T10:26:20Z</time>
      </trkpt>
      <trkpt lat="43.7449" lon="6.10141">
        <ele>457</ele>
        <time>2015-06-14T10:26:27Z</time>
      </trkpt>
      <trkpt lat="43.7449" lon="6.10149">
        <ele>457</ele>
        <time>2015-06-14T10:26:34Z</time>
      </trkpt>
      <trkpt lat="43.74488" lon="6.10157">
        <ele>457</ele>
        <time>2015-06-14T10:26:41Z</time>
      </trkpt>
      <trkpt lat="43.74486" lon="6.10167">
        <ele>458</ele>
        <time>2015-06-14T10:26:48Z</time>
      </trkpt>
      <trkpt lat="43.74484" lon="6.10176">
        <ele>457</ele>
        <time>2015-06-14T10:26:55Z</time>
      </trkpt>
      <trkpt lat="43.74483" lon="6.10185">
        <ele>457</ele>
        <time>2015-06-14T10:27:02Z</time>
      </trkpt>
      <trkpt lat="43.7448" lon="6.10193">
        <ele>457</ele>
        <time>2015-06-14T10:27:09Z</time>
      </trkpt>
      <trkpt lat="43.74479" lon="6.102">
        <ele>457</ele>
        <time>2015-06-14T10:27:16Z</time>
      </trkpt>
      <trkpt lat="43.74477" lon="6.10207">
        <ele>458</ele>
        <time>2015-06-14T10:27:23Z</time>
      </trkpt>
      <trkpt lat="43.74476" lon="6.10215">
        <ele>458</ele>
        <time>2015-06-14T10:27:30Z</time>
      </trkpt>
      <trkpt lat="43.74475" lon="6.10223">
        <ele>459</ele>
        <time>2015-06-14T10:27:37Z</time>
      </trkpt>
      <trkpt lat="43.74475" lon="6.1023">
        <ele>459</ele>
        <time>2015-06-14T10:27:44Z</time>
      </trkpt>
      <trkpt lat="43.74474" lon="6.10241">
        <ele>458</ele>
        <time>2015-06-14T10:27:51Z</time>
      </trkpt>
      <trkpt lat="43.74472" lon="6.10252">
        <ele>458</ele>
        <time>2015-06-14T10:27:58Z</time>
      </trkpt>
      <trkpt lat="43.7447" lon="6.10262">
        <ele>457</ele>
        <time>2015-06-14T10:28:05Z</time>
      </trkpt>
      <trkpt lat="43.7447" lon="6.10272">
        <ele>459</ele>
        <time>2015-06-14T10:28:12Z</time>
      </trkpt>
      <trkpt lat="43.74468" lon="6.10281">
        <ele>460</ele>
        <time>2015-06-14T10:28:19Z</time>
      </trkpt>
      <trkpt lat="43.74466" lon="6.10289">
        <ele>459</ele>
        <time>2015-06-14T10:28:26Z</time>
      </trkpt>
      <trkpt lat="43.74463" lon="6.10294">
        <ele>461</ele>
        <time>2015-06-14T10:28:33Z</time>
      </trkpt>
      <trkpt lat="43.74461" lon="6.103">
        <ele>460</ele>
        <time>2015-06-14T10:28:40Z</time>
      </trkpt>
      <trkpt lat="43.74461" lon="6.10308">
        <ele>459</ele>
        <time>2015-06-14T10:28:47Z</time>
      </trkpt>
      <trkpt lat="43.74456" lon="6.10316">
        <ele>455</ele>
        <time>2015-06-14T10:28:52Z</time>
      </trkpt>
      <trkpt lat="43.74454" lon="6.10324">
        <ele>456</ele>
        <time>2015-06-14T10:28:59Z</time>
      </trkpt>
      <trkpt lat="43.74453" lon="6.10333">
        <ele>455</ele>
        <time>2015-06-14T10:29:06Z</time>
      </trkpt>
      <trkpt lat="43.7445" lon="6.10342">
        <ele>456</ele>
        <time>2015-06-14T10:29:13Z</time>
      </trkpt>
      <trkpt lat="43.74446" lon="6.1035">
        <ele>457</ele>
        <time>2015-06-14T10:29:20Z</time>
      </trkpt>
      <trkpt lat="43.74446" lon="6.10355">
        <ele>458</ele>
        <time>2015-06-14T10:29:27Z</time>
      </trkpt>
      <trkpt lat="43.74444" lon="6.1036">
        <ele>457</ele>
        <time>2015-06-14T10:29:34Z</time>
      </trkpt>
      <trkpt lat="43.74444" lon="6.10367">
        <ele>458</ele>
        <time>2015-06-14T10:29:41Z</time>
      </trkpt>
      <trkpt lat="43.74445" lon="6.1037">
        <ele>460</ele>
        <time>2015-06-14T10:29:48Z</time>
      </trkpt>
      <trkpt lat="43.74443" lon="6.10379">
        <ele>458</ele>
        <time>2015-06-14T10:29:55Z</time>
      </trkpt>
      <trkpt lat="43.74444" lon="6.10389">
        <ele>459</ele>
        <time>2015-06-14T10:30:02Z</time>
      </trkpt>
      <trkpt lat="43.74447" lon="6.10397">
        <ele>460</ele>
        <time>2015-06-14T10:30:09Z</time>
      </trkpt>
      <trkpt lat="43.7445" lon="6.10403">
        <ele>461</ele>
        <time>2015-06-14T10:30:16Z</time>
      </trkpt>
      <trkpt lat="43.74451" lon="6.10409">
        <ele>459</ele>
        <time>2015-06-14T10:30:23Z</time>
      </trkpt>
      <trkpt lat="43.74452" lon="6.10415">
        <ele>460</ele>
        <time>2015-06-14T10:30:30Z</time>
      </trkpt>
      <trkpt lat="43.74454" lon="6.10425">
        <ele>458</ele>
        <time>2015-06-14T10:30:37Z</time>
      </trkpt>
      <trkpt lat="43.74459" lon="6.10435">
        <ele>455</ele>
        <time>2015-06-14T10:30:44Z</time>
      </trkpt>
      <trkpt lat="43.74459" lon="6.1044">
        <ele>457</ele>
        <time>2015-06-14T10:30:51Z</time>
      </trkpt>
      <trkpt lat="43.74461" lon="6.10448">
        <ele>458</ele>
        <time>2015-06-14T10:30:58Z</time>
      </trkpt>
      <trkpt lat="43.74464" lon="6.10457">
        <ele>458</ele>
        <time>2015-06-14T10:31:05Z</time>
      </trkpt>
      <trkpt lat="43.74466" lon="6.10466">
        <ele>460</ele>
        <time>2015-06-14T10:31:12Z</time>
      </trkpt>
      <trkpt lat="43.74469" lon="6.10476">
        <ele>459</ele>
        <time>2015-06-14T10:31:17Z</time>
      </trkpt>
      <trkpt lat="43.7447" lon="6.10486">
        <ele>459</ele>
        <time>2015-06-14T10:31:23Z</time>
      </trkpt>
      <trkpt lat="43.74473" lon="6.10497">
        <ele>458</ele>
        <time>2015-06-14T10:31:30Z</time>
      </trkpt>
      <trkpt lat="43.74475" lon="6.10507">
        <ele>457</ele>
        <time>2015-06-14T10:31:37Z</time>
      </trkpt>
      <trkpt lat="43.74478" lon="6.10516">
        <ele>458</ele>
        <time>2015-06-14T10:31:44Z</time>
      </trkpt>
      <trkpt lat="43.7448" lon="6.10527">
        <ele>458</ele>
        <time>2015-06-14T10:31:51Z</time>
      </trkpt>
      <trkpt lat="43.74483" lon="6.10535">
        <ele>458</ele>
        <time>2015-06-14T10:31:58Z</time>
      </trkpt>
      <trkpt lat="43.74484" lon="6.10541">
        <ele>458</ele>
        <time>2015-06-14T10:32:05Z</time>
      </trkpt>
      <trkpt lat="43.74487" lon="6.10548">
        <ele>459</ele>
        <time>2015-06-14T10:32:12Z</time>
      </trkpt>
      <trkpt lat="43.74489" lon="6.10557">
        <ele>459</ele>
        <time>2015-06-14T10:32:19Z</time>
      </trkpt>
      <trkpt lat="43.74492" lon="6.10567">
        <ele>459</ele>
        <time>2015-06-14T10:32:26Z</time>
      </trkpt>
      <trkpt lat="43.74493" lon="6.10576">
        <ele>459</ele>
        <time>2015-06-14T10:32:33Z</time>
      </trkpt>
      <trkpt lat="43.74496" lon="6.10586">
        <ele>458</ele>
        <time>2015-06-14T10:32:39Z</time>
      </trkpt>
      <trkpt lat="43.74498" lon="6.10595">
        <ele>458</ele>
        <time>2015-06-14T10:32:46Z</time>
      </trkpt>
      <trkpt lat="43.74501" lon="6.10605">
        <ele>458</ele>
        <time>2015-06-14T10:32:52Z</time>
      </trkpt>
      <trkpt lat="43.74503" lon="6.10614">
        <ele>457</ele>
        <time>2015-06-14T10:32:59Z</time>
      </trkpt>
      <trkpt lat="43.74506" lon="6.10622">
        <ele>457</ele>
        <time>2015-06-14T10:33:06Z</time>
      </trkpt>
      <trkpt lat="43.74508" lon="6.10632">
        <ele>458</ele>
        <time>2015-06-14T10:33:13Z</time>
      </trkpt>
      <trkpt lat="43.7451" lon="6.1064">
        <ele>458</ele>
        <time>2015-06-14T10:33:20Z</time>
      </trkpt>
      <trkpt lat="43.74511" lon="6.10648">
        <ele>458</ele>
        <time>2015-06-14T10:33:27Z</time>
      </trkpt>
      <trkpt lat="43.74512" lon="6.10659">
        <ele>458</ele>
        <time>2015-06-14T10:33:34Z</time>
      </trkpt>
      <trkpt lat="43.74514" lon="6.1067">
        <ele>458</ele>
        <time>2015-06-14T10:33:40Z</time>
      </trkpt>
      <trkpt lat="43.74515" lon="6.1068">
        <ele>458</ele>
        <time>2015-06-14T10:33:46Z</time>
      </trkpt>
      <trkpt lat="43.74518" lon="6.1069">
        <ele>458</ele>
        <time>2015-06-14T10:33:52Z</time>
      </trkpt>
      <trkpt lat="43.7452" lon="6.107">
        <ele>458</ele>
        <time>2015-06-14T10:33:58Z</time>
      </trkpt>
      <trkpt lat="43.74522" lon="6.10711">
        <ele>458</ele>
        <time>2015-06-14T10:34:05Z</time>
      </trkpt>
      <trkpt lat="43.74525" lon="6.10721">
        <ele>458</ele>
        <time>2015-06-14T10:34:11Z</time>
      </trkpt>
      <trkpt lat="43.74528" lon="6.10731">
        <ele>459</ele>
        <time>2015-06-14T10:34:18Z</time>
      </trkpt>
      <trkpt lat="43.7453" lon="6.10741">
        <ele>459</ele>
        <time>2015-06-14T10:34:25Z</time>
      </trkpt>
      <trkpt lat="43.74533" lon="6.1075">
        <ele>459</ele>
        <time>2015-06-14T10:34:32Z</time>
      </trkpt>
      <trkpt lat="43.74535" lon="6.10761">
        <ele>458</ele>
        <time>2015-06-14T10:34:39Z</time>
      </trkpt>
      <trkpt lat="43.74537" lon="6.1077">
        <ele>458</ele>
        <time>2015-06-14T10:34:46Z</time>
      </trkpt>
      <trkpt lat="43.7454" lon="6.10778">
        <ele>459</ele>
        <time>2015-06-14T10:34:53Z</time>
      </trkpt>
      <trkpt lat="43.74543" lon="6.10785">
        <ele>459</ele>
        <time>2015-06-14T10:35:00Z</time>
      </trkpt>
      <trkpt lat="43.74546" lon="6.10792">
        <ele>460</ele>
        <time>2015-06-14T10:35:07Z</time>
      </trkpt>
      <trkpt lat="43.7455" lon="6.10803">
        <ele>460</ele>
        <time>2015-06-14T10:35:14Z</time>
      </trkpt>
      <trkpt lat="43.74551" lon="6.10814">
        <ele>459</ele>
        <time>2015-06-14T10:35:20Z</time>
      </trkpt>
      <trkpt lat="43.74555" lon="6.10824">
        <ele>459</ele>
        <time>2015-06-14T10:35:27Z</time>
      </trkpt>
      <trkpt lat="43.7456" lon="6.10832">
        <ele>460</ele>
        <time>2015-06-14T10:35:34Z</time>
      </trkpt>
      <trkpt lat="43.74564" lon="6.1084">
        <ele>460</ele>
        <time>2015-06-14T10:35:41Z</time>
      </trkpt>
      <trkpt lat="43.74568" lon="6.10849">
        <ele>461</ele>
        <time>2015-06-14T10:35:48Z</time>
      </trkpt>
      <trkpt lat="43.74572" lon="6.10858">
        <ele>461</ele>
        <time>2015-06-14T10:35:55Z</time>
      </trkpt>
      <trkpt lat="43.74577" lon="6.10866">
        <ele>462</ele>
        <time>2015-06-14T10:36:02Z</time>
      </trkpt>
      <trkpt lat="43.7458" lon="6.10875">
        <ele>462</ele>
        <time>2015-06-14T10:36:08Z</time>
      </trkpt>
      <trkpt lat="43.74584" lon="6.10884">
        <ele>462</ele>
        <time>2015-06-14T10:36:15Z</time>
      </trkpt>
      <trkpt lat="43.74586" lon="6.10894">
        <ele>462</ele>
        <time>2015-06-14T10:36:22Z</time>
      </trkpt>
      <trkpt lat="43.74587" lon="6.10903">
        <ele>462</ele>
        <time>2015-06-14T10:36:29Z</time>
      </trkpt>
      <trkpt lat="43.74587" lon="6.1091">
        <ele>462</ele>
        <time>2015-06-14T10:36:36Z</time>
      </trkpt>
      <trkpt lat="43.74586" lon="6.10919">
        <ele>462</ele>
        <time>2015-06-14T10:36:43Z</time>
      </trkpt>
      <trkpt lat="43.74584" lon="6.10926">
        <ele>463</ele>
        <time>2015-06-14T10:36:50Z</time>
      </trkpt>
      <trkpt lat="43.74583" lon="6.10935">
        <ele>461</ele>
        <time>2015-06-14T10:36:57Z</time>
      </trkpt>
      <trkpt lat="43.74582" lon="6.10942">
        <ele>462</ele>
        <time>2015-06-14T10:37:04Z</time>
      </trkpt>
      <trkpt lat="43.74581" lon="6.10948">
        <ele>462</ele>
        <time>2015-06-14T10:37:11Z</time>
      </trkpt>
      <trkpt lat="43.74581" lon="6.10957">
        <ele>461</ele>
        <time>2015-06-14T10:37:18Z</time>
      </trkpt>
      <trkpt lat="43.7458" lon="6.10967">
        <ele>461</ele>
        <time>2015-06-14T10:37:25Z</time>
      </trkpt>
      <trkpt lat="43.7458" lon="6.10976">
        <ele>461</ele>
        <time>2015-06-14T10:37:32Z</time>
      </trkpt>
      <trkpt lat="43.7458" lon="6.10987">
        <ele>461</ele>
        <time>2015-06-14T10:37:39Z</time>
      </trkpt>
      <trkpt lat="43.7458" lon="6.10997">
        <ele>461</ele>
        <time>2015-06-14T10:37:46Z</time>
      </trkpt>
      <trkpt lat="43.7458" lon="6.11006">
        <ele>461</ele>
        <time>2015-06-14T10:37:53Z</time>
      </trkpt>
      <trkpt lat="43.74579" lon="6.11014">
        <ele>461</ele>
        <time>2015-06-14T10:38:01Z</time>
      </trkpt>
      <trkpt lat="43.74579" lon="6.1102">
        <ele>462</ele>
        <time>2015-06-14T10:38:07Z</time>
      </trkpt>
      <trkpt lat="43.74577" lon="6.11028">
        <ele>462</ele>
        <time>2015-06-14T10:38:14Z</time>
      </trkpt>
      <trkpt lat="43.74577" lon="6.11036">
        <ele>461</ele>
        <time>2015-06-14T10:38:21Z</time>
      </trkpt>
      <trkpt lat="43.74577" lon="6.11042">
        <ele>461</ele>
        <time>2015-06-14T10:38:28Z</time>
      </trkpt>
      <trkpt lat="43.74577" lon="6.11047">
        <ele>460</ele>
        <time>2015-06-14T10:38:35Z</time>
      </trkpt>
      <trkpt lat="43.74577" lon="6.11048">
        <ele>461</ele>
        <time>2015-06-14T10:38:40Z</time>
      </trkpt>
      <trkpt lat="43.74577" lon="6.11051">
        <ele>461</ele>
        <time>2015-06-14T10:38:48Z</time>
      </trkpt>
      <trkpt lat="43.74575" lon="6.11055">
        <ele>460</ele>
        <time>2015-06-14T10:38:55Z</time>
      </trkpt>
      <trkpt lat="43.74575" lon="6.11059">
        <ele>460</ele>
        <time>2015-06-14T10:39:02Z</time>
      </trkpt>
      <trkpt lat="43.74575" lon="6.11061">
        <ele>460</ele>
        <time>2015-06-14T10:39:09Z</time>
      </trkpt>
      <trkpt lat="43.74575" lon="6.11065">
        <ele>461</ele>
        <time>2015-06-14T10:39:16Z</time>
      </trkpt>
      <trkpt lat="43.74575" lon="6.11066">
        <ele>462</ele>
        <time>2015-06-14T10:39:20Z</time>
      </trkpt>
      <trkpt lat="43.74575" lon="6.11068">
        <ele>461</ele>
        <time>2015-06-14T10:39:27Z</time>
      </trkpt>
      <trkpt lat="43.74575" lon="6.11069">
        <ele>461</ele>
        <time>2015-06-14T10:39:34Z</time>
      </trkpt>
      <trkpt lat="43.74575" lon="6.11071">
        <ele>461</ele>
        <time>2015-06-14T10:39:41Z</time>
      </trkpt>
      <trkpt lat="43.74575" lon="6.11071">
        <ele>461</ele>
        <time>2015-06-14T10:39:42Z</time>
      </trkpt>
      <trkpt lat="43.74574" lon="6.11072">
        <ele>460</ele>
        <time>2015-06-14T10:39:50Z</time>
      </trkpt>
      <trkpt lat="43.74575" lon="6.11075">
        <ele>459</ele>
        <time>2015-06-14T10:39:57Z</time>
      </trkpt>
      <trkpt lat="43.74574" lon="6.11076">
        <ele>459</ele>
        <time>2015-06-14T10:40:01Z</time>
      </trkpt>
      <trkpt lat="43.74574" lon="6.1108">
        <ele>457</ele>
        <time>2015-06-14T10:40:11Z</time>
      </trkpt>
      <trkpt lat="43.74574" lon="6.1108">
        <ele>457</ele>
        <time>2015-06-14T10:40:14Z</time>
      </trkpt>
      <trkpt lat="43.74573" lon="6.11081">
        <ele>456</ele>
        <time>2015-06-14T10:40:22Z</time>
      </trkpt>
      <trkpt lat="43.74573" lon="6.11082">
        <ele>456</ele>
        <time>2015-06-14T10:40:24Z</time>
      </trkpt>
      <trkpt lat="43.74573" lon="6.11084">
        <ele>457</ele>
        <time>2015-06-14T10:40:34Z</time>
      </trkpt>
      <trkpt lat="43.74573" lon="6.11094">
        <ele>460</ele>
        <time>2015-06-14T10:40:41Z</time>
      </trkpt>
      <trkpt lat="43.74573" lon="6.11104">
        <ele>460</ele>
        <time>2015-06-14T10:40:47Z</time>
      </trkpt>
      <trkpt lat="43.74575" lon="6.11114">
        <ele>459</ele>
        <time>2015-06-14T10:40:52Z</time>
      </trkpt>
      <trkpt lat="43.74574" lon="6.11124">
        <ele>457</ele>
        <time>2015-06-14T10:40:58Z</time>
      </trkpt>
      <trkpt lat="43.74577" lon="6.11131">
        <ele>458</ele>
        <time>2015-06-14T10:41:05Z</time>
      </trkpt>
      <trkpt lat="43.74574" lon="6.11142">
        <ele>460</ele>
        <time>2015-06-14T10:41:11Z</time>
      </trkpt>
      <trkpt lat="43.74577" lon="6.11149">
        <ele>462</ele>
        <time>2015-06-14T10:41:18Z</time>
      </trkpt>
      <trkpt lat="43.7458" lon="6.11157">
        <ele>463</ele>
        <time>2015-06-14T10:41:25Z</time>
      </trkpt>
      <trkpt lat="43.74581" lon="6.11167">
        <ele>463</ele>
        <time>2015-06-14T10:41:32Z</time>
      </trkpt>
      <trkpt lat="43.74582" lon="6.11174">
        <ele>465</ele>
        <time>2015-06-14T10:41:39Z</time>
      </trkpt>
      <trkpt lat="43.74584" lon="6.11184">
        <ele>464</ele>
        <time>2015-06-14T10:41:46Z</time>
      </trkpt>
      <trkpt lat="43.74591" lon="6.1119">
        <ele>465</ele>
        <time>2015-06-14T10:41:51Z</time>
      </trkpt>
      <trkpt lat="43.74596" lon="6.11198">
        <ele>465</ele>
        <time>2015-06-14T10:41:57Z</time>
      </trkpt>
      <trkpt lat="43.74594" lon="6.11208">
        <ele>463</ele>
        <time>2015-06-14T10:42:04Z</time>
      </trkpt>
      <trkpt lat="43.74598" lon="6.11217">
        <ele>464</ele>
        <time>2015-06-14T10:42:11Z</time>
      </trkpt>
      <trkpt lat="43.74598" lon="6.11229">
        <ele>463</ele>
        <time>2015-06-14T10:42:18Z</time>
      </trkpt>
      <trkpt lat="43.74603" lon="6.11236">
        <ele>464</ele>
        <time>2015-06-14T10:42:25Z</time>
      </trkpt>
      <trkpt lat="43.74605" lon="6.11247">
        <ele>463</ele>
        <time>2015-06-14T10:42:32Z</time>
      </trkpt>
      <trkpt lat="43.74605" lon="6.11259">
        <ele>462</ele>
        <time>2015-06-14T10:42:39Z</time>
      </trkpt>
      <trkpt lat="43.74617" lon="6.11253">
        <ele>461</ele>
        <time>2015-06-14T10:42:41Z</time>
      </trkpt>
      <trkpt lat="43.74611" lon="6.11264">
        <ele>459</ele>
        <time>2015-06-14T10:42:46Z</time>
      </trkpt>
      <trkpt lat="43.74615" lon="6.11268">
        <ele>461</ele>
        <time>2015-06-14T10:42:52Z</time>
      </trkpt>
      <trkpt lat="43.74613" lon="6.11279">
        <ele>463</ele>
        <time>2015-06-14T10:42:58Z</time>
      </trkpt>
      <trkpt lat="43.74619" lon="6.11284">
        <ele>462</ele>
        <time>2015-06-14T10:43:05Z</time>
      </trkpt>
      <trkpt lat="43.74618" lon="6.11294">
        <ele>463</ele>
        <time>2015-06-14T10:43:10Z</time>
      </trkpt>
      <trkpt lat="43.74615" lon="6.11304">
        <ele>464</ele>
        <time>2015-06-14T10:43:15Z</time>
      </trkpt>
      <trkpt lat="43.74615" lon="6.11312">
        <ele>466</ele>
        <time>2015-06-14T10:43:22Z</time>
      </trkpt>
      <trkpt lat="43.74615" lon="6.1132">
        <ele>468</ele>
        <time>2015-06-14T10:43:29Z</time>
      </trkpt>
      <trkpt lat="43.74619" lon="6.11331">
        <ele>465</ele>
        <time>2015-06-14T10:43:34Z</time>
      </trkpt>
      <trkpt lat="43.74622" lon="6.11339">
        <ele>466</ele>
        <time>2015-06-14T10:43:41Z</time>
      </trkpt>
      <trkpt lat="43.74625" lon="6.11349">
        <ele>464</ele>
        <time>2015-06-14T10:43:48Z</time>
      </trkpt>
      <trkpt lat="43.74622" lon="6.11356">
        <ele>465</ele>
        <time>2015-06-14T10:43:55Z</time>
      </trkpt>
      <trkpt lat="43.74629" lon="6.11363">
        <ele>465</ele>
        <time>2015-06-14T10:44:02Z</time>
      </trkpt>
      <trkpt lat="43.74634" lon="6.11371">
        <ele>464</ele>
        <time>2015-06-14T10:44:08Z</time>
      </trkpt>
      <trkpt lat="43.74636" lon="6.11382">
        <ele>463</ele>
        <time>2015-06-14T10:44:15Z</time>
      </trkpt>
      <trkpt lat="43.74636" lon="6.11391">
        <ele>461</ele>
        <time>2015-06-14T10:44:22Z</time>
      </trkpt>
      <trkpt lat="43.74641" lon="6.11399">
        <ele>460</ele>
        <time>2015-06-14T10:44:28Z</time>
      </trkpt>
      <trkpt lat="43.74636" lon="6.11408">
        <ele>461</ele>
        <time>2015-06-14T10:44:31Z</time>
      </trkpt>
      <trkpt lat="43.74633" lon="6.11418">
        <ele>460</ele>
        <time>2015-06-14T10:44:34Z</time>
      </trkpt>
      <trkpt lat="43.74633" lon="6.11426">
        <ele>459</ele>
        <time>2015-06-14T10:44:41Z</time>
      </trkpt>
      <trkpt lat="43.74635" lon="6.11436">
        <ele>461</ele>
        <time>2015-06-14T10:44:48Z</time>
      </trkpt>
      <trkpt lat="43.74633" lon="6.11445">
        <ele>462</ele>
        <time>2015-06-14T10:44:55Z</time>
      </trkpt>
      <trkpt lat="43.74632" lon="6.1145">
        <ele>464</ele>
        <time>2015-06-14T10:45:02Z</time>
      </trkpt>
      <trkpt lat="43.74631" lon="6.11458">
        <ele>462</ele>
        <time>2015-06-14T10:45:09Z</time>
      </trkpt>
      <trkpt lat="43.74634" lon="6.11467">
        <ele>460</ele>
        <time>2015-06-14T10:45:15Z</time>
      </trkpt>
      <trkpt lat="43.7463" lon="6.11476">
        <ele>461</ele>
        <time>2015-06-14T10:45:21Z</time>
      </trkpt>
      <trkpt lat="43.74627" lon="6.11483">
        <ele>460</ele>
        <time>2015-06-14T10:45:28Z</time>
      </trkpt>
      <trkpt lat="43.74622" lon="6.11492">
        <ele>458</ele>
        <time>2015-06-14T10:45:35Z</time>
      </trkpt>
      <trkpt lat="43.74625" lon="6.11501">
        <ele>455</ele>
        <time>2015-06-14T10:45:42Z</time>
      </trkpt>
      <trkpt lat="43.74621" lon="6.11507">
        <ele>457</ele>
        <time>2015-06-14T10:45:49Z</time>
      </trkpt>
      <trkpt lat="43.74618" lon="6.11513">
        <ele>454</ele>
        <time>2015-06-14T10:45:56Z</time>
      </trkpt>
      <trkpt lat="43.74617" lon="6.11514">
        <ele>460</ele>
        <time>2015-06-14T10:46:03Z</time>
      </trkpt>
      <trkpt lat="43.74613" lon="6.11514">
        <ele>462</ele>
        <time>2015-06-14T10:46:10Z</time>
      </trkpt>
      <trkpt lat="43.7461" lon="6.11526">
        <ele>458</ele>
        <time>2015-06-14T10:46:14Z</time>
      </trkpt>
      <trkpt lat="43.74612" lon="6.11523">
        <ele>462</ele>
        <time>2015-06-14T10:46:21Z</time>
      </trkpt>
      <trkpt lat="43.74612" lon="6.11529">
        <ele>459</ele>
        <time>2015-06-14T10:46:28Z</time>
      </trkpt>
      <trkpt lat="43.74613" lon="6.1153">
        <ele>459</ele>
        <time>2015-06-14T10:46:34Z</time>
      </trkpt>
      <trkpt lat="43.74612" lon="6.11542">
        <ele>462</ele>
        <time>2015-06-14T10:46:44Z</time>
      </trkpt>
      <trkpt lat="43.7461" lon="6.11547">
        <ele>461</ele>
        <time>2015-06-14T10:46:51Z</time>
      </trkpt>
      <trkpt lat="43.74607" lon="6.11553">
        <ele>460</ele>
        <time>2015-06-14T10:46:58Z</time>
      </trkpt>
      <trkpt lat="43.74602" lon="6.1156">
        <ele>455</ele>
        <time>2015-06-14T10:47:05Z</time>
      </trkpt>
      <trkpt lat="43.74603" lon="6.11563">
        <ele>463</ele>
        <time>2015-06-14T10:47:12Z</time>
      </trkpt>
      <trkpt lat="43.74603" lon="6.11567">
        <ele>464</ele>
        <time>2015-06-14T10:47:19Z</time>
      </trkpt>
      <trkpt lat="43.74601" lon="6.11568">
        <ele>463</ele>
        <time>2015-06-14T10:47:26Z</time>
      </trkpt>
      <trkpt lat="43.74596" lon="6.11574">
        <ele>459</ele>
        <time>2015-06-14T10:47:33Z</time>
      </trkpt>
      <trkpt lat="43.74589" lon="6.11583">
        <ele>453</ele>
        <time>2015-06-14T10:47:38Z</time>
      </trkpt>
      <trkpt lat="43.74591" lon="6.11584">
        <ele>456</ele>
        <time>2015-06-14T10:47:45Z</time>
      </trkpt>
      <trkpt lat="43.74591" lon="6.11587">
        <ele>454</ele>
        <time>2015-06-14T10:47:52Z</time>
      </trkpt>
      <trkpt lat="43.74591" lon="6.11588">
        <ele>453</ele>
        <time>2015-06-14T10:47:57Z</time>
      </trkpt>
      <trkpt lat="43.74591" lon="6.11588">
        <ele>454</ele>
        <time>2015-06-14T10:48:04Z</time>
      </trkpt>
      <trkpt lat="43.74591" lon="6.11588">
        <ele>454</ele>
        <time>2015-06-14T10:48:07Z</time>
      </trkpt>
      <trkpt lat="43.74586" lon="6.1159">
        <ele>451</ele>
        <time>2015-06-14T10:48:54Z</time>
      </trkpt>
      <trkpt lat="43.74585" lon="6.11596">
        <ele>453</ele>
        <time>2015-06-14T10:49:01Z</time>
      </trkpt>
      <trkpt lat="43.74582" lon="6.11604">
        <ele>457</ele>
        <time>2015-06-14T10:49:08Z</time>
      </trkpt>
      <trkpt lat="43.74583" lon="6.11605">
        <ele>460</ele>
        <time>2015-06-14T10:49:15Z</time>
      </trkpt>
      <trkpt lat="43.74584" lon="6.11609">
        <ele>458</ele>
        <time>2015-06-14T10:49:22Z</time>
      </trkpt>
      <trkpt lat="43.7458" lon="6.11611">
        <ele>458</ele>
        <time>2015-06-14T10:49:29Z</time>
      </trkpt>
      <trkpt lat="43.74574" lon="6.11618">
        <ele>459</ele>
        <time>2015-06-14T10:49:35Z</time>
      </trkpt>
      <trkpt lat="43.74568" lon="6.11626">
        <ele>462</ele>
        <time>2015-06-14T10:49:40Z</time>
      </trkpt>
      <trkpt lat="43.74566" lon="6.11632">
        <ele>463</ele>
        <time>2015-06-14T10:49:47Z</time>
      </trkpt>
      <trkpt lat="43.7456" lon="6.11637">
        <ele>464</ele>
        <time>2015-06-14T10:49:54Z</time>
      </trkpt>
      <trkpt lat="43.74553" lon="6.1164">
        <ele>467</ele>
        <time>2015-06-14T10:50:01Z</time>
      </trkpt>
      <trkpt lat="43.74546" lon="6.11643">
        <ele>467</ele>
        <time>2015-06-14T10:50:08Z</time>
      </trkpt>
      <trkpt lat="43.74541" lon="6.11644">
        <ele>467</ele>
        <time>2015-06-14T10:50:16Z</time>
      </trkpt>
      <trkpt lat="43.74537" lon="6.1165">
        <ele>470</ele>
        <time>2015-06-14T10:50:22Z</time>
      </trkpt>
      <trkpt lat="43.74533" lon="6.11651">
        <ele>471</ele>
        <time>2015-06-14T10:50:29Z</time>
      </trkpt>
      <trkpt lat="43.74525" lon="6.11653">
        <ele>472</ele>
        <time>2015-06-14T10:50:34Z</time>
      </trkpt>
      <trkpt lat="43.74517" lon="6.11649">
        <ele>472</ele>
        <time>2015-06-14T10:50:39Z</time>
      </trkpt>
      <trkpt lat="43.74509" lon="6.11651">
        <ele>474</ele>
        <time>2015-06-14T10:50:44Z</time>
      </trkpt>
      <trkpt lat="43.74501" lon="6.11653">
        <ele>477</ele>
        <time>2015-06-14T10:50:50Z</time>
      </trkpt>
      <trkpt lat="43.74495" lon="6.11655">
        <ele>475</ele>
        <time>2015-06-14T10:50:57Z</time>
      </trkpt>
      <trkpt lat="43.74488" lon="6.11654">
        <ele>475</ele>
        <time>2015-06-14T10:51:04Z</time>
      </trkpt>
      <trkpt lat="43.74483" lon="6.11655">
        <ele>476</ele>
        <time>2015-06-14T10:51:11Z</time>
      </trkpt>
      <trkpt lat="43.74474" lon="6.11656">
        <ele>474</ele>
        <time>2015-06-14T10:51:18Z</time>
      </trkpt>
      <trkpt lat="43.74466" lon="6.11661">
        <ele>478</ele>
        <time>2015-06-14T10:51:25Z</time>
      </trkpt>
      <trkpt lat="43.74461" lon="6.11662">
        <ele>478</ele>
        <time>2015-06-14T10:51:32Z</time>
      </trkpt>
      <trkpt lat="43.74453" lon="6.11662">
        <ele>477</ele>
        <time>2015-06-14T10:51:39Z</time>
      </trkpt>
      <trkpt lat="43.74449" lon="6.11663">
        <ele>471</ele>
        <time>2015-06-14T10:51:46Z</time>
      </trkpt>
      <trkpt lat="43.74445" lon="6.11663">
        <ele>469</ele>
        <time>2015-06-14T10:51:53Z</time>
      </trkpt>
      <trkpt lat="43.74444" lon="6.11663">
        <ele>468</ele>
        <time>2015-06-14T10:52:00Z</time>
      </trkpt>
      <trkpt lat="43.74439" lon="6.11663">
        <ele>467</ele>
        <time>2015-06-14T10:52:07Z</time>
      </trkpt>
      <trkpt lat="43.74439" lon="6.11661">
        <ele>465</ele>
        <time>2015-06-14T10:52:14Z</time>
      </trkpt>
      <trkpt lat="43.74434" lon="6.11662">
        <ele>466</ele>
        <time>2015-06-14T10:52:21Z</time>
      </trkpt>
      <trkpt lat="43.74432" lon="6.11663">
        <ele>467</ele>
        <time>2015-06-14T10:52:28Z</time>
      </trkpt>
      <trkpt lat="43.7443" lon="6.11663">
        <ele>470</ele>
        <time>2015-06-14T10:52:35Z</time>
      </trkpt>
      <trkpt lat="43.74428" lon="6.11662">
        <ele>468</ele>
        <time>2015-06-14T10:52:42Z</time>
      </trkpt>
      <trkpt lat="43.74426" lon="6.11663">
        <ele>467</ele>
        <time>2015-06-14T10:52:49Z</time>
      </trkpt>
      <trkpt lat="43.74418" lon="6.11663">
        <ele>468</ele>
        <time>2015-06-14T10:52:56Z</time>
      </trkpt>
      <trkpt lat="43.74411" lon="6.11664">
        <ele>468</ele>
        <time>2015-06-14T10:53:03Z</time>
      </trkpt>
      <trkpt lat="43.74404" lon="6.11663">
        <ele>471</ele>
        <time>2015-06-14T10:53:10Z</time>
      </trkpt>
      <trkpt lat="43.74397" lon="6.11659">
        <ele>472</ele>
        <time>2015-06-14T10:53:16Z</time>
      </trkpt>
      <trkpt lat="43.7439" lon="6.11656">
        <ele>472</ele>
        <time>2015-06-14T10:53:21Z</time>
      </trkpt>
      <trkpt lat="43.74382" lon="6.11654">
        <ele>477</ele>
        <time>2015-06-14T10:53:27Z</time>
      </trkpt>
      <trkpt lat="43.74375" lon="6.11652">
        <ele>481</ele>
        <time>2015-06-14T10:53:32Z</time>
      </trkpt>
      <trkpt lat="43.74369" lon="6.11651">
        <ele>479</ele>
        <time>2015-06-14T10:53:39Z</time>
      </trkpt>
      <trkpt lat="43.74366" lon="6.1165">
        <ele>473</ele>
        <time>2015-06-14T10:53:46Z</time>
      </trkpt>
      <trkpt lat="43.7436" lon="6.11649">
        <ele>471</ele>
        <time>2015-06-14T10:53:53Z</time>
      </trkpt>
      <trkpt lat="43.74352" lon="6.11649">
        <ele>472</ele>
        <time>2015-06-14T10:54:00Z</time>
      </trkpt>
      <trkpt lat="43.74346" lon="6.1165">
        <ele>471</ele>
        <time>2015-06-14T10:54:07Z</time>
      </trkpt>
      <trkpt lat="43.74337" lon="6.11648">
        <ele>470</ele>
        <time>2015-06-14T10:54:13Z</time>
      </trkpt>
      <trkpt lat="43.7433" lon="6.11647">
        <ele>472</ele>
        <time>2015-06-14T10:54:18Z</time>
      </trkpt>
      <trkpt lat="43.74324" lon="6.11647">
        <ele>475</ele>
        <time>2015-06-14T10:54:25Z</time>
      </trkpt>
      <trkpt lat="43.74322" lon="6.11647">
        <ele>472</ele>
        <time>2015-06-14T10:54:32Z</time>
      </trkpt>
      <trkpt lat="43.74315" lon="6.11647">
        <ele>464</ele>
        <time>2015-06-14T10:54:39Z</time>
      </trkpt>
      <trkpt lat="43.74311" lon="6.11647">
        <ele>464</ele>
        <time>2015-06-14T10:54:46Z</time>
      </trkpt>
      <trkpt lat="43.74306" lon="6.11649">
        <ele>465</ele>
        <time>2015-06-14T10:54:53Z</time>
      </trkpt>
      <trkpt lat="43.74302" lon="6.11649">
        <ele>467</ele>
        <time>2015-06-14T10:55:00Z</time>
      </trkpt>
      <trkpt lat="43.74298" lon="6.11649">
        <ele>464</ele>
        <time>2015-06-14T10:55:07Z</time>
      </trkpt>
      <trkpt lat="43.74295" lon="6.1165">
        <ele>463</ele>
        <time>2015-06-14T10:55:14Z</time>
      </trkpt>
      <trkpt lat="43.74292" lon="6.11652">
        <ele>461</ele>
        <time>2015-06-14T10:55:21Z</time>
      </trkpt>
      <trkpt lat="43.74287" lon="6.1165">
        <ele>460</ele>
        <time>2015-06-14T10:55:28Z</time>
      </trkpt>
      <trkpt lat="43.74283" lon="6.11648">
        <ele>457</ele>
        <time>2015-06-14T10:55:35Z</time>
      </trkpt>
      <trkpt lat="43.74279" lon="6.11654">
        <ele>463</ele>
        <time>2015-06-14T10:55:42Z</time>
      </trkpt>
      <trkpt lat="43.74273" lon="6.11656">
        <ele>465</ele>
        <time>2015-06-14T10:55:49Z</time>
      </trkpt>
      <trkpt lat="43.74268" lon="6.1166">
        <ele>466</ele>
        <time>2015-06-14T10:55:56Z</time>
      </trkpt>
      <trkpt lat="43.74266" lon="6.11659">
        <ele>466</ele>
        <time>2015-06-14T10:56:03Z</time>
      </trkpt>
      <trkpt lat="43.74257" lon="6.11659">
        <ele>470</ele>
        <time>2015-06-14T10:56:10Z</time>
      </trkpt>
      <trkpt lat="43.74254" lon="6.1166">
        <ele>471</ele>
        <time>2015-06-14T10:56:17Z</time>
      </trkpt>
      <trkpt lat="43.74247" lon="6.11658">
        <ele>476</ele>
        <time>2015-06-14T10:56:22Z</time>
      </trkpt>
      <trkpt lat="43.74244" lon="6.11662">
        <ele>479</ele>
        <time>2015-06-14T10:56:29Z</time>
      </trkpt>
      <trkpt lat="43.74237" lon="6.11666">
        <ele>481</ele>
        <time>2015-06-14T10:56:36Z</time>
      </trkpt>
      <trkpt lat="43.74229" lon="6.11666">
        <ele>486</ele>
        <time>2015-06-14T10:56:41Z</time>
      </trkpt>
      <trkpt lat="43.74226" lon="6.11669">
        <ele>487</ele>
        <time>2015-06-14T10:56:48Z</time>
      </trkpt>
      <trkpt lat="43.74218" lon="6.11669">
        <ele>490</ele>
        <time>2015-06-14T10:56:55Z</time>
      </trkpt>
      <trkpt lat="43.7421" lon="6.11668">
        <ele>494</ele>
        <time>2015-06-14T10:57:02Z</time>
      </trkpt>
      <trkpt lat="43.74206" lon="6.11668">
        <ele>494</ele>
        <time>2015-06-14T10:57:09Z</time>
      </trkpt>
      <trkpt lat="43.74203" lon="6.11669">
        <ele>486</ele>
        <time>2015-06-14T10:57:16Z</time>
      </trkpt>
      <trkpt lat="43.74196" lon="6.1167">
        <ele>485</ele>
        <time>2015-06-14T10:57:20Z</time>
      </trkpt>
      <trkpt lat="43.74193" lon="6.11671">
        <ele>476</ele>
        <time>2015-06-14T10:57:27Z</time>
      </trkpt>
      <trkpt lat="43.74187" lon="6.11673">
        <ele>479</ele>
        <time>2015-06-14T10:57:34Z</time>
      </trkpt>
      <trkpt lat="43.7419" lon="6.11678">
        <ele>484</ele>
        <time>2015-06-14T10:57:41Z</time>
      </trkpt>
      <trkpt lat="43.74184" lon="6.1168">
        <ele>484</ele>
        <time>2015-06-14T10:57:48Z</time>
      </trkpt>
      <trkpt lat="43.74176" lon="6.11684">
        <ele>478</ele>
        <time>2015-06-14T10:57:51Z</time>
      </trkpt>
      <trkpt lat="43.74168" lon="6.11687">
        <ele>476</ele>
        <time>2015-06-14T10:57:56Z</time>
      </trkpt>
      <trkpt lat="43.74166" lon="6.11694">
        <ele>467</ele>
        <time>2015-06-14T10:58:03Z</time>
      </trkpt>
      <trkpt lat="43.74164" lon="6.11698">
        <ele>466</ele>
        <time>2015-06-14T10:58:10Z</time>
      </trkpt>
      <trkpt lat="43.74163" lon="6.11705">
        <ele>467</ele>
        <time>2015-06-14T10:58:17Z</time>
      </trkpt>
      <trkpt lat="43.74155" lon="6.11706">
        <ele>465</ele>
        <time>2015-06-14T10:58:22Z</time>
      </trkpt>
      <trkpt lat="43.74148" lon="6.11707">
        <ele>461</ele>
        <time>2015-06-14T10:58:28Z</time>
      </trkpt>
      <trkpt lat="43.74145" lon="6.11711">
        <ele>461</ele>
        <time>2015-06-14T10:58:35Z</time>
      </trkpt>
      <trkpt lat="43.74149" lon="6.11715">
        <ele>465</ele>
        <time>2015-06-14T10:58:42Z</time>
      </trkpt>
      <trkpt lat="43.74148" lon="6.11723">
        <ele>462</ele>
        <time>2015-06-14T10:58:49Z</time>
      </trkpt>
      <trkpt lat="43.74145" lon="6.11726">
        <ele>462</ele>
        <time>2015-06-14T10:58:56Z</time>
      </trkpt>
      <trkpt lat="43.74142" lon="6.11729">
        <ele>463</ele>
        <time>2015-06-14T10:59:03Z</time>
      </trkpt>
      <trkpt lat="43.74145" lon="6.11734">
        <ele>462</ele>
        <time>2015-06-14T10:59:10Z</time>
      </trkpt>
      <trkpt lat="43.74138" lon="6.11738">
        <ele>461</ele>
        <time>2015-06-14T10:59:17Z</time>
      </trkpt>
      <trkpt lat="43.74136" lon="6.11743">
        <ele>463</ele>
        <time>2015-06-14T10:59:24Z</time>
      </trkpt>
      <trkpt lat="43.74131" lon="6.11748">
        <ele>462</ele>
        <time>2015-06-14T10:59:31Z</time>
      </trkpt>
      <trkpt lat="43.74126" lon="6.11752">
        <ele>461</ele>
        <time>2015-06-14T10:59:38Z</time>
      </trkpt>
      <trkpt lat="43.74121" lon="6.11758">
        <ele>460</ele>
        <time>2015-06-14T10:59:45Z</time>
      </trkpt>
      <trkpt lat="43.74114" lon="6.11763">
        <ele>456</ele>
        <time>2015-06-14T10:59:51Z</time>
      </trkpt>
      <trkpt lat="43.74109" lon="6.11768">
        <ele>456</ele>
        <time>2015-06-14T10:59:58Z</time>
      </trkpt>
      <trkpt lat="43.74107" lon="6.11778">
        <ele>456</ele>
        <time>2015-06-14T11:00:05Z</time>
      </trkpt>
      <trkpt lat="43.74104" lon="6.11784">
        <ele>455</ele>
        <time>2015-06-14T11:00:12Z</time>
      </trkpt>
      <trkpt lat="43.74103" lon="6.11794">
        <ele>456</ele>
        <time>2015-06-14T11:00:18Z</time>
      </trkpt>
      <trkpt lat="43.74101" lon="6.11801">
        <ele>457</ele>
        <time>2015-06-14T11:00:25Z</time>
      </trkpt>
      <trkpt lat="43.74098" lon="6.11808">
        <ele>456</ele>
        <time>2015-06-14T11:00:32Z</time>
      </trkpt>
      <trkpt lat="43.74097" lon="6.11814">
        <ele>457</ele>
        <time>2015-06-14T11:00:39Z</time>
      </trkpt>
      <trkpt lat="43.74092" lon="6.1182">
        <ele>456</ele>
        <time>2015-06-14T11:00:46Z</time>
      </trkpt>
      <trkpt lat="43.74088" lon="6.11825">
        <ele>456</ele>
        <time>2015-06-14T11:00:53Z</time>
      </trkpt>
      <trkpt lat="43.74083" lon="6.11831">
        <ele>453</ele>
        <time>2015-06-14T11:01:00Z</time>
      </trkpt>
      <trkpt lat="43.74081" lon="6.11839">
        <ele>451</ele>
        <time>2015-06-14T11:01:08Z</time>
      </trkpt>
      <trkpt lat="43.74079" lon="6.11846">
        <ele>452</ele>
        <time>2015-06-14T11:01:14Z</time>
      </trkpt>
      <trkpt lat="43.74076" lon="6.11855">
        <ele>452</ele>
        <time>2015-06-14T11:01:21Z</time>
      </trkpt>
      <trkpt lat="43.74075" lon="6.11863">
        <ele>454</ele>
        <time>2015-06-14T11:01:28Z</time>
      </trkpt>
      <trkpt lat="43.74074" lon="6.11873">
        <ele>454</ele>
        <time>2015-06-14T11:01:35Z</time>
      </trkpt>
      <trkpt lat="43.7407" lon="6.11879">
        <ele>456</ele>
        <time>2015-06-14T11:01:42Z</time>
      </trkpt>
      <trkpt lat="43.74062" lon="6.11883">
        <ele>450</ele>
        <time>2015-06-14T11:01:47Z</time>
      </trkpt>
      <trkpt lat="43.74058" lon="6.11888">
        <ele>452</ele>
        <time>2015-06-14T11:01:54Z</time>
      </trkpt>
      <trkpt lat="43.74052" lon="6.11891">
        <ele>451</ele>
        <time>2015-06-14T11:02:01Z</time>
      </trkpt>
      <trkpt lat="43.74051" lon="6.11898">
        <ele>451</ele>
        <time>2015-06-14T11:02:08Z</time>
      </trkpt>
      <trkpt lat="43.74045" lon="6.11903">
        <ele>451</ele>
        <time>2015-06-14T11:02:15Z</time>
      </trkpt>
      <trkpt lat="43.74045" lon="6.11912">
        <ele>450</ele>
        <time>2015-06-14T11:02:22Z</time>
      </trkpt>
      <trkpt lat="43.74042" lon="6.11921">
        <ele>453</ele>
        <time>2015-06-14T11:02:29Z</time>
      </trkpt>
      <trkpt lat="43.74035" lon="6.11924">
        <ele>455</ele>
        <time>2015-06-14T11:02:36Z</time>
      </trkpt>
      <trkpt lat="43.74029" lon="6.1193">
        <ele>453</ele>
        <time>2015-06-14T11:02:41Z</time>
      </trkpt>
      <trkpt lat="43.74024" lon="6.11938">
        <ele>451</ele>
        <time>2015-06-14T11:02:48Z</time>
      </trkpt>
      <trkpt lat="43.74023" lon="6.11947">
        <ele>450</ele>
        <time>2015-06-14T11:02:55Z</time>
      </trkpt>
      <trkpt lat="43.74019" lon="6.11952">
        <ele>450</ele>
        <time>2015-06-14T11:03:02Z</time>
      </trkpt>
      <trkpt lat="43.74016" lon="6.11957">
        <ele>450</ele>
        <time>2015-06-14T11:03:09Z</time>
      </trkpt>
      <trkpt lat="43.74014" lon="6.11962">
        <ele>452</ele>
        <time>2015-06-14T11:03:16Z</time>
      </trkpt>
      <trkpt lat="43.74014" lon="6.11971">
        <ele>452</ele>
        <time>2015-06-14T11:03:23Z</time>
      </trkpt>
      <trkpt lat="43.74014" lon="6.1198">
        <ele>455</ele>
        <time>2015-06-14T11:03:30Z</time>
      </trkpt>
      <trkpt lat="43.7401" lon="6.11989">
        <ele>453</ele>
        <time>2015-06-14T11:03:37Z</time>
      </trkpt>
      <trkpt lat="43.74009" lon="6.11996">
        <ele>450</ele>
        <time>2015-06-14T11:03:44Z</time>
      </trkpt>
      <trkpt lat="43.74007" lon="6.12003">
        <ele>450</ele>
        <time>2015-06-14T11:03:51Z</time>
      </trkpt>
      <trkpt lat="43.74003" lon="6.12008">
        <ele>449</ele>
        <time>2015-06-14T11:03:58Z</time>
      </trkpt>
      <trkpt lat="43.73999" lon="6.12015">
        <ele>448</ele>
        <time>2015-06-14T11:04:05Z</time>
      </trkpt>
      <trkpt lat="43.73994" lon="6.1202">
        <ele>447</ele>
        <time>2015-06-14T11:04:12Z</time>
      </trkpt>
      <trkpt lat="43.73993" lon="6.12026">
        <ele>450</ele>
        <time>2015-06-14T11:04:19Z</time>
      </trkpt>
      <trkpt lat="43.73993" lon="6.12033">
        <ele>448</ele>
        <time>2015-06-14T11:04:26Z</time>
      </trkpt>
      <trkpt lat="43.73995" lon="6.12037">
        <ele>453</ele>
        <time>2015-06-14T11:04:33Z</time>
      </trkpt>
      <trkpt lat="43.7399" lon="6.12038">
        <ele>455</ele>
        <time>2015-06-14T11:04:40Z</time>
      </trkpt>
      <trkpt lat="43.73986" lon="6.12046">
        <ele>452</ele>
        <time>2015-06-14T11:04:47Z</time>
      </trkpt>
      <trkpt lat="43.73987" lon="6.12055">
        <ele>453</ele>
        <time>2015-06-14T11:04:54Z</time>
      </trkpt>
      <trkpt lat="43.73984" lon="6.12057">
        <ele>454</ele>
        <time>2015-06-14T11:05:01Z</time>
      </trkpt>
      <trkpt lat="43.73979" lon="6.1206">
        <ele>453</ele>
        <time>2015-06-14T11:05:08Z</time>
      </trkpt>
      <trkpt lat="43.73978" lon="6.12068">
        <ele>453</ele>
        <time>2015-06-14T11:05:15Z</time>
      </trkpt>
      <trkpt lat="43.73972" lon="6.1207">
        <ele>453</ele>
        <time>2015-06-14T11:05:22Z</time>
      </trkpt>
      <trkpt lat="43.7397" lon="6.12074">
        <ele>455</ele>
        <time>2015-06-14T11:05:29Z</time>
      </trkpt>
      <trkpt lat="43.73965" lon="6.12075">
        <ele>455</ele>
        <time>2015-06-14T11:05:36Z</time>
      </trkpt>
      <trkpt lat="43.73965" lon="6.12083">
        <ele>457</ele>
        <time>2015-06-14T11:05:43Z</time>
      </trkpt>
      <trkpt lat="43.73959" lon="6.12087">
        <ele>459</ele>
        <time>2015-06-14T11:05:50Z</time>
      </trkpt>
      <trkpt lat="43.73955" lon="6.12097">
        <ele>458</ele>
        <time>2015-06-14T11:05:57Z</time>
      </trkpt>
      <trkpt lat="43.73957" lon="6.12111">
        <ele>454</ele>
        <time>2015-06-14T11:06:03Z</time>
      </trkpt>
      <trkpt lat="43.73952" lon="6.12114">
        <ele>453</ele>
        <time>2015-06-14T11:06:10Z</time>
      </trkpt>
      <trkpt lat="43.73944" lon="6.12116">
        <ele>451</ele>
        <time>2015-06-14T11:06:17Z</time>
      </trkpt>
      <trkpt lat="43.73942" lon="6.12124">
        <ele>450</ele>
        <time>2015-06-14T11:06:24Z</time>
      </trkpt>
      <trkpt lat="43.73939" lon="6.1213">
        <ele>447</ele>
        <time>2015-06-14T11:06:31Z</time>
      </trkpt>
      <trkpt lat="43.73938" lon="6.12137">
        <ele>447</ele>
        <time>2015-06-14T11:06:38Z</time>
      </trkpt>
      <trkpt lat="43.73935" lon="6.1214">
        <ele>448</ele>
        <time>2015-06-14T11:06:45Z</time>
      </trkpt>
      <trkpt lat="43.73938" lon="6.12145">
        <ele>450</ele>
        <time>2015-06-14T11:06:52Z</time>
      </trkpt>
      <trkpt lat="43.73935" lon="6.12147">
        <ele>452</ele>
        <time>2015-06-14T11:06:59Z</time>
      </trkpt>
      <trkpt lat="43.73933" lon="6.12149">
        <ele>450</ele>
        <time>2015-06-14T11:07:06Z</time>
      </trkpt>
      <trkpt lat="43.73931" lon="6.12149">
        <ele>452</ele>
        <time>2015-06-14T11:07:13Z</time>
      </trkpt>
      <trkpt lat="43.73931" lon="6.12151">
        <ele>454</ele>
        <time>2015-06-14T11:07:20Z</time>
      </trkpt>
      <trkpt lat="43.73928" lon="6.12154">
        <ele>452</ele>
        <time>2015-06-14T11:07:27Z</time>
      </trkpt>
      <trkpt lat="43.73924" lon="6.12158">
        <ele>452</ele>
        <time>2015-06-14T11:07:34Z</time>
      </trkpt>
      <trkpt lat="43.73919" lon="6.12165">
        <ele>451</ele>
        <time>2015-06-14T11:07:41Z</time>
      </trkpt>
      <trkpt lat="43.73916" lon="6.12173">
        <ele>450</ele>
        <time>2015-06-14T11:07:48Z</time>
      </trkpt>
      <trkpt lat="43.73917" lon="6.12179">
        <ele>451</ele>
        <time>2015-06-14T11:07:55Z</time>
      </trkpt>
      <trkpt lat="43.73913" lon="6.12179">
        <ele>450</ele>
        <time>2015-06-14T11:08:02Z</time>
      </trkpt>
      <trkpt lat="43.73913" lon="6.12181">
        <ele>453</ele>
        <time>2015-06-14T11:08:09Z</time>
      </trkpt>
      <trkpt lat="43.7391" lon="6.12185">
        <ele>454</ele>
        <time>2015-06-14T11:08:16Z</time>
      </trkpt>
      <trkpt lat="43.73912" lon="6.12192">
        <ele>453</ele>
        <time>2015-06-14T11:08:23Z</time>
      </trkpt>
      <trkpt lat="43.73905" lon="6.12191">
        <ele>452</ele>
        <time>2015-06-14T11:08:30Z</time>
      </trkpt>
      <trkpt lat="43.739" lon="6.12191">
        <ele>452</ele>
        <time>2015-06-14T11:08:37Z</time>
      </trkpt>
      <trkpt lat="43.73901" lon="6.12198">
        <ele>454</ele>
        <time>2015-06-14T11:08:44Z</time>
      </trkpt>
      <trkpt lat="43.73908" lon="6.122">
        <ele>455</ele>
        <time>2015-06-14T11:08:45Z</time>
      </trkpt>
      <trkpt lat="43.73907" lon="6.12206">
        <ele>450</ele>
        <time>2015-06-14T11:08:52Z</time>
      </trkpt>
      <trkpt lat="43.739" lon="6.12199">
        <ele>456</ele>
        <time>2015-06-14T11:08:56Z</time>
      </trkpt>
      <trkpt lat="43.73899" lon="6.12199">
        <ele>458</ele>
        <time>2015-06-14T11:09:03Z</time>
      </trkpt>
      <trkpt lat="43.73897" lon="6.12203">
        <ele>461</ele>
        <time>2015-06-14T11:09:10Z</time>
      </trkpt>
      <trkpt lat="43.73886" lon="6.12201">
        <ele>461</ele>
        <time>2015-06-14T11:09:14Z</time>
      </trkpt>
      <trkpt lat="43.73891" lon="6.12209">
        <ele>463</ele>
        <time>2015-06-14T11:09:16Z</time>
      </trkpt>
      <trkpt lat="43.7389" lon="6.12216">
        <ele>459</ele>
        <time>2015-06-14T11:09:23Z</time>
      </trkpt>
      <trkpt lat="43.73886" lon="6.12221">
        <ele>459</ele>
        <time>2015-06-14T11:09:30Z</time>
      </trkpt>
      <trkpt lat="43.73883" lon="6.12222">
        <ele>463</ele>
        <time>2015-06-14T11:09:37Z</time>
      </trkpt>
      <trkpt lat="43.73882" lon="6.12227">
        <ele>460</ele>
        <time>2015-06-14T11:09:44Z</time>
      </trkpt>
      <trkpt lat="43.73881" lon="6.1223">
        <ele>459</ele>
        <time>2015-06-14T11:09:51Z</time>
      </trkpt>
      <trkpt lat="43.7388" lon="6.12233">
        <ele>456</ele>
        <time>2015-06-14T11:09:58Z</time>
      </trkpt>
      <trkpt lat="43.73884" lon="6.12235">
        <ele>455</ele>
        <time>2015-06-14T11:10:05Z</time>
      </trkpt>
      <trkpt lat="43.7389" lon="6.12237">
        <ele>457</ele>
        <time>2015-06-14T11:10:12Z</time>
      </trkpt>
      <trkpt lat="43.73891" lon="6.12235">
        <ele>455</ele>
        <time>2015-06-14T11:10:19Z</time>
      </trkpt>
      <trkpt lat="43.73892" lon="6.12233">
        <ele>457</ele>
        <time>2015-06-14T11:10:26Z</time>
      </trkpt>
      <trkpt lat="43.73897" lon="6.12232">
        <ele>460</ele>
        <time>2015-06-14T11:10:33Z</time>
      </trkpt>
      <trkpt lat="43.73895" lon="6.12223">
        <ele>460</ele>
        <time>2015-06-14T11:10:40Z</time>
      </trkpt>
      <trkpt lat="43.73896" lon="6.12217">
        <ele>461</ele>
        <time>2015-06-14T11:10:47Z</time>
      </trkpt>
      <trkpt lat="43.73897" lon="6.12212">
        <ele>461</ele>
        <time>2015-06-14T11:10:54Z</time>
      </trkpt>
      <trkpt lat="43.73898" lon="6.12206">
        <ele>462</ele>
        <time>2015-06-14T11:11:01Z</time>
      </trkpt>
      <trkpt lat="43.73901" lon="6.12201">
        <ele>462</ele>
        <time>2015-06-14T11:11:08Z</time>
      </trkpt>
      <trkpt lat="43.73907" lon="6.12196">
        <ele>460</ele>
        <time>2015-06-14T11:11:15Z</time>
      </trkpt>
      <trkpt lat="43.73907" lon="6.12189">
        <ele>461</ele>
        <time>2015-06-14T11:11:22Z</time>
      </trkpt>
      <trkpt lat="43.7391" lon="6.12182">
        <ele>461</ele>
        <time>2015-06-14T11:11:29Z</time>
      </trkpt>
      <trkpt lat="43.73913" lon="6.12177">
        <ele>462</ele>
        <time>2015-06-14T11:11:36Z</time>
      </trkpt>
      <trkpt lat="43.73913" lon="6.12171">
        <ele>462</ele>
        <time>2015-06-14T11:11:43Z</time>
      </trkpt>
      <trkpt lat="43.73919" lon="6.12165">
        <ele>462</ele>
        <time>2015-06-14T11:11:50Z</time>
      </trkpt>
      <trkpt lat="43.73922" lon="6.12158">
        <ele>463</ele>
        <time>2015-06-14T11:11:57Z</time>
      </trkpt>
      <trkpt lat="43.73926" lon="6.12155">
        <ele>462</ele>
        <time>2015-06-14T11:12:04Z</time>
      </trkpt>
      <trkpt lat="43.73928" lon="6.12148">
        <ele>460</ele>
        <time>2015-06-14T11:12:11Z</time>
      </trkpt>
      <trkpt lat="43.73929" lon="6.12144">
        <ele>459</ele>
        <time>2015-06-14T11:12:18Z</time>
      </trkpt>
      <trkpt lat="43.73933" lon="6.12141">
        <ele>459</ele>
        <time>2015-06-14T11:12:25Z</time>
      </trkpt>
      <trkpt lat="43.73931" lon="6.12137">
        <ele>458</ele>
        <time>2015-06-14T11:12:32Z</time>
      </trkpt>
      <trkpt lat="43.73931" lon="6.12135">
        <ele>456</ele>
        <time>2015-06-14T11:12:39Z</time>
      </trkpt>
      <trkpt lat="43.7393" lon="6.1213">
        <ele>457</ele>
        <time>2015-06-14T11:12:46Z</time>
      </trkpt>
      <trkpt lat="43.73933" lon="6.12129">
        <ele>455</ele>
        <time>2015-06-14T11:12:53Z</time>
      </trkpt>
      <trkpt lat="43.73937" lon="6.1213">
        <ele>455</ele>
        <time>2015-06-14T11:13:00Z</time>
      </trkpt>
      <trkpt lat="43.73939" lon="6.12124">
        <ele>457</ele>
        <time>2015-06-14T11:13:07Z</time>
      </trkpt>
      <trkpt lat="43.73945" lon="6.12118">
        <ele>461</ele>
        <time>2015-06-14T11:13:14Z</time>
      </trkpt>
      <trkpt lat="43.73946" lon="6.12109">
        <ele>462</ele>
        <time>2015-06-14T11:13:21Z</time>
      </trkpt>
      <trkpt lat="43.7395" lon="6.12099">
        <ele>463</ele>
        <time>2015-06-14T11:13:28Z</time>
      </trkpt>
      <trkpt lat="43.7395" lon="6.12089">
        <ele>463</ele>
        <time>2015-06-14T11:13:34Z</time>
      </trkpt>
      <trkpt lat="43.73955" lon="6.12083">
        <ele>465</ele>
        <time>2015-06-14T11:13:41Z</time>
      </trkpt>
      <trkpt lat="43.73961" lon="6.12078">
        <ele>464</ele>
        <time>2015-06-14T11:13:48Z</time>
      </trkpt>
      <trkpt lat="43.7396" lon="6.12066">
        <ele>466</ele>
        <time>2015-06-14T11:13:55Z</time>
      </trkpt>
      <trkpt lat="43.73969" lon="6.12067">
        <ele>465</ele>
        <time>2015-06-14T11:13:59Z</time>
      </trkpt>
      <trkpt lat="43.73974" lon="6.12061">
        <ele>468</ele>
        <time>2015-06-14T11:14:06Z</time>
      </trkpt>
      <trkpt lat="43.73973" lon="6.12052">
        <ele>469</ele>
        <time>2015-06-14T11:14:13Z</time>
      </trkpt>
      <trkpt lat="43.73972" lon="6.12041">
        <ele>468</ele>
        <time>2015-06-14T11:14:19Z</time>
      </trkpt>
      <trkpt lat="43.73977" lon="6.12037">
        <ele>468</ele>
        <time>2015-06-14T11:14:26Z</time>
      </trkpt>
      <trkpt lat="43.73981" lon="6.12029">
        <ele>466</ele>
        <time>2015-06-14T11:14:33Z</time>
      </trkpt>
      <trkpt lat="43.73984" lon="6.12023">
        <ele>465</ele>
        <time>2015-06-14T11:14:40Z</time>
      </trkpt>
      <trkpt lat="43.73986" lon="6.12022">
        <ele>466</ele>
        <time>2015-06-14T11:14:47Z</time>
      </trkpt>
      <trkpt lat="43.73986" lon="6.12011">
        <ele>462</ele>
        <time>2015-06-14T11:14:54Z</time>
      </trkpt>
      <trkpt lat="43.73991" lon="6.12003">
        <ele>462</ele>
        <time>2015-06-14T11:15:00Z</time>
      </trkpt>
      <trkpt lat="43.73997" lon="6.11996">
        <ele>461</ele>
        <time>2015-06-14T11:15:06Z</time>
      </trkpt>
      <trkpt lat="43.74001" lon="6.11991">
        <ele>462</ele>
        <time>2015-06-14T11:15:13Z</time>
      </trkpt>
      <trkpt lat="43.74006" lon="6.11985">
        <ele>462</ele>
        <time>2015-06-14T11:15:20Z</time>
      </trkpt>
      <trkpt lat="43.7401" lon="6.1198">
        <ele>463</ele>
        <time>2015-06-14T11:15:27Z</time>
      </trkpt>
      <trkpt lat="43.74017" lon="6.11974">
        <ele>464</ele>
        <time>2015-06-14T11:15:32Z</time>
      </trkpt>
      <trkpt lat="43.74022" lon="6.11968">
        <ele>464</ele>
        <time>2015-06-14T11:15:38Z</time>
      </trkpt>
      <trkpt lat="43.74026" lon="6.11958">
        <ele>463</ele>
        <time>2015-06-14T11:15:45Z</time>
      </trkpt>
      <trkpt lat="43.74029" lon="6.11948">
        <ele>463</ele>
        <time>2015-06-14T11:15:51Z</time>
      </trkpt>
      <trkpt lat="43.74031" lon="6.11939">
        <ele>462</ele>
        <time>2015-06-14T11:15:57Z</time>
      </trkpt>
      <trkpt lat="43.74036" lon="6.1193">
        <ele>461</ele>
        <time>2015-06-14T11:16:04Z</time>
      </trkpt>
      <trkpt lat="43.7404" lon="6.11921">
        <ele>461</ele>
        <time>2015-06-14T11:16:11Z</time>
      </trkpt>
      <trkpt lat="43.74041" lon="6.11911">
        <ele>461</ele>
        <time>2015-06-14T11:16:17Z</time>
      </trkpt>
      <trkpt lat="43.74047" lon="6.11905">
        <ele>461</ele>
        <time>2015-06-14T11:16:23Z</time>
      </trkpt>
      <trkpt lat="43.74055" lon="6.11904">
        <ele>460</ele>
        <time>2015-06-14T11:16:29Z</time>
      </trkpt>
      <trkpt lat="43.74051" lon="6.11895">
        <ele>457</ele>
        <time>2015-06-14T11:16:36Z</time>
      </trkpt>
      <trkpt lat="43.7405" lon="6.1189">
        <ele>457</ele>
        <time>2015-06-14T11:16:43Z</time>
      </trkpt>
      <trkpt lat="43.74045" lon="6.11883">
        <ele>456</ele>
        <time>2015-06-14T11:16:47Z</time>
      </trkpt>
      <trkpt lat="43.74045" lon="6.11879">
        <ele>458</ele>
        <time>2015-06-14T11:16:54Z</time>
      </trkpt>
      <trkpt lat="43.74044" lon="6.11874">
        <ele>462</ele>
        <time>2015-06-14T11:17:01Z</time>
      </trkpt>
      <trkpt lat="43.74046" lon="6.11875">
        <ele>463</ele>
        <time>2015-06-14T11:17:08Z</time>
      </trkpt>
      <trkpt lat="43.74048" lon="6.11875">
        <ele>464</ele>
        <time>2015-06-14T11:17:15Z</time>
      </trkpt>
      <trkpt lat="43.74049" lon="6.11876">
        <ele>463</ele>
        <time>2015-06-14T11:17:22Z</time>
      </trkpt>
      <trkpt lat="43.7405" lon="6.11875">
        <ele>460</ele>
        <time>2015-06-14T11:17:29Z</time>
      </trkpt>
      <trkpt lat="43.74052" lon="6.11876">
        <ele>459</ele>
        <time>2015-06-14T11:17:36Z</time>
      </trkpt>
      <trkpt lat="43.74052" lon="6.11876">
        <ele>458</ele>
        <time>2015-06-14T11:17:41Z</time>
      </trkpt>
      <trkpt lat="43.74051" lon="6.11874">
        <ele>459</ele>
        <time>2015-06-14T11:17:59Z</time>
      </trkpt>
      <trkpt lat="43.74051" lon="6.11874">
        <ele>459</ele>
        <time>2015-06-14T11:18:01Z</time>
      </trkpt>
      <trkpt lat="43.74051" lon="6.11873">
        <ele>458</ele>
        <time>2015-06-14T11:18:20Z</time>
      </trkpt>
      <trkpt lat="43.74051" lon="6.11873">
        <ele>458</ele>
        <time>2015-06-14T11:18:21Z</time>
      </trkpt>
      <trkpt lat="43.74058" lon="6.1187">
        <ele>455</ele>
        <time>2015-06-14T11:18:59Z</time>
      </trkpt>
      <trkpt lat="43.7406" lon="6.11863">
        <ele>455</ele>
        <time>2015-06-14T11:19:06Z</time>
      </trkpt>
      <trkpt lat="43.74066" lon="6.11855">
        <ele>454</ele>
        <time>2015-06-14T11:19:13Z</time>
      </trkpt>
      <trkpt lat="43.74067" lon="6.11845">
        <ele>456</ele>
        <time>2015-06-14T11:19:20Z</time>
      </trkpt>
      <trkpt lat="43.7407" lon="6.11836">
        <ele>457</ele>
        <time>2015-06-14T11:19:27Z</time>
      </trkpt>
      <trkpt lat="43.74074" lon="6.11828">
        <ele>457</ele>
        <time>2015-06-14T11:19:34Z</time>
      </trkpt>
      <trkpt lat="43.74077" lon="6.1182">
        <ele>460</ele>
        <time>2015-06-14T11:19:41Z</time>
      </trkpt>
      <trkpt lat="43.74084" lon="6.11816">
        <ele>459</ele>
        <time>2015-06-14T11:19:48Z</time>
      </trkpt>
      <trkpt lat="43.74091" lon="6.11811">
        <ele>462</ele>
        <time>2015-06-14T11:19:55Z</time>
      </trkpt>
      <trkpt lat="43.74093" lon="6.11802">
        <ele>466</ele>
        <time>2015-06-14T11:20:02Z</time>
      </trkpt>
      <trkpt lat="43.74095" lon="6.1179">
        <ele>469</ele>
        <time>2015-06-14T11:20:08Z</time>
      </trkpt>
      <trkpt lat="43.741" lon="6.11784">
        <ele>467</ele>
        <time>2015-06-14T11:20:15Z</time>
      </trkpt>
      <trkpt lat="43.74101" lon="6.11774">
        <ele>468</ele>
        <time>2015-06-14T11:20:22Z</time>
      </trkpt>
      <trkpt lat="43.74102" lon="6.11766">
        <ele>470</ele>
        <time>2015-06-14T11:20:29Z</time>
      </trkpt>
      <trkpt lat="43.74108" lon="6.11759">
        <ele>469</ele>
        <time>2015-06-14T11:20:35Z</time>
      </trkpt>
      <trkpt lat="43.74113" lon="6.11752">
        <ele>469</ele>
        <time>2015-06-14T11:20:42Z</time>
      </trkpt>
      <trkpt lat="43.74119" lon="6.11744">
        <ele>467</ele>
        <time>2015-06-14T11:20:49Z</time>
      </trkpt>
      <trkpt lat="43.74123" lon="6.11737">
        <ele>467</ele>
        <time>2015-06-14T11:20:56Z</time>
      </trkpt>
      <trkpt lat="43.74125" lon="6.11729">
        <ele>470</ele>
        <time>2015-06-14T11:21:03Z</time>
      </trkpt>
      <trkpt lat="43.74131" lon="6.1172">
        <ele>471</ele>
        <time>2015-06-14T11:21:10Z</time>
      </trkpt>
      <trkpt lat="43.74136" lon="6.11714">
        <ele>471</ele>
        <time>2015-06-14T11:21:17Z</time>
      </trkpt>
      <trkpt lat="43.74141" lon="6.11707">
        <ele>474</ele>
        <time>2015-06-14T11:21:24Z</time>
      </trkpt>
      <trkpt lat="43.74144" lon="6.117">
        <ele>474</ele>
        <time>2015-06-14T11:21:31Z</time>
      </trkpt>
      <trkpt lat="43.74151" lon="6.11694">
        <ele>470</ele>
        <time>2015-06-14T11:21:38Z</time>
      </trkpt>
      <trkpt lat="43.74156" lon="6.11687">
        <ele>473</ele>
        <time>2015-06-14T11:21:45Z</time>
      </trkpt>
      <trkpt lat="43.74163" lon="6.11684">
        <ele>471</ele>
        <time>2015-06-14T11:21:51Z</time>
      </trkpt>
      <trkpt lat="43.7417" lon="6.11682">
        <ele>470</ele>
        <time>2015-06-14T11:21:56Z</time>
      </trkpt>
      <trkpt lat="43.74177" lon="6.1168">
        <ele>469</ele>
        <time>2015-06-14T11:22:03Z</time>
      </trkpt>
      <trkpt lat="43.74181" lon="6.11677">
        <ele>472</ele>
        <time>2015-06-14T11:22:10Z</time>
      </trkpt>
      <trkpt lat="43.74183" lon="6.11668">
        <ele>478</ele>
        <time>2015-06-14T11:22:17Z</time>
      </trkpt>
      <trkpt lat="43.74184" lon="6.11663">
        <ele>483</ele>
        <time>2015-06-14T11:22:24Z</time>
      </trkpt>
      <trkpt lat="43.74192" lon="6.11663">
        <ele>482</ele>
        <time>2015-06-14T11:22:29Z</time>
      </trkpt>
      <trkpt lat="43.74197" lon="6.1166">
        <ele>483</ele>
        <time>2015-06-14T11:22:36Z</time>
      </trkpt>
      <trkpt lat="43.74198" lon="6.11654">
        <ele>490</ele>
        <time>2015-06-14T11:22:43Z</time>
      </trkpt>
      <trkpt lat="43.74206" lon="6.1166">
        <ele>490</ele>
        <time>2015-06-14T11:22:45Z</time>
      </trkpt>
      <trkpt lat="43.74211" lon="6.11655">
        <ele>491</ele>
        <time>2015-06-14T11:22:52Z</time>
      </trkpt>
      <trkpt lat="43.7422" lon="6.11658">
        <ele>495</ele>
        <time>2015-06-14T11:22:57Z</time>
      </trkpt>
      <trkpt lat="43.74228" lon="6.11659">
        <ele>494</ele>
        <time>2015-06-14T11:23:04Z</time>
      </trkpt>
      <trkpt lat="43.74232" lon="6.11655">
        <ele>492</ele>
        <time>2015-06-14T11:23:11Z</time>
      </trkpt>
      <trkpt lat="43.74235" lon="6.11652">
        <ele>491</ele>
        <time>2015-06-14T11:23:18Z</time>
      </trkpt>
      <trkpt lat="43.74242" lon="6.11648">
        <ele>492</ele>
        <time>2015-06-14T11:23:25Z</time>
      </trkpt>
      <trkpt lat="43.74248" lon="6.11646">
        <ele>496</ele>
        <time>2015-06-14T11:23:32Z</time>
      </trkpt>
      <trkpt lat="43.74256" lon="6.11647">
        <ele>498</ele>
        <time>2015-06-14T11:23:40Z</time>
      </trkpt>
      <trkpt lat="43.74264" lon="6.1165">
        <ele>497</ele>
        <time>2015-06-14T11:23:47Z</time>
      </trkpt>
      <trkpt lat="43.74266" lon="6.11645">
        <ele>500</ele>
        <time>2015-06-14T11:23:54Z</time>
      </trkpt>
      <trkpt lat="43.74271" lon="6.11644">
        <ele>495</ele>
        <time>2015-06-14T11:24:01Z</time>
      </trkpt>
      <trkpt lat="43.74271" lon="6.11639">
        <ele>497</ele>
        <time>2015-06-14T11:24:08Z</time>
      </trkpt>
      <trkpt lat="43.74276" lon="6.1164">
        <ele>495</ele>
        <time>2015-06-14T11:24:15Z</time>
      </trkpt>
      <trkpt lat="43.74284" lon="6.11645">
        <ele>487</ele>
        <time>2015-06-14T11:24:20Z</time>
      </trkpt>
      <trkpt lat="43.74287" lon="6.11647">
        <ele>486</ele>
        <time>2015-06-14T11:24:27Z</time>
      </trkpt>
      <trkpt lat="43.74284" lon="6.11639">
        <ele>489</ele>
        <time>2015-06-14T11:24:31Z</time>
      </trkpt>
      <trkpt lat="43.7429" lon="6.11639">
        <ele>484</ele>
        <time>2015-06-14T11:24:38Z</time>
      </trkpt>
      <trkpt lat="43.74298" lon="6.11646">
        <ele>479</ele>
        <time>2015-06-14T11:24:41Z</time>
      </trkpt>
      <trkpt lat="43.74307" lon="6.11649">
        <ele>473</ele>
        <time>2015-06-14T11:24:45Z</time>
      </trkpt>
      <trkpt lat="43.74315" lon="6.11652">
        <ele>477</ele>
        <time>2015-06-14T11:24:52Z</time>
      </trkpt>
      <trkpt lat="43.74322" lon="6.11647">
        <ele>477</ele>
        <time>2015-06-14T11:24:59Z</time>
      </trkpt>
      <trkpt lat="43.74328" lon="6.11645">
        <ele>479</ele>
        <time>2015-06-14T11:25:06Z</time>
      </trkpt>
      <trkpt lat="43.74337" lon="6.11647">
        <ele>474</ele>
        <time>2015-06-14T11:25:13Z</time>
      </trkpt>
      <trkpt lat="43.74344" lon="6.11645">
        <ele>469</ele>
        <time>2015-06-14T11:25:18Z</time>
      </trkpt>
      <trkpt lat="43.74351" lon="6.11647">
        <ele>471</ele>
        <time>2015-06-14T11:25:25Z</time>
      </trkpt>
      <trkpt lat="43.7435" lon="6.11643">
        <ele>467</ele>
        <time>2015-06-14T11:25:32Z</time>
      </trkpt>
      <trkpt lat="43.74358" lon="6.11647">
        <ele>473</ele>
        <time>2015-06-14T11:25:37Z</time>
      </trkpt>
      <trkpt lat="43.74365" lon="6.11645">
        <ele>467</ele>
        <time>2015-06-14T11:25:43Z</time>
      </trkpt>
      <trkpt lat="43.7437" lon="6.11647">
        <ele>469</ele>
        <time>2015-06-14T11:25:50Z</time>
      </trkpt>
      <trkpt lat="43.74376" lon="6.11654">
        <ele>475</ele>
        <time>2015-06-14T11:25:57Z</time>
      </trkpt>
      <trkpt lat="43.74381" lon="6.11651">
        <ele>473</ele>
        <time>2015-06-14T11:26:04Z</time>
      </trkpt>
      <trkpt lat="43.74385" lon="6.1165">
        <ele>472</ele>
        <time>2015-06-14T11:26:11Z</time>
      </trkpt>
      <trkpt lat="43.74391" lon="6.1165">
        <ele>473</ele>
        <time>2015-06-14T11:26:19Z</time>
      </trkpt>
      <trkpt lat="43.74397" lon="6.1165">
        <ele>474</ele>
        <time>2015-06-14T11:26:25Z</time>
      </trkpt>
      <trkpt lat="43.74403" lon="6.1165">
        <ele>473</ele>
        <time>2015-06-14T11:26:32Z</time>
      </trkpt>
      <trkpt lat="43.74409" lon="6.1165">
        <ele>475</ele>
        <time>2015-06-14T11:26:39Z</time>
      </trkpt>
      <trkpt lat="43.74416" lon="6.11651">
        <ele>475</ele>
        <time>2015-06-14T11:26:45Z</time>
      </trkpt>
      <trkpt lat="43.74422" lon="6.1165">
        <ele>476</ele>
        <time>2015-06-14T11:26:52Z</time>
      </trkpt>
      <trkpt lat="43.74427" lon="6.11652">
        <ele>477</ele>
        <time>2015-06-14T11:26:59Z</time>
      </trkpt>
      <trkpt lat="43.7443" lon="6.11652">
        <ele>480</ele>
        <time>2015-06-14T11:27:06Z</time>
      </trkpt>
      <trkpt lat="43.74436" lon="6.11655">
        <ele>481</ele>
        <time>2015-06-14T11:27:13Z</time>
      </trkpt>
      <trkpt lat="43.74441" lon="6.11653">
        <ele>480</ele>
        <time>2015-06-14T11:27:20Z</time>
      </trkpt>
      <trkpt lat="43.74448" lon="6.11651">
        <ele>478</ele>
        <time>2015-06-14T11:27:27Z</time>
      </trkpt>
      <trkpt lat="43.74456" lon="6.11649">
        <ele>476</ele>
        <time>2015-06-14T11:27:33Z</time>
      </trkpt>
      <trkpt lat="43.74461" lon="6.11647">
        <ele>477</ele>
        <time>2015-06-14T11:27:40Z</time>
      </trkpt>
      <trkpt lat="43.74468" lon="6.11643">
        <ele>478</ele>
        <time>2015-06-14T11:27:47Z</time>
      </trkpt>
      <trkpt lat="43.74476" lon="6.11643">
        <ele>473</ele>
        <time>2015-06-14T11:27:54Z</time>
      </trkpt>
      <trkpt lat="43.74484" lon="6.11641">
        <ele>475</ele>
        <time>2015-06-14T11:28:01Z</time>
      </trkpt>
      <trkpt lat="43.74491" lon="6.11644">
        <ele>471</ele>
        <time>2015-06-14T11:28:07Z</time>
      </trkpt>
      <trkpt lat="43.74497" lon="6.11642">
        <ele>475</ele>
        <time>2015-06-14T11:28:14Z</time>
      </trkpt>
      <trkpt lat="43.74499" lon="6.11638">
        <ele>476</ele>
        <time>2015-06-14T11:28:21Z</time>
      </trkpt>
      <trkpt lat="43.74509" lon="6.11642">
        <ele>466</ele>
        <time>2015-06-14T11:28:25Z</time>
      </trkpt>
      <trkpt lat="43.74516" lon="6.11644">
        <ele>466</ele>
        <time>2015-06-14T11:28:32Z</time>
      </trkpt>
      <trkpt lat="43.74525" lon="6.11649">
        <ele>466</ele>
        <time>2015-06-14T11:28:37Z</time>
      </trkpt>
      <trkpt lat="43.74534" lon="6.11651">
        <ele>462</ele>
        <time>2015-06-14T11:28:42Z</time>
      </trkpt>
      <trkpt lat="43.74539" lon="6.11647">
        <ele>467</ele>
        <time>2015-06-14T11:28:49Z</time>
      </trkpt>
      <trkpt lat="43.74542" lon="6.11641">
        <ele>468</ele>
        <time>2015-06-14T11:28:56Z</time>
      </trkpt>
      <trkpt lat="43.74546" lon="6.11639">
        <ele>468</ele>
        <time>2015-06-14T11:29:03Z</time>
      </trkpt>
      <trkpt lat="43.74554" lon="6.11637">
        <ele>464</ele>
        <time>2015-06-14T11:29:10Z</time>
      </trkpt>
      <trkpt lat="43.74561" lon="6.11635">
        <ele>459</ele>
        <time>2015-06-14T11:29:17Z</time>
      </trkpt>
      <trkpt lat="43.74562" lon="6.11626">
        <ele>462</ele>
        <time>2015-06-14T11:29:24Z</time>
      </trkpt>
      <trkpt lat="43.74567" lon="6.11622">
        <ele>462</ele>
        <time>2015-06-14T11:29:31Z</time>
      </trkpt>
      <trkpt lat="43.74564" lon="6.11609">
        <ele>466</ele>
        <time>2015-06-14T11:29:36Z</time>
      </trkpt>
      <trkpt lat="43.74565" lon="6.11601">
        <ele>466</ele>
        <time>2015-06-14T11:29:43Z</time>
      </trkpt>
      <trkpt lat="43.74574" lon="6.11601">
        <ele>459</ele>
        <time>2015-06-14T11:29:49Z</time>
      </trkpt>
      <trkpt lat="43.74577" lon="6.11593">
        <ele>458</ele>
        <time>2015-06-14T11:29:56Z</time>
      </trkpt>
      <trkpt lat="43.74582" lon="6.11586">
        <ele>455</ele>
        <time>2015-06-14T11:30:03Z</time>
      </trkpt>
      <trkpt lat="43.74582" lon="6.11576">
        <ele>458</ele>
        <time>2015-06-14T11:30:10Z</time>
      </trkpt>
      <trkpt lat="43.74582" lon="6.11571">
        <ele>462</ele>
        <time>2015-06-14T11:30:17Z</time>
      </trkpt>
      <trkpt lat="43.74584" lon="6.11564">
        <ele>464</ele>
        <time>2015-06-14T11:30:24Z</time>
      </trkpt>
      <trkpt lat="43.74586" lon="6.11555">
        <ele>464</ele>
        <time>2015-06-14T11:30:31Z</time>
      </trkpt>
      <trkpt lat="43.7459" lon="6.11548">
        <ele>464</ele>
        <time>2015-06-14T11:30:38Z</time>
      </trkpt>
      <trkpt lat="43.74594" lon="6.11542">
        <ele>464</ele>
        <time>2015-06-14T11:30:45Z</time>
      </trkpt>
      <trkpt lat="43.74597" lon="6.11534">
        <ele>468</ele>
        <time>2015-06-14T11:30:52Z</time>
      </trkpt>
      <trkpt lat="43.74602" lon="6.1153">
        <ele>472</ele>
        <time>2015-06-14T11:30:59Z</time>
      </trkpt>
      <trkpt lat="43.74601" lon="6.11522">
        <ele>473</ele>
        <time>2015-06-14T11:31:06Z</time>
      </trkpt>
      <trkpt lat="43.74604" lon="6.11517">
        <ele>475</ele>
        <time>2015-06-14T11:31:13Z</time>
      </trkpt>
      <trkpt lat="43.74603" lon="6.11511">
        <ele>476</ele>
        <time>2015-06-14T11:31:20Z</time>
      </trkpt>
      <trkpt lat="43.74607" lon="6.11501">
        <ele>477</ele>
        <time>2015-06-14T11:31:27Z</time>
      </trkpt>
      <trkpt lat="43.7461" lon="6.11492">
        <ele>475</ele>
        <time>2015-06-14T11:31:34Z</time>
      </trkpt>
      <trkpt lat="43.74612" lon="6.11483">
        <ele>473</ele>
        <time>2015-06-14T11:31:41Z</time>
      </trkpt>
      <trkpt lat="43.74613" lon="6.11474">
        <ele>473</ele>
        <time>2015-06-14T11:31:47Z</time>
      </trkpt>
      <trkpt lat="43.74615" lon="6.11464">
        <ele>472</ele>
        <time>2015-06-14T11:31:54Z</time>
      </trkpt>
      <trkpt lat="43.74618" lon="6.11455">
        <ele>470</ele>
        <time>2015-06-14T11:32:01Z</time>
      </trkpt>
      <trkpt lat="43.74618" lon="6.11447">
        <ele>471</ele>
        <time>2015-06-14T11:32:08Z</time>
      </trkpt>
      <trkpt lat="43.74618" lon="6.1144">
        <ele>469</ele>
        <time>2015-06-14T11:32:15Z</time>
      </trkpt>
      <trkpt lat="43.7462" lon="6.11435">
        <ele>468</ele>
        <time>2015-06-14T11:32:22Z</time>
      </trkpt>
      <trkpt lat="43.7462" lon="6.11427">
        <ele>467</ele>
        <time>2015-06-14T11:32:29Z</time>
      </trkpt>
      <trkpt lat="43.74621" lon="6.11419">
        <ele>467</ele>
        <time>2015-06-14T11:32:36Z</time>
      </trkpt>
      <trkpt lat="43.7462" lon="6.1141">
        <ele>468</ele>
        <time>2015-06-14T11:32:43Z</time>
      </trkpt>
      <trkpt lat="43.74619" lon="6.11402">
        <ele>469</ele>
        <time>2015-06-14T11:32:50Z</time>
      </trkpt>
      <trkpt lat="43.74618" lon="6.11394">
        <ele>467</ele>
        <time>2015-06-14T11:32:57Z</time>
      </trkpt>
      <trkpt lat="43.74618" lon="6.11386">
        <ele>467</ele>
        <time>2015-06-14T11:33:04Z</time>
      </trkpt>
      <trkpt lat="43.74618" lon="6.11379">
        <ele>466</ele>
        <time>2015-06-14T11:33:11Z</time>
      </trkpt>
      <trkpt lat="43.74617" lon="6.11373">
        <ele>467</ele>
        <time>2015-06-14T11:33:18Z</time>
      </trkpt>
      <trkpt lat="43.74615" lon="6.11366">
        <ele>469</ele>
        <time>2015-06-14T11:33:25Z</time>
      </trkpt>
      <trkpt lat="43.74615" lon="6.11358">
        <ele>468</ele>
        <time>2015-06-14T11:33:32Z</time>
      </trkpt>
      <trkpt lat="43.74615" lon="6.1135">
        <ele>468</ele>
        <time>2015-06-14T11:33:39Z</time>
      </trkpt>
      <trkpt lat="43.74613" lon="6.11342">
        <ele>468</ele>
        <time>2015-06-14T11:33:46Z</time>
      </trkpt>
      <trkpt lat="43.74613" lon="6.11334">
        <ele>468</ele>
        <time>2015-06-14T11:33:53Z</time>
      </trkpt>
      <trkpt lat="43.74613" lon="6.11326">
        <ele>467</ele>
        <time>2015-06-14T11:34:00Z</time>
      </trkpt>
      <trkpt lat="43.7461" lon="6.11316">
        <ele>470</ele>
        <time>2015-06-14T11:34:07Z</time>
      </trkpt>
      <trkpt lat="43.7461" lon="6.11308">
        <ele>469</ele>
        <time>2015-06-14T11:34:14Z</time>
      </trkpt>
      <trkpt lat="43.7461" lon="6.11301">
        <ele>467</ele>
        <time>2015-06-14T11:34:21Z</time>
      </trkpt>
      <trkpt lat="43.74609" lon="6.11293">
        <ele>467</ele>
        <time>2015-06-14T11:34:28Z</time>
      </trkpt>
      <trkpt lat="43.74608" lon="6.11285">
        <ele>466</ele>
        <time>2015-06-14T11:34:35Z</time>
      </trkpt>
      <trkpt lat="43.74606" lon="6.11278">
        <ele>466</ele>
        <time>2015-06-14T11:34:42Z</time>
      </trkpt>
      <trkpt lat="43.74605" lon="6.11268">
        <ele>464</ele>
        <time>2015-06-14T11:34:49Z</time>
      </trkpt>
      <trkpt lat="43.74603" lon="6.1126">
        <ele>467</ele>
        <time>2015-06-14T11:34:56Z</time>
      </trkpt>
      <trkpt lat="43.74601" lon="6.11253">
        <ele>467</ele>
        <time>2015-06-14T11:35:03Z</time>
      </trkpt>
      <trkpt lat="43.74601" lon="6.11245">
        <ele>467</ele>
        <time>2015-06-14T11:35:10Z</time>
      </trkpt>
      <trkpt lat="43.746" lon="6.11237">
        <ele>466</ele>
        <time>2015-06-14T11:35:17Z</time>
      </trkpt>
      <trkpt lat="43.74599" lon="6.11228">
        <ele>466</ele>
        <time>2015-06-14T11:35:24Z</time>
      </trkpt>
      <trkpt lat="43.74597" lon="6.11221">
        <ele>467</ele>
        <time>2015-06-14T11:35:31Z</time>
      </trkpt>
      <trkpt lat="43.74597" lon="6.11213">
        <ele>466</ele>
        <time>2015-06-14T11:35:38Z</time>
      </trkpt>
      <trkpt lat="43.74595" lon="6.11204">
        <ele>467</ele>
        <time>2015-06-14T11:35:45Z</time>
      </trkpt>
      <trkpt lat="43.74593" lon="6.11194">
        <ele>466</ele>
        <time>2015-06-14T11:35:52Z</time>
      </trkpt>
      <trkpt lat="43.74591" lon="6.11184">
        <ele>465</ele>
        <time>2015-06-14T11:35:59Z</time>
      </trkpt>
      <trkpt lat="43.74589" lon="6.11174">
        <ele>464</ele>
        <time>2015-06-14T11:36:06Z</time>
      </trkpt>
      <trkpt lat="43.74588" lon="6.11167">
        <ele>465</ele>
        <time>2015-06-14T11:36:13Z</time>
      </trkpt>
      <trkpt lat="43.74587" lon="6.11161">
        <ele>465</ele>
        <time>2015-06-14T11:36:20Z</time>
      </trkpt>
      <trkpt lat="43.74586" lon="6.11156">
        <ele>463</ele>
        <time>2015-06-14T11:36:27Z</time>
      </trkpt>
      <trkpt lat="43.74586" lon="6.1115">
        <ele>463</ele>
        <time>2015-06-14T11:36:34Z</time>
      </trkpt>
      <trkpt lat="43.74585" lon="6.11142">
        <ele>462</ele>
        <time>2015-06-14T11:36:41Z</time>
      </trkpt>
      <trkpt lat="43.74584" lon="6.11137">
        <ele>463</ele>
        <time>2015-06-14T11:36:48Z</time>
      </trkpt>
      <trkpt lat="43.74584" lon="6.1113">
        <ele>463</ele>
        <time>2015-06-14T11:36:55Z</time>
      </trkpt>
      <trkpt lat="43.74583" lon="6.11122">
        <ele>464</ele>
        <time>2015-06-14T11:37:02Z</time>
      </trkpt>
      <trkpt lat="43.74583" lon="6.11115">
        <ele>464</ele>
        <time>2015-06-14T11:37:09Z</time>
      </trkpt>
      <trkpt lat="43.74581" lon="6.11108">
        <ele>467</ele>
        <time>2015-06-14T11:37:16Z</time>
      </trkpt>
      <trkpt lat="43.74582" lon="6.11099">
        <ele>467</ele>
        <time>2015-06-14T11:37:23Z</time>
      </trkpt>
      <trkpt lat="43.74581" lon="6.11089">
        <ele>467</ele>
        <time>2015-06-14T11:37:30Z</time>
      </trkpt>
      <trkpt lat="43.74581" lon="6.11081">
        <ele>468</ele>
        <time>2015-06-14T11:37:37Z</time>
      </trkpt>
      <trkpt lat="43.74581" lon="6.11072">
        <ele>468</ele>
        <time>2015-06-14T11:37:44Z</time>
      </trkpt>
      <trkpt lat="43.74581" lon="6.11064">
        <ele>470</ele>
        <time>2015-06-14T11:37:51Z</time>
      </trkpt>
      <trkpt lat="43.74581" lon="6.11054">
        <ele>469</ele>
        <time>2015-06-14T11:37:58Z</time>
      </trkpt>
      <trkpt lat="43.74582" lon="6.11046">
        <ele>471</ele>
        <time>2015-06-14T11:38:05Z</time>
      </trkpt>
      <trkpt lat="43.74582" lon="6.1104">
        <ele>468</ele>
        <time>2015-06-14T11:38:12Z</time>
      </trkpt>
      <trkpt lat="43.74584" lon="6.11033">
        <ele>468</ele>
        <time>2015-06-14T11:38:19Z</time>
      </trkpt>
      <trkpt lat="43.74586" lon="6.11026">
        <ele>468</ele>
        <time>2015-06-14T11:38:26Z</time>
      </trkpt>
      <trkpt lat="43.74587" lon="6.1102">
        <ele>466</ele>
        <time>2015-06-14T11:38:33Z</time>
      </trkpt>
      <trkpt lat="43.74588" lon="6.11014">
        <ele>465</ele>
        <time>2015-06-14T11:38:40Z</time>
      </trkpt>
      <trkpt lat="43.7459" lon="6.11006">
        <ele>465</ele>
        <time>2015-06-14T11:38:47Z</time>
      </trkpt>
      <trkpt lat="43.74589" lon="6.10997">
        <ele>468</ele>
        <time>2015-06-14T11:38:54Z</time>
      </trkpt>
      <trkpt lat="43.7459" lon="6.10988">
        <ele>469</ele>
        <time>2015-06-14T11:39:01Z</time>
      </trkpt>
      <trkpt lat="43.7459" lon="6.1098">
        <ele>468</ele>
        <time>2015-06-14T11:39:08Z</time>
      </trkpt>
      <trkpt lat="43.7459" lon="6.10972">
        <ele>469</ele>
        <time>2015-06-14T11:39:15Z</time>
      </trkpt>
      <trkpt lat="43.7459" lon="6.10962">
        <ele>469</ele>
        <time>2015-06-14T11:39:22Z</time>
      </trkpt>
      <trkpt lat="43.74588" lon="6.10953">
        <ele>470</ele>
        <time>2015-06-14T11:39:29Z</time>
      </trkpt>
      <trkpt lat="43.7459" lon="6.10947">
        <ele>469</ele>
        <time>2015-06-14T11:39:36Z</time>
      </trkpt>
      <trkpt lat="43.74591" lon="6.10941">
        <ele>469</ele>
        <time>2015-06-14T11:39:43Z</time>
      </trkpt>
      <trkpt lat="43.74591" lon="6.10935">
        <ele>469</ele>
        <time>2015-06-14T11:39:50Z</time>
      </trkpt>
      <trkpt lat="43.74591" lon="6.10927">
        <ele>468</ele>
        <time>2015-06-14T11:39:57Z</time>
      </trkpt>
      <trkpt lat="43.74591" lon="6.10918">
        <ele>468</ele>
        <time>2015-06-14T11:40:04Z</time>
      </trkpt>
      <trkpt lat="43.74591" lon="6.10909">
        <ele>468</ele>
        <time>2015-06-14T11:40:11Z</time>
      </trkpt>
      <trkpt lat="43.74588" lon="6.10902">
        <ele>468</ele>
        <time>2015-06-14T11:40:18Z</time>
      </trkpt>
      <trkpt lat="43.74588" lon="6.10895">
        <ele>467</ele>
        <time>2015-06-14T11:40:25Z</time>
      </trkpt>
      <trkpt lat="43.74589" lon="6.10889">
        <ele>465</ele>
        <time>2015-06-14T11:40:32Z</time>
      </trkpt>
      <trkpt lat="43.74589" lon="6.10884">
        <ele>463</ele>
        <time>2015-06-14T11:40:39Z</time>
      </trkpt>
      <trkpt lat="43.74589" lon="6.10881">
        <ele>462</ele>
        <time>2015-06-14T11:40:46Z</time>
      </trkpt>
      <trkpt lat="43.7459" lon="6.10877">
        <ele>461</ele>
        <time>2015-06-14T11:40:53Z</time>
      </trkpt>
      <trkpt lat="43.7459" lon="6.10875">
        <ele>461</ele>
        <time>2015-06-14T11:41:00Z</time>
      </trkpt>
      <trkpt lat="43.74591" lon="6.10873">
        <ele>459</ele>
        <time>2015-06-14T11:41:07Z</time>
      </trkpt>
      <trkpt lat="43.74591" lon="6.10873">
        <ele>459</ele>
        <time>2015-06-14T11:41:12Z</time>
      </trkpt>
      <trkpt lat="43.74591" lon="6.10872">
        <ele>459</ele>
        <time>2015-06-14T11:41:22Z</time>
      </trkpt>
      <trkpt lat="43.74591" lon="6.10872">
        <ele>459</ele>
        <time>2015-06-14T11:41:23Z</time>
      </trkpt>
      <trkpt lat="43.74591" lon="6.10871">
        <ele>458</ele>
        <time>2015-06-14T11:42:01Z</time>
      </trkpt>
      <trkpt lat="43.74592" lon="6.10871">
        <ele>458</ele>
        <time>2015-06-14T11:42:02Z</time>
      </trkpt>
      <trkpt lat="43.74592" lon="6.10871">
        <ele>458</ele>
        <time>2015-06-14T11:42:12Z</time>
      </trkpt>
      <trkpt lat="43.74592" lon="6.10871">
        <ele>458</ele>
        <time>2015-06-14T11:42:13Z</time>
      </trkpt>
      <trkpt lat="43.74588" lon="6.10866">
        <ele>462</ele>
        <time>2015-06-14T11:43:08Z</time>
      </trkpt>
      <trkpt lat="43.74584" lon="6.10859">
        <ele>461</ele>
        <time>2015-06-14T11:43:15Z</time>
      </trkpt>
      <trkpt lat="43.7458" lon="6.10852">
        <ele>461</ele>
        <time>2015-06-14T11:43:22Z</time>
      </trkpt>
      <trkpt lat="43.74577" lon="6.10842">
        <ele>463</ele>
        <time>2015-06-14T11:43:29Z</time>
      </trkpt>
      <trkpt lat="43.74578" lon="6.10837">
        <ele>464</ele>
        <time>2015-06-14T11:43:36Z</time>
      </trkpt>
      <trkpt lat="43.74577" lon="6.10834">
        <ele>463</ele>
        <time>2015-06-14T11:43:43Z</time>
      </trkpt>
      <trkpt lat="43.74576" lon="6.10833">
        <ele>463</ele>
        <time>2015-06-14T11:43:50Z</time>
      </trkpt>
      <trkpt lat="43.74577" lon="6.10827">
        <ele>463</ele>
        <time>2015-06-14T11:43:57Z</time>
      </trkpt>
      <trkpt lat="43.74575" lon="6.10819">
        <ele>463</ele>
        <time>2015-06-14T11:44:04Z</time>
      </trkpt>
      <trkpt lat="43.74572" lon="6.1081">
        <ele>464</ele>
        <time>2015-06-14T11:44:11Z</time>
      </trkpt>
      <trkpt lat="43.74569" lon="6.10804">
        <ele>463</ele>
        <time>2015-06-14T11:44:18Z</time>
      </trkpt>
      <trkpt lat="43.74567" lon="6.10799">
        <ele>463</ele>
        <time>2015-06-14T11:44:25Z</time>
      </trkpt>
      <trkpt lat="43.74562" lon="6.10791">
        <ele>464</ele>
        <time>2015-06-14T11:44:32Z</time>
      </trkpt>
      <trkpt lat="43.74558" lon="6.10783">
        <ele>464</ele>
        <time>2015-06-14T11:44:39Z</time>
      </trkpt>
      <trkpt lat="43.74557" lon="6.10777">
        <ele>463</ele>
        <time>2015-06-14T11:44:46Z</time>
      </trkpt>
      <trkpt lat="43.74557" lon="6.10771">
        <ele>464</ele>
        <time>2015-06-14T11:44:54Z</time>
      </trkpt>
      <trkpt lat="43.74554" lon="6.10767">
        <ele>463</ele>
        <time>2015-06-14T11:45:01Z</time>
      </trkpt>
      <trkpt lat="43.74552" lon="6.10767">
        <ele>463</ele>
        <time>2015-06-14T11:45:08Z</time>
      </trkpt>
      <trkpt lat="43.7455" lon="6.10763">
        <ele>465</ele>
        <time>2015-06-14T11:45:15Z</time>
      </trkpt>
      <trkpt lat="43.74546" lon="6.10759">
        <ele>463</ele>
        <time>2015-06-14T11:45:22Z</time>
      </trkpt>
      <trkpt lat="43.74547" lon="6.10753">
        <ele>460</ele>
        <time>2015-06-14T11:45:29Z</time>
      </trkpt>
      <trkpt lat="43.74546" lon="6.10748">
        <ele>460</ele>
        <time>2015-06-14T11:45:36Z</time>
      </trkpt>
      <trkpt lat="43.74545" lon="6.10744">
        <ele>460</ele>
        <time>2015-06-14T11:45:43Z</time>
      </trkpt>
      <trkpt lat="43.74544" lon="6.10741">
        <ele>460</ele>
        <time>2015-06-14T11:45:50Z</time>
      </trkpt>
      <trkpt lat="43.74546" lon="6.10739">
        <ele>454</ele>
        <time>2015-06-14T11:45:57Z</time>
      </trkpt>
      <trkpt lat="43.74545" lon="6.10733">
        <ele>453</ele>
        <time>2015-06-14T11:46:04Z</time>
      </trkpt>
      <trkpt lat="43.74543" lon="6.10724">
        <ele>452</ele>
        <time>2015-06-14T11:46:11Z</time>
      </trkpt>
      <trkpt lat="43.74541" lon="6.10715">
        <ele>451</ele>
        <time>2015-06-14T11:46:18Z</time>
      </trkpt>
      <trkpt lat="43.74539" lon="6.10705">
        <ele>452</ele>
        <time>2015-06-14T11:46:25Z</time>
      </trkpt>
      <trkpt lat="43.74537" lon="6.10696">
        <ele>453</ele>
        <time>2015-06-14T11:46:32Z</time>
      </trkpt>
      <trkpt lat="43.74536" lon="6.10687">
        <ele>454</ele>
        <time>2015-06-14T11:46:39Z</time>
      </trkpt>
      <trkpt lat="43.74533" lon="6.10676">
        <ele>454</ele>
        <time>2015-06-14T11:46:46Z</time>
      </trkpt>
      <trkpt lat="43.7453" lon="6.10666">
        <ele>454</ele>
        <time>2015-06-14T11:46:53Z</time>
      </trkpt>
      <trkpt lat="43.74528" lon="6.10658">
        <ele>454</ele>
        <time>2015-06-14T11:47:00Z</time>
      </trkpt>
      <trkpt lat="43.74524" lon="6.10648">
        <ele>453</ele>
        <time>2015-06-14T11:47:07Z</time>
      </trkpt>
      <trkpt lat="43.74521" lon="6.10639">
        <ele>454</ele>
        <time>2015-06-14T11:47:14Z</time>
      </trkpt>
      <trkpt lat="43.74517" lon="6.10631">
        <ele>455</ele>
        <time>2015-06-14T11:47:21Z</time>
      </trkpt>
      <trkpt lat="43.74514" lon="6.10624">
        <ele>455</ele>
        <time>2015-06-14T11:47:28Z</time>
      </trkpt>
      <trkpt lat="43.74512" lon="6.10616">
        <ele>456</ele>
        <time>2015-06-14T11:47:35Z</time>
      </trkpt>
      <trkpt lat="43.74509" lon="6.10608">
        <ele>456</ele>
        <time>2015-06-14T11:47:42Z</time>
      </trkpt>
      <trkpt lat="43.74506" lon="6.10599">
        <ele>454</ele>
        <time>2015-06-14T11:47:49Z</time>
      </trkpt>
      <trkpt lat="43.74504" lon="6.10593">
        <ele>455</ele>
        <time>2015-06-14T11:47:56Z</time>
      </trkpt>
      <trkpt lat="43.74504" lon="6.10588">
        <ele>458</ele>
        <time>2015-06-14T11:48:03Z</time>
      </trkpt>
      <trkpt lat="43.74506" lon="6.10585">
        <ele>457</ele>
        <time>2015-06-14T11:48:10Z</time>
      </trkpt>
      <trkpt lat="43.74506" lon="6.10578">
        <ele>459</ele>
        <time>2015-06-14T11:48:17Z</time>
      </trkpt>
      <trkpt lat="43.74504" lon="6.10575">
        <ele>460</ele>
        <time>2015-06-14T11:48:24Z</time>
      </trkpt>
      <trkpt lat="43.74505" lon="6.10569">
        <ele>460</ele>
        <time>2015-06-14T11:48:31Z</time>
      </trkpt>
      <trkpt lat="43.74506" lon="6.10565">
        <ele>458</ele>
        <time>2015-06-14T11:48:38Z</time>
      </trkpt>
      <trkpt lat="43.74507" lon="6.10563">
        <ele>459</ele>
        <time>2015-06-14T11:48:45Z</time>
      </trkpt>
      <trkpt lat="43.74506" lon="6.10561">
        <ele>459</ele>
        <time>2015-06-14T11:48:52Z</time>
      </trkpt>
      <trkpt lat="43.74506" lon="6.1056">
        <ele>457</ele>
        <time>2015-06-14T11:48:59Z</time>
      </trkpt>
      <trkpt lat="43.74505" lon="6.10559">
        <ele>458</ele>
        <time>2015-06-14T11:49:06Z</time>
      </trkpt>
      <trkpt lat="43.74505" lon="6.10559">
        <ele>459</ele>
        <time>2015-06-14T11:49:07Z</time>
      </trkpt>
      <trkpt lat="43.74505" lon="6.10558">
        <ele>457</ele>
        <time>2015-06-14T11:49:17Z</time>
      </trkpt>
      <trkpt lat="43.74505" lon="6.10558">
        <ele>457</ele>
        <time>2015-06-14T11:49:18Z</time>
      </trkpt>
      <trkpt lat="43.74499" lon="6.10549">
        <ele>457</ele>
        <time>2015-06-14T11:49:32Z</time>
      </trkpt>
      <trkpt lat="43.74496" lon="6.10542">
        <ele>455</ele>
        <time>2015-06-14T11:49:39Z</time>
      </trkpt>
      <trkpt lat="43.74492" lon="6.10535">
        <ele>456</ele>
        <time>2015-06-14T11:49:46Z</time>
      </trkpt>
      <trkpt lat="43.74489" lon="6.10527">
        <ele>455</ele>
        <time>2015-06-14T11:49:53Z</time>
      </trkpt>
      <trkpt lat="43.74486" lon="6.10519">
        <ele>459</ele>
        <time>2015-06-14T11:50:00Z</time>
      </trkpt>
      <trkpt lat="43.74484" lon="6.10513">
        <ele>459</ele>
        <time>2015-06-14T11:50:07Z</time>
      </trkpt>
      <trkpt lat="43.74483" lon="6.10506">
        <ele>458</ele>
        <time>2015-06-14T11:50:14Z</time>
      </trkpt>
      <trkpt lat="43.74481" lon="6.10501">
        <ele>459</ele>
        <time>2015-06-14T11:50:21Z</time>
      </trkpt>
      <trkpt lat="43.7448" lon="6.10494">
        <ele>459</ele>
        <time>2015-06-14T11:50:28Z</time>
      </trkpt>
      <trkpt lat="43.74477" lon="6.10487">
        <ele>458</ele>
        <time>2015-06-14T11:50:35Z</time>
      </trkpt>
      <trkpt lat="43.74473" lon="6.10479">
        <ele>458</ele>
        <time>2015-06-14T11:50:42Z</time>
      </trkpt>
      <trkpt lat="43.74472" lon="6.10473">
        <ele>456</ele>
        <time>2015-06-14T11:50:49Z</time>
      </trkpt>
      <trkpt lat="43.74469" lon="6.10464">
        <ele>457</ele>
        <time>2015-06-14T11:50:56Z</time>
      </trkpt>
      <trkpt lat="43.74465" lon="6.10455">
        <ele>458</ele>
        <time>2015-06-14T11:51:03Z</time>
      </trkpt>
      <trkpt lat="43.74463" lon="6.10446">
        <ele>458</ele>
        <time>2015-06-14T11:51:10Z</time>
      </trkpt>
      <trkpt lat="43.74462" lon="6.10439">
        <ele>456</ele>
        <time>2015-06-14T11:51:17Z</time>
      </trkpt>
      <trkpt lat="43.74461" lon="6.10431">
        <ele>456</ele>
        <time>2015-06-14T11:51:24Z</time>
      </trkpt>
      <trkpt lat="43.74459" lon="6.10424">
        <ele>455</ele>
        <time>2015-06-14T11:51:31Z</time>
      </trkpt>
      <trkpt lat="43.74457" lon="6.10417">
        <ele>457</ele>
        <time>2015-06-14T11:51:38Z</time>
      </trkpt>
      <trkpt lat="43.74454" lon="6.10411">
        <ele>458</ele>
        <time>2015-06-14T11:51:45Z</time>
      </trkpt>
      <trkpt lat="43.74452" lon="6.10407">
        <ele>460</ele>
        <time>2015-06-14T11:51:52Z</time>
      </trkpt>
      <trkpt lat="43.74451" lon="6.10402">
        <ele>459</ele>
        <time>2015-06-14T11:51:59Z</time>
      </trkpt>
      <trkpt lat="43.7445" lon="6.10397">
        <ele>459</ele>
        <time>2015-06-14T11:52:06Z</time>
      </trkpt>
      <trkpt lat="43.74451" lon="6.10395">
        <ele>457</ele>
        <time>2015-06-14T11:52:13Z</time>
      </trkpt>
      <trkpt lat="43.74451" lon="6.10389">
        <ele>461</ele>
        <time>2015-06-14T11:52:20Z</time>
      </trkpt>
      <trkpt lat="43.74451" lon="6.10384">
        <ele>464</ele>
        <time>2015-06-14T11:52:27Z</time>
      </trkpt>
      <trkpt lat="43.74453" lon="6.10378">
        <ele>466</ele>
        <time>2015-06-14T11:52:34Z</time>
      </trkpt>
      <trkpt lat="43.74454" lon="6.1037">
        <ele>464</ele>
        <time>2015-06-14T11:52:41Z</time>
      </trkpt>
      <trkpt lat="43.74458" lon="6.10367">
        <ele>462</ele>
        <time>2015-06-14T11:52:48Z</time>
      </trkpt>
      <trkpt lat="43.74459" lon="6.10368">
        <ele>457</ele>
        <time>2015-06-14T11:52:55Z</time>
      </trkpt>
      <trkpt lat="43.74461" lon="6.10363">
        <ele>458</ele>
        <time>2015-06-14T11:53:02Z</time>
      </trkpt>
      <trkpt lat="43.74461" lon="6.10356">
        <ele>458</ele>
        <time>2015-06-14T11:53:09Z</time>
      </trkpt>
      <trkpt lat="43.74461" lon="6.10349">
        <ele>458</ele>
        <time>2015-06-14T11:53:16Z</time>
      </trkpt>
      <trkpt lat="43.74463" lon="6.10342">
        <ele>459</ele>
        <time>2015-06-14T11:53:23Z</time>
      </trkpt>
      <trkpt lat="43.74466" lon="6.10333">
        <ele>459</ele>
        <time>2015-06-14T11:53:30Z</time>
      </trkpt>
      <trkpt lat="43.74468" lon="6.10327">
        <ele>459</ele>
        <time>2015-06-14T11:53:37Z</time>
      </trkpt>
      <trkpt lat="43.74469" lon="6.10319">
        <ele>460</ele>
        <time>2015-06-14T11:53:44Z</time>
      </trkpt>
      <trkpt lat="43.7447" lon="6.10312">
        <ele>460</ele>
        <time>2015-06-14T11:53:51Z</time>
      </trkpt>
      <trkpt lat="43.74472" lon="6.10305">
        <ele>460</ele>
        <time>2015-06-14T11:53:58Z</time>
      </trkpt>
      <trkpt lat="43.74473" lon="6.10294">
        <ele>461</ele>
        <time>2015-06-14T11:54:05Z</time>
      </trkpt>
      <trkpt lat="43.74476" lon="6.10285">
        <ele>462</ele>
        <time>2015-06-14T11:54:12Z</time>
      </trkpt>
      <trkpt lat="43.74477" lon="6.10277">
        <ele>462</ele>
        <time>2015-06-14T11:54:19Z</time>
      </trkpt>
      <trkpt lat="43.74479" lon="6.10268">
        <ele>461</ele>
        <time>2015-06-14T11:54:26Z</time>
      </trkpt>
      <trkpt lat="43.74481" lon="6.10264">
        <ele>462</ele>
        <time>2015-06-14T11:54:33Z</time>
      </trkpt>
      <trkpt lat="43.74484" lon="6.10262">
        <ele>465</ele>
        <time>2015-06-14T11:54:40Z</time>
      </trkpt>
      <trkpt lat="43.74486" lon="6.10261">
        <ele>463</ele>
        <time>2015-06-14T11:54:47Z</time>
      </trkpt>
      <trkpt lat="43.74488" lon="6.10258">
        <ele>464</ele>
        <time>2015-06-14T11:54:54Z</time>
      </trkpt>
      <trkpt lat="43.7449" lon="6.10253">
        <ele>463</ele>
        <time>2015-06-14T11:55:01Z</time>
      </trkpt>
      <trkpt lat="43.74491" lon="6.10245">
        <ele>462</ele>
        <time>2015-06-14T11:55:08Z</time>
      </trkpt>
      <trkpt lat="43.74492" lon="6.10236">
        <ele>462</ele>
        <time>2015-06-14T11:55:15Z</time>
      </trkpt>
      <trkpt lat="43.74492" lon="6.10227">
        <ele>463</ele>
        <time>2015-06-14T11:55:22Z</time>
      </trkpt>
      <trkpt lat="43.74494" lon="6.10218">
        <ele>463</ele>
        <time>2015-06-14T11:55:29Z</time>
      </trkpt>
      <trkpt lat="43.74496" lon="6.10208">
        <ele>463</ele>
        <time>2015-06-14T11:55:36Z</time>
      </trkpt>
      <trkpt lat="43.74498" lon="6.102">
        <ele>463</ele>
        <time>2015-06-14T11:55:43Z</time>
      </trkpt>
      <trkpt lat="43.74498" lon="6.10193">
        <ele>463</ele>
        <time>2015-06-14T11:55:50Z</time>
      </trkpt>
      <trkpt lat="43.74498" lon="6.10187">
        <ele>463</ele>
        <time>2015-06-14T11:55:57Z</time>
      </trkpt>
      <trkpt lat="43.74499" lon="6.10181">
        <ele>460</ele>
        <time>2015-06-14T11:56:04Z</time>
      </trkpt>
      <trkpt lat="43.74499" lon="6.10173">
        <ele>462</ele>
        <time>2015-06-14T11:56:11Z</time>
      </trkpt>
      <trkpt lat="43.74499" lon="6.10169">
        <ele>462</ele>
        <time>2015-06-14T11:56:18Z</time>
      </trkpt>
      <trkpt lat="43.74498" lon="6.10163">
        <ele>461</ele>
        <time>2015-06-14T11:56:25Z</time>
      </trkpt>
      <trkpt lat="43.74497" lon="6.10159">
        <ele>458</ele>
        <time>2015-06-14T11:56:32Z</time>
      </trkpt>
      <trkpt lat="43.74501" lon="6.10154">
        <ele>459</ele>
        <time>2015-06-14T11:56:39Z</time>
      </trkpt>
      <trkpt lat="43.74503" lon="6.10153">
        <ele>457</ele>
        <time>2015-06-14T11:56:46Z</time>
      </trkpt>
      <trkpt lat="43.74504" lon="6.10149">
        <ele>455</ele>
        <time>2015-06-14T11:56:53Z</time>
      </trkpt>
      <trkpt lat="43.74503" lon="6.1014">
        <ele>456</ele>
        <time>2015-06-14T11:57:00Z</time>
      </trkpt>
      <trkpt lat="43.74502" lon="6.10136">
        <ele>455</ele>
        <time>2015-06-14T11:57:07Z</time>
      </trkpt>
      <trkpt lat="43.74501" lon="6.10131">
        <ele>456</ele>
        <time>2015-06-14T11:57:14Z</time>
      </trkpt>
      <trkpt lat="43.74501" lon="6.10124">
        <ele>457</ele>
        <time>2015-06-14T11:57:21Z</time>
      </trkpt>
      <trkpt lat="43.745" lon="6.10118">
        <ele>458</ele>
        <time>2015-06-14T11:57:28Z</time>
      </trkpt>
      <trkpt lat="43.74501" lon="6.10111">
        <ele>461</ele>
        <time>2015-06-14T11:57:35Z</time>
      </trkpt>
      <trkpt lat="43.74501" lon="6.10103">
        <ele>460</ele>
        <time>2015-06-14T11:57:42Z</time>
      </trkpt>
      <trkpt lat="43.74501" lon="6.10099">
        <ele>456</ele>
        <time>2015-06-14T11:57:49Z</time>
      </trkpt>
      <trkpt lat="43.74504" lon="6.10096">
        <ele>448</ele>
        <time>2015-06-14T11:57:56Z</time>
      </trkpt>
      <trkpt lat="43.74503" lon="6.10096">
        <ele>448</ele>
        <time>2015-06-14T11:58:03Z</time>
      </trkpt>
      <trkpt lat="43.74504" lon="6.10092">
        <ele>446</ele>
        <time>2015-06-14T11:58:10Z</time>
      </trkpt>
      <trkpt lat="43.74504" lon="6.10086">
        <ele>447</ele>
        <time>2015-06-14T11:58:17Z</time>
      </trkpt>
      <trkpt lat="43.74504" lon="6.10081">
        <ele>450</ele>
        <time>2015-06-14T11:58:24Z</time>
      </trkpt>
      <trkpt lat="43.74504" lon="6.10076">
        <ele>452</ele>
        <time>2015-06-14T11:58:31Z</time>
      </trkpt>
      <trkpt lat="43.74505" lon="6.10073">
        <ele>452</ele>
        <time>2015-06-14T11:58:38Z</time>
      </trkpt>
      <trkpt lat="43.74507" lon="6.10069">
        <ele>452</ele>
        <time>2015-06-14T11:58:45Z</time>
      </trkpt>
      <trkpt lat="43.74507" lon="6.10068">
        <ele>454</ele>
        <time>2015-06-14T11:58:52Z</time>
      </trkpt>
      <trkpt lat="43.74507" lon="6.10068">
        <ele>454</ele>
        <time>2015-06-14T11:58:59Z</time>
      </trkpt>
      <trkpt lat="43.74506" lon="6.10066">
        <ele>460</ele>
        <time>2015-06-14T11:59:06Z</time>
      </trkpt>
      <trkpt lat="43.74507" lon="6.10066">
        <ele>461</ele>
        <time>2015-06-14T11:59:13Z</time>
      </trkpt>
      <trkpt lat="43.74506" lon="6.10065">
        <ele>462</ele>
        <time>2015-06-14T11:59:23Z</time>
      </trkpt>
      <trkpt lat="43.74509" lon="6.10063">
        <ele>460</ele>
        <time>2015-06-14T11:59:30Z</time>
      </trkpt>
      <trkpt lat="43.74511" lon="6.10057">
        <ele>461</ele>
        <time>2015-06-14T11:59:37Z</time>
      </trkpt>
      <trkpt lat="43.74511" lon="6.10055">
        <ele>460</ele>
        <time>2015-06-14T11:59:44Z</time>
      </trkpt>
      <trkpt lat="43.74511" lon="6.10051">
        <ele>458</ele>
        <time>2015-06-14T11:59:51Z</time>
      </trkpt>
      <trkpt lat="43.7451" lon="6.10044">
        <ele>457</ele>
        <time>2015-06-14T11:59:58Z</time>
      </trkpt>
      <trkpt lat="43.74508" lon="6.10037">
        <ele>457</ele>
        <time>2015-06-14T12:00:05Z</time>
      </trkpt>
      <trkpt lat="43.74508" lon="6.10029">
        <ele>456</ele>
        <time>2015-06-14T12:00:12Z</time>
      </trkpt>
      <trkpt lat="43.74506" lon="6.10022">
        <ele>457</ele>
        <time>2015-06-14T12:00:19Z</time>
      </trkpt>
      <trkpt lat="43.74506" lon="6.10014">
        <ele>458</ele>
        <time>2015-06-14T12:00:27Z</time>
      </trkpt>
      <trkpt lat="43.74505" lon="6.10011">
        <ele>457</ele>
        <time>2015-06-14T12:00:34Z</time>
      </trkpt>
      <trkpt lat="43.74504" lon="6.10007">
        <ele>457</ele>
        <time>2015-06-14T12:00:41Z</time>
      </trkpt>
      <trkpt lat="43.74505" lon="6.10005">
        <ele>456</ele>
        <time>2015-06-14T12:00:48Z</time>
      </trkpt>
      <trkpt lat="43.74505" lon="6.10003">
        <ele>455</ele>
        <time>2015-06-14T12:00:56Z</time>
      </trkpt>
      <trkpt lat="43.74505" lon="6.1">
        <ele>455</ele>
        <time>2015-06-14T12:01:03Z</time>
      </trkpt>
      <trkpt lat="43.74505" lon="6.09995">
        <ele>454</ele>
        <time>2015-06-14T12:01:10Z</time>
      </trkpt>
      <trkpt lat="43.74505" lon="6.09988">
        <ele>454</ele>
        <time>2015-06-14T12:01:17Z</time>
      </trkpt>
      <trkpt lat="43.74505" lon="6.09981">
        <ele>453</ele>
        <time>2015-06-14T12:01:24Z</time>
      </trkpt>
      <trkpt lat="43.74504" lon="6.09974">
        <ele>454</ele>
        <time>2015-06-14T12:01:31Z</time>
      </trkpt>
      <trkpt lat="43.74503" lon="6.09965">
        <ele>455</ele>
        <time>2015-06-14T12:01:38Z</time>
      </trkpt>
      <trkpt lat="43.74501" lon="6.09957">
        <ele>456</ele>
        <time>2015-06-14T12:01:45Z</time>
      </trkpt>
      <trkpt lat="43.74501" lon="6.0995">
        <ele>455</ele>
        <time>2015-06-14T12:01:52Z</time>
      </trkpt>
      <trkpt lat="43.745" lon="6.09939">
        <ele>453</ele>
        <time>2015-06-14T12:01:59Z</time>
      </trkpt>
      <trkpt lat="43.74499" lon="6.09929">
        <ele>454</ele>
        <time>2015-06-14T12:02:06Z</time>
      </trkpt>
      <trkpt lat="43.74497" lon="6.09919">
        <ele>454</ele>
        <time>2015-06-14T12:02:13Z</time>
      </trkpt>
      <trkpt lat="43.74494" lon="6.09909">
        <ele>454</ele>
        <time>2015-06-14T12:02:20Z</time>
      </trkpt>
      <trkpt lat="43.74492" lon="6.09903">
        <ele>460</ele>
        <time>2015-06-14T12:02:27Z</time>
      </trkpt>
      <trkpt lat="43.74494" lon="6.09898">
        <ele>455</ele>
        <time>2015-06-14T12:02:34Z</time>
      </trkpt>
      <trkpt lat="43.74492" lon="6.09896">
        <ele>454</ele>
        <time>2015-06-14T12:02:41Z</time>
      </trkpt>
      <trkpt lat="43.74493" lon="6.09895">
        <ele>456</ele>
        <time>2015-06-14T12:02:48Z</time>
      </trkpt>
      <trkpt lat="43.74492" lon="6.0989">
        <ele>460</ele>
        <time>2015-06-14T12:02:55Z</time>
      </trkpt>
      <trkpt lat="43.74491" lon="6.09884">
        <ele>464</ele>
        <time>2015-06-14T12:03:02Z</time>
      </trkpt>
      <trkpt lat="43.74488" lon="6.09875">
        <ele>466</ele>
        <time>2015-06-14T12:03:09Z</time>
      </trkpt>
      <trkpt lat="43.74486" lon="6.09866">
        <ele>465</ele>
        <time>2015-06-14T12:03:16Z</time>
      </trkpt>
      <trkpt lat="43.74483" lon="6.09857">
        <ele>464</ele>
        <time>2015-06-14T12:03:23Z</time>
      </trkpt>
      <trkpt lat="43.74481" lon="6.09848">
        <ele>465</ele>
        <time>2015-06-14T12:03:30Z</time>
      </trkpt>
      <trkpt lat="43.7448" lon="6.0984">
        <ele>466</ele>
        <time>2015-06-14T12:03:37Z</time>
      </trkpt>
      <trkpt lat="43.74477" lon="6.09831">
        <ele>467</ele>
        <time>2015-06-14T12:03:44Z</time>
      </trkpt>
      <trkpt lat="43.74475" lon="6.09823">
        <ele>468</ele>
        <time>2015-06-14T12:03:51Z</time>
      </trkpt>
      <trkpt lat="43.74473" lon="6.09815">
        <ele>468</ele>
        <time>2015-06-14T12:03:58Z</time>
      </trkpt>
      <trkpt lat="43.74472" lon="6.09806">
        <ele>467</ele>
        <time>2015-06-14T12:04:05Z</time>
      </trkpt>
      <trkpt lat="43.74469" lon="6.09799">
        <ele>469</ele>
        <time>2015-06-14T12:04:12Z</time>
      </trkpt>
      <trkpt lat="43.74468" lon="6.09791">
        <ele>468</ele>
        <time>2015-06-14T12:04:19Z</time>
      </trkpt>
      <trkpt lat="43.74466" lon="6.09785">
        <ele>469</ele>
        <time>2015-06-14T12:04:26Z</time>
      </trkpt>
      <trkpt lat="43.74466" lon="6.09781">
        <ele>468</ele>
        <time>2015-06-14T12:04:33Z</time>
      </trkpt>
      <trkpt lat="43.74466" lon="6.09777">
        <ele>464</ele>
        <time>2015-06-14T12:04:40Z</time>
      </trkpt>
      <trkpt lat="43.74467" lon="6.09776">
        <ele>462</ele>
        <time>2015-06-14T12:04:47Z</time>
      </trkpt>
      <trkpt lat="43.74466" lon="6.09773">
        <ele>459</ele>
        <time>2015-06-14T12:04:56Z</time>
      </trkpt>
      <trkpt lat="43.74466" lon="6.09767">
        <ele>458</ele>
        <time>2015-06-14T12:05:03Z</time>
      </trkpt>
      <trkpt lat="43.74465" lon="6.09759">
        <ele>457</ele>
        <time>2015-06-14T12:05:10Z</time>
      </trkpt>
      <trkpt lat="43.74463" lon="6.09751">
        <ele>457</ele>
        <time>2015-06-14T12:05:17Z</time>
      </trkpt>
      <trkpt lat="43.74461" lon="6.09746">
        <ele>457</ele>
        <time>2015-06-14T12:05:24Z</time>
      </trkpt>
      <trkpt lat="43.74459" lon="6.0974">
        <ele>457</ele>
        <time>2015-06-14T12:05:31Z</time>
      </trkpt>
      <trkpt lat="43.74457" lon="6.09733">
        <ele>456</ele>
        <time>2015-06-14T12:05:38Z</time>
      </trkpt>
      <trkpt lat="43.74456" lon="6.09725">
        <ele>457</ele>
        <time>2015-06-14T12:05:45Z</time>
      </trkpt>
      <trkpt lat="43.74454" lon="6.09718">
        <ele>457</ele>
        <time>2015-06-14T12:05:52Z</time>
      </trkpt>
      <trkpt lat="43.74452" lon="6.0971">
        <ele>456</ele>
        <time>2015-06-14T12:05:59Z</time>
      </trkpt>
      <trkpt lat="43.74449" lon="6.09703">
        <ele>454</ele>
        <time>2015-06-14T12:06:06Z</time>
      </trkpt>
      <trkpt lat="43.74445" lon="6.09698">
        <ele>452</ele>
        <time>2015-06-14T12:06:13Z</time>
      </trkpt>
      <trkpt lat="43.74442" lon="6.09694">
        <ele>449</ele>
        <time>2015-06-14T12:06:20Z</time>
      </trkpt>
      <trkpt lat="43.74439" lon="6.0969">
        <ele>449</ele>
        <time>2015-06-14T12:06:27Z</time>
      </trkpt>
      <trkpt lat="43.74437" lon="6.09688">
        <ele>450</ele>
        <time>2015-06-14T12:06:34Z</time>
      </trkpt>
      <trkpt lat="43.74436" lon="6.09686">
        <ele>448</ele>
        <time>2015-06-14T12:06:41Z</time>
      </trkpt>
      <trkpt lat="43.74432" lon="6.09681">
        <ele>452</ele>
        <time>2015-06-14T12:06:48Z</time>
      </trkpt>
      <trkpt lat="43.74428" lon="6.0968">
        <ele>453</ele>
        <time>2015-06-14T12:06:55Z</time>
      </trkpt>
      <trkpt lat="43.74424" lon="6.09676">
        <ele>453</ele>
        <time>2015-06-14T12:07:02Z</time>
      </trkpt>
      <trkpt lat="43.74423" lon="6.09673">
        <ele>456</ele>
        <time>2015-06-14T12:07:09Z</time>
      </trkpt>
      <trkpt lat="43.74422" lon="6.09671">
        <ele>456</ele>
        <time>2015-06-14T12:07:16Z</time>
      </trkpt>
      <trkpt lat="43.74419" lon="6.09666">
        <ele>456</ele>
        <time>2015-06-14T12:07:23Z</time>
      </trkpt>
      <trkpt lat="43.74416" lon="6.09662">
        <ele>461</ele>
        <time>2015-06-14T12:07:30Z</time>
      </trkpt>
      <trkpt lat="43.74412" lon="6.09658">
        <ele>463</ele>
        <time>2015-06-14T12:07:37Z</time>
      </trkpt>
      <trkpt lat="43.74407" lon="6.09652">
        <ele>464</ele>
        <time>2015-06-14T12:07:44Z</time>
      </trkpt>
      <trkpt lat="43.74403" lon="6.09648">
        <ele>464</ele>
        <time>2015-06-14T12:07:51Z</time>
      </trkpt>
      <trkpt lat="43.74399" lon="6.09644">
        <ele>462</ele>
        <time>2015-06-14T12:07:58Z</time>
      </trkpt>
      <trkpt lat="43.74394" lon="6.09639">
        <ele>461</ele>
        <time>2015-06-14T12:08:05Z</time>
      </trkpt>
      <trkpt lat="43.74387" lon="6.09636">
        <ele>462</ele>
        <time>2015-06-14T12:08:12Z</time>
      </trkpt>
      <trkpt lat="43.74381" lon="6.09634">
        <ele>461</ele>
        <time>2015-06-14T12:08:19Z</time>
      </trkpt>
      <trkpt lat="43.74376" lon="6.0963">
        <ele>460</ele>
        <time>2015-06-14T12:08:26Z</time>
      </trkpt>
      <trkpt lat="43.74369" lon="6.09626">
        <ele>463</ele>
        <time>2015-06-14T12:08:33Z</time>
      </trkpt>
      <trkpt lat="43.74363" lon="6.0962">
        <ele>466</ele>
        <time>2015-06-14T12:08:40Z</time>
      </trkpt>
      <trkpt lat="43.74362" lon="6.09616">
        <ele>463</ele>
        <time>2015-06-14T12:08:47Z</time>
      </trkpt>
      <trkpt lat="43.74356" lon="6.09609">
        <ele>463</ele>
        <time>2015-06-14T12:08:54Z</time>
      </trkpt>
      <trkpt lat="43.74349" lon="6.09604">
        <ele>462</ele>
        <time>2015-06-14T12:09:01Z</time>
      </trkpt>
      <trkpt lat="43.74345" lon="6.09601">
        <ele>465</ele>
        <time>2015-06-14T12:09:08Z</time>
      </trkpt>
      <trkpt lat="43.74342" lon="6.09598">
        <ele>469</ele>
        <time>2015-06-14T12:09:15Z</time>
      </trkpt>
      <trkpt lat="43.74339" lon="6.09595">
        <ele>470</ele>
        <time>2015-06-14T12:09:22Z</time>
      </trkpt>
      <trkpt lat="43.74338" lon="6.09595">
        <ele>471</ele>
        <time>2015-06-14T12:09:29Z</time>
      </trkpt>
      <trkpt lat="43.74332" lon="6.09588">
        <ele>472</ele>
        <time>2015-06-14T12:09:36Z</time>
      </trkpt>
      <trkpt lat="43.74335" lon="6.09579">
        <ele>469</ele>
        <time>2015-06-14T12:09:43Z</time>
      </trkpt>
      <trkpt lat="43.7433" lon="6.09573">
        <ele>475</ele>
        <time>2015-06-14T12:09:50Z</time>
      </trkpt>
      <trkpt lat="43.74328" lon="6.09564">
        <ele>478</ele>
        <time>2015-06-14T12:09:57Z</time>
      </trkpt>
      <trkpt lat="43.74327" lon="6.09554">
        <ele>474</ele>
        <time>2015-06-14T12:10:04Z</time>
      </trkpt>
      <trkpt lat="43.74327" lon="6.09544">
        <ele>468</ele>
        <time>2015-06-14T12:10:11Z</time>
      </trkpt>
      <trkpt lat="43.74327" lon="6.09537">
        <ele>467</ele>
        <time>2015-06-14T12:10:18Z</time>
      </trkpt>
      <trkpt lat="43.74328" lon="6.09526">
        <ele>465</ele>
        <time>2015-06-14T12:10:25Z</time>
      </trkpt>
      <trkpt lat="43.74329" lon="6.09519">
        <ele>465</ele>
        <time>2015-06-14T12:10:32Z</time>
      </trkpt>
      <trkpt lat="43.7433" lon="6.09514">
        <ele>462</ele>
        <time>2015-06-14T12:10:39Z</time>
      </trkpt>
      <trkpt lat="43.7433" lon="6.09506">
        <ele>461</ele>
        <time>2015-06-14T12:10:47Z</time>
      </trkpt>
      <trkpt lat="43.7433" lon="6.09496">
        <ele>460</ele>
        <time>2015-06-14T12:10:53Z</time>
      </trkpt>
      <trkpt lat="43.74329" lon="6.09488">
        <ele>461</ele>
        <time>2015-06-14T12:11:00Z</time>
      </trkpt>
      <trkpt lat="43.74329" lon="6.0948">
        <ele>461</ele>
        <time>2015-06-14T12:11:07Z</time>
      </trkpt>
      <trkpt lat="43.7433" lon="6.09474">
        <ele>461</ele>
        <time>2015-06-14T12:11:14Z</time>
      </trkpt>
      <trkpt lat="43.7433" lon="6.09467">
        <ele>461</ele>
        <time>2015-06-14T12:11:21Z</time>
      </trkpt>
      <trkpt lat="43.7433" lon="6.09461">
        <ele>462</ele>
        <time>2015-06-14T12:11:28Z</time>
      </trkpt>
      <trkpt lat="43.7433" lon="6.09453">
        <ele>462</ele>
        <time>2015-06-14T12:11:35Z</time>
      </trkpt>
      <trkpt lat="43.74331" lon="6.09446">
        <ele>463</ele>
        <time>2015-06-14T12:11:42Z</time>
      </trkpt>
      <trkpt lat="43.74333" lon="6.09441">
        <ele>463</ele>
        <time>2015-06-14T12:11:49Z</time>
      </trkpt>
      <trkpt lat="43.74335" lon="6.09433">
        <ele>462</ele>
        <time>2015-06-14T12:11:56Z</time>
      </trkpt>
      <trkpt lat="43.74337" lon="6.09425">
        <ele>461</ele>
        <time>2015-06-14T12:12:03Z</time>
      </trkpt>
      <trkpt lat="43.74339" lon="6.09417">
        <ele>462</ele>
        <time>2015-06-14T12:12:10Z</time>
      </trkpt>
      <trkpt lat="43.7434" lon="6.09409">
        <ele>460</ele>
        <time>2015-06-14T12:12:17Z</time>
      </trkpt>
      <trkpt lat="43.7434" lon="6.09402">
        <ele>461</ele>
        <time>2015-06-14T12:12:24Z</time>
      </trkpt>
      <trkpt lat="43.74342" lon="6.09397">
        <ele>461</ele>
        <time>2015-06-14T12:12:31Z</time>
      </trkpt>
      <trkpt lat="43.74344" lon="6.09388">
        <ele>462</ele>
        <time>2015-06-14T12:12:38Z</time>
      </trkpt>
      <trkpt lat="43.74345" lon="6.09382">
        <ele>462</ele>
        <time>2015-06-14T12:12:45Z</time>
      </trkpt>
      <trkpt lat="43.74346" lon="6.09374">
        <ele>463</ele>
        <time>2015-06-14T12:12:52Z</time>
      </trkpt>
      <trkpt lat="43.74348" lon="6.09366">
        <ele>463</ele>
        <time>2015-06-14T12:12:59Z</time>
      </trkpt>
      <trkpt lat="43.7435" lon="6.09357">
        <ele>463</ele>
        <time>2015-06-14T12:13:06Z</time>
      </trkpt>
      <trkpt lat="43.74351" lon="6.0935">
        <ele>463</ele>
        <time>2015-06-14T12:13:13Z</time>
      </trkpt>
      <trkpt lat="43.74351" lon="6.09344">
        <ele>463</ele>
        <time>2015-06-14T12:13:20Z</time>
      </trkpt>
      <trkpt lat="43.74352" lon="6.09337">
        <ele>463</ele>
        <time>2015-06-14T12:13:27Z</time>
      </trkpt>
      <trkpt lat="43.74352" lon="6.09333">
        <ele>462</ele>
        <time>2015-06-14T12:13:34Z</time>
      </trkpt>
      <trkpt lat="43.74353" lon="6.09326">
        <ele>462</ele>
        <time>2015-06-14T12:13:41Z</time>
      </trkpt>
      <trkpt lat="43.74354" lon="6.09319">
        <ele>462</ele>
        <time>2015-06-14T12:13:48Z</time>
      </trkpt>
      <trkpt lat="43.74354" lon="6.09311">
        <ele>462</ele>
        <time>2015-06-14T12:13:55Z</time>
      </trkpt>
      <trkpt lat="43.74355" lon="6.09305">
        <ele>462</ele>
        <time>2015-06-14T12:14:02Z</time>
      </trkpt>
      <trkpt lat="43.74356" lon="6.09298">
        <ele>462</ele>
        <time>2015-06-14T12:14:09Z</time>
      </trkpt>
      <trkpt lat="43.74356" lon="6.09292">
        <ele>461</ele>
        <time>2015-06-14T12:14:16Z</time>
      </trkpt>
      <trkpt lat="43.74356" lon="6.09289">
        <ele>461</ele>
        <time>2015-06-14T12:14:23Z</time>
      </trkpt>
      <trkpt lat="43.74355" lon="6.09288">
        <ele>460</ele>
        <time>2015-06-14T12:14:26Z</time>
      </trkpt>
      <trkpt lat="43.74354" lon="6.09286">
        <ele>461</ele>
        <time>2015-06-14T12:14:34Z</time>
      </trkpt>
      <trkpt lat="43.74354" lon="6.09284">
        <ele>460</ele>
        <time>2015-06-14T12:14:40Z</time>
      </trkpt>
      <trkpt lat="43.74356" lon="6.09278">
        <ele>461</ele>
        <time>2015-06-14T12:14:47Z</time>
      </trkpt>
      <trkpt lat="43.74358" lon="6.09273">
        <ele>460</ele>
        <time>2015-06-14T12:14:54Z</time>
      </trkpt>
      <trkpt lat="43.7436" lon="6.09267">
        <ele>460</ele>
        <time>2015-06-14T12:15:01Z</time>
      </trkpt>
      <trkpt lat="43.74362" lon="6.09259">
        <ele>460</ele>
        <time>2015-06-14T12:15:08Z</time>
      </trkpt>
      <trkpt lat="43.74363" lon="6.09251">
        <ele>461</ele>
        <time>2015-06-14T12:15:15Z</time>
      </trkpt>
      <trkpt lat="43.74366" lon="6.09244">
        <ele>460</ele>
        <time>2015-06-14T12:15:22Z</time>
      </trkpt>
      <trkpt lat="43.74366" lon="6.09237">
        <ele>460</ele>
        <time>2015-06-14T12:15:29Z</time>
      </trkpt>
      <trkpt lat="43.74368" lon="6.09228">
        <ele>459</ele>
        <time>2015-06-14T12:15:36Z</time>
      </trkpt>
      <trkpt lat="43.74369" lon="6.09221">
        <ele>461</ele>
        <time>2015-06-14T12:15:43Z</time>
      </trkpt>
      <trkpt lat="43.7437" lon="6.09213">
        <ele>460</ele>
        <time>2015-06-14T12:15:50Z</time>
      </trkpt>
      <trkpt lat="43.74373" lon="6.09204">
        <ele>460</ele>
        <time>2015-06-14T12:15:57Z</time>
      </trkpt>
      <trkpt lat="43.74374" lon="6.09195">
        <ele>459</ele>
        <time>2015-06-14T12:16:04Z</time>
      </trkpt>
      <trkpt lat="43.74375" lon="6.09186">
        <ele>458</ele>
        <time>2015-06-14T12:16:11Z</time>
      </trkpt>
      <trkpt lat="43.74375" lon="6.09177">
        <ele>457</ele>
        <time>2015-06-14T12:16:18Z</time>
      </trkpt>
      <trkpt lat="43.74376" lon="6.0917">
        <ele>457</ele>
        <time>2015-06-14T12:16:25Z</time>
      </trkpt>
      <trkpt lat="43.74377" lon="6.09165">
        <ele>458</ele>
        <time>2015-06-14T12:16:32Z</time>
      </trkpt>
      <trkpt lat="43.74377" lon="6.09157">
        <ele>458</ele>
        <time>2015-06-14T12:16:40Z</time>
      </trkpt>
      <trkpt lat="43.74377" lon="6.09151">
        <ele>459</ele>
        <time>2015-06-14T12:16:47Z</time>
      </trkpt>
      <trkpt lat="43.74377" lon="6.09151">
        <ele>458</ele>
        <time>2015-06-14T12:16:52Z</time>
      </trkpt>
      <trkpt lat="43.74376" lon="6.09149">
        <ele>460</ele>
        <time>2015-06-14T12:16:59Z</time>
      </trkpt>
      <trkpt lat="43.74377" lon="6.09144">
        <ele>457</ele>
        <time>2015-06-14T12:17:06Z</time>
      </trkpt>
      <trkpt lat="43.74378" lon="6.09144">
        <ele>459</ele>
        <time>2015-06-14T12:17:13Z</time>
      </trkpt>
      <trkpt lat="43.74378" lon="6.09144">
        <ele>458</ele>
        <time>2015-06-14T12:17:14Z</time>
      </trkpt>
      <trkpt lat="43.74377" lon="6.09137">
        <ele>458</ele>
        <time>2015-06-14T12:17:24Z</time>
      </trkpt>
      <trkpt lat="43.74378" lon="6.09129">
        <ele>458</ele>
        <time>2015-06-14T12:17:31Z</time>
      </trkpt>
      <trkpt lat="43.74381" lon="6.0912">
        <ele>456</ele>
        <time>2015-06-14T12:17:38Z</time>
      </trkpt>
      <trkpt lat="43.74383" lon="6.09111">
        <ele>456</ele>
        <time>2015-06-14T12:17:45Z</time>
      </trkpt>
      <trkpt lat="43.74386" lon="6.09104">
        <ele>451</ele>
        <time>2015-06-14T12:17:52Z</time>
      </trkpt>
      <trkpt lat="43.7439" lon="6.09094">
        <ele>445</ele>
        <time>2015-06-14T12:17:59Z</time>
      </trkpt>
      <trkpt lat="43.74391" lon="6.09084">
        <ele>454</ele>
        <time>2015-06-14T12:18:05Z</time>
      </trkpt>
      <trkpt lat="43.74392" lon="6.09074">
        <ele>458</ele>
        <time>2015-06-14T12:18:12Z</time>
      </trkpt>
      <trkpt lat="43.74393" lon="6.09064">
        <ele>456</ele>
        <time>2015-06-14T12:18:19Z</time>
      </trkpt>
      <trkpt lat="43.74394" lon="6.09055">
        <ele>456</ele>
        <time>2015-06-14T12:18:26Z</time>
      </trkpt>
      <trkpt lat="43.74397" lon="6.09048">
        <ele>454</ele>
        <time>2015-06-14T12:18:33Z</time>
      </trkpt>
      <trkpt lat="43.74399" lon="6.09037">
        <ele>454</ele>
        <time>2015-06-14T12:18:40Z</time>
      </trkpt>
      <trkpt lat="43.74403" lon="6.09027">
        <ele>450</ele>
        <time>2015-06-14T12:18:47Z</time>
      </trkpt>
      <trkpt lat="43.74405" lon="6.09016">
        <ele>445</ele>
        <time>2015-06-14T12:18:54Z</time>
      </trkpt>
      <trkpt lat="43.74406" lon="6.09008">
        <ele>445</ele>
        <time>2015-06-14T12:19:01Z</time>
      </trkpt>
      <trkpt lat="43.74406" lon="6.09">
        <ele>449</ele>
        <time>2015-06-14T12:19:08Z</time>
      </trkpt>
      <trkpt lat="43.74407" lon="6.08989">
        <ele>449</ele>
        <time>2015-06-14T12:19:15Z</time>
      </trkpt>
      <trkpt lat="43.7441" lon="6.08981">
        <ele>449</ele>
        <time>2015-06-14T12:19:22Z</time>
      </trkpt>
      <trkpt lat="43.74412" lon="6.08973">
        <ele>448</ele>
        <time>2015-06-14T12:19:29Z</time>
      </trkpt>
      <trkpt lat="43.74414" lon="6.08963">
        <ele>446</ele>
        <time>2015-06-14T12:19:36Z</time>
      </trkpt>
      <trkpt lat="43.74415" lon="6.08956">
        <ele>449</ele>
        <time>2015-06-14T12:19:43Z</time>
      </trkpt>
      <trkpt lat="43.74416" lon="6.08947">
        <ele>448</ele>
        <time>2015-06-14T12:19:50Z</time>
      </trkpt>
      <trkpt lat="43.74418" lon="6.08937">
        <ele>449</ele>
        <time>2015-06-14T12:19:57Z</time>
      </trkpt>
      <trkpt lat="43.7442" lon="6.08928">
        <ele>450</ele>
        <time>2015-06-14T12:20:03Z</time>
      </trkpt>
      <trkpt lat="43.74425" lon="6.08917">
        <ele>453</ele>
        <time>2015-06-14T12:20:10Z</time>
      </trkpt>
      <trkpt lat="43.74423" lon="6.08909">
        <ele>456</ele>
        <time>2015-06-14T12:20:17Z</time>
      </trkpt>
      <trkpt lat="43.74424" lon="6.08899">
        <ele>459</ele>
        <time>2015-06-14T12:20:24Z</time>
      </trkpt>
      <trkpt lat="43.74424" lon="6.0889">
        <ele>458</ele>
        <time>2015-06-14T12:20:31Z</time>
      </trkpt>
      <trkpt lat="43.74425" lon="6.08883">
        <ele>456</ele>
        <time>2015-06-14T12:20:38Z</time>
      </trkpt>
      <trkpt lat="43.74426" lon="6.08873">
        <ele>459</ele>
        <time>2015-06-14T12:20:45Z</time>
      </trkpt>
      <trkpt lat="43.74425" lon="6.08866">
        <ele>454</ele>
        <time>2015-06-14T12:20:52Z</time>
      </trkpt>
      <trkpt lat="43.74427" lon="6.08858">
        <ele>451</ele>
        <time>2015-06-14T12:20:59Z</time>
      </trkpt>
      <trkpt lat="43.74429" lon="6.08852">
        <ele>449</ele>
        <time>2015-06-14T12:21:06Z</time>
      </trkpt>
      <trkpt lat="43.7443" lon="6.08846">
        <ele>450</ele>
        <time>2015-06-14T12:21:13Z</time>
      </trkpt>
      <trkpt lat="43.74432" lon="6.0884">
        <ele>448</ele>
        <time>2015-06-14T12:21:20Z</time>
      </trkpt>
      <trkpt lat="43.74435" lon="6.0883">
        <ele>444</ele>
        <time>2015-06-14T12:21:27Z</time>
      </trkpt>
      <trkpt lat="43.74435" lon="6.08822">
        <ele>448</ele>
        <time>2015-06-14T12:21:34Z</time>
      </trkpt>
      <trkpt lat="43.74436" lon="6.08817">
        <ele>449</ele>
        <time>2015-06-14T12:21:41Z</time>
      </trkpt>
      <trkpt lat="43.74437" lon="6.0881">
        <ele>452</ele>
        <time>2015-06-14T12:21:48Z</time>
      </trkpt>
      <trkpt lat="43.74437" lon="6.08802">
        <ele>452</ele>
        <time>2015-06-14T12:21:55Z</time>
      </trkpt>
      <trkpt lat="43.74437" lon="6.08794">
        <ele>457</ele>
        <time>2015-06-14T12:22:02Z</time>
      </trkpt>
      <trkpt lat="43.74439" lon="6.08786">
        <ele>457</ele>
        <time>2015-06-14T12:22:09Z</time>
      </trkpt>
      <trkpt lat="43.74438" lon="6.08779">
        <ele>456</ele>
        <time>2015-06-14T12:22:16Z</time>
      </trkpt>
      <trkpt lat="43.74439" lon="6.08771">
        <ele>459</ele>
        <time>2015-06-14T12:22:23Z</time>
      </trkpt>
      <trkpt lat="43.74437" lon="6.08761">
        <ele>458</ele>
        <time>2015-06-14T12:22:30Z</time>
      </trkpt>
      <trkpt lat="43.74439" lon="6.08751">
        <ele>457</ele>
        <time>2015-06-14T12:22:36Z</time>
      </trkpt>
      <trkpt lat="43.74441" lon="6.08742">
        <ele>455</ele>
        <time>2015-06-14T12:22:43Z</time>
      </trkpt>
      <trkpt lat="43.74443" lon="6.08731">
        <ele>454</ele>
        <time>2015-06-14T12:22:50Z</time>
      </trkpt>
      <trkpt lat="43.74444" lon="6.08721">
        <ele>451</ele>
        <time>2015-06-14T12:22:56Z</time>
      </trkpt>
      <trkpt lat="43.74446" lon="6.08712">
        <ele>446</ele>
        <time>2015-06-14T12:23:03Z</time>
      </trkpt>
      <trkpt lat="43.7445" lon="6.08702">
        <ele>444</ele>
        <time>2015-06-14T12:23:10Z</time>
      </trkpt>
      <trkpt lat="43.7445" lon="6.08694">
        <ele>444</ele>
        <time>2015-06-14T12:23:17Z</time>
      </trkpt>
      <trkpt lat="43.74451" lon="6.08689">
        <ele>445</ele>
        <time>2015-06-14T12:23:24Z</time>
      </trkpt>
      <trkpt lat="43.74452" lon="6.08681">
        <ele>446</ele>
        <time>2015-06-14T12:23:31Z</time>
      </trkpt>
      <trkpt lat="43.74452" lon="6.08675">
        <ele>445</ele>
        <time>2015-06-14T12:23:38Z</time>
      </trkpt>
      <trkpt lat="43.74454" lon="6.08667">
        <ele>444</ele>
        <time>2015-06-14T12:23:45Z</time>
      </trkpt>
      <trkpt lat="43.74456" lon="6.0866">
        <ele>443</ele>
        <time>2015-06-14T12:23:52Z</time>
      </trkpt>
      <trkpt lat="43.74458" lon="6.08651">
        <ele>439</ele>
        <time>2015-06-14T12:23:59Z</time>
      </trkpt>
      <trkpt lat="43.74458" lon="6.08643">
        <ele>444</ele>
        <time>2015-06-14T12:24:06Z</time>
      </trkpt>
      <trkpt lat="43.7446" lon="6.08635">
        <ele>440</ele>
        <time>2015-06-14T12:24:13Z</time>
      </trkpt>
      <trkpt lat="43.74463" lon="6.08627">
        <ele>433</ele>
        <time>2015-06-14T12:24:22Z</time>
      </trkpt>
      <trkpt lat="43.74466" lon="6.08618">
        <ele>438</ele>
        <time>2015-06-14T12:24:29Z</time>
      </trkpt>
      <trkpt lat="43.74469" lon="6.08611">
        <ele>438</ele>
        <time>2015-06-14T12:24:36Z</time>
      </trkpt>
      <trkpt lat="43.74472" lon="6.08602">
        <ele>437</ele>
        <time>2015-06-14T12:24:43Z</time>
      </trkpt>
      <trkpt lat="43.74473" lon="6.08597">
        <ele>438</ele>
        <time>2015-06-14T12:24:50Z</time>
      </trkpt>
      <trkpt lat="43.74473" lon="6.0859">
        <ele>440</ele>
        <time>2015-06-14T12:24:57Z</time>
      </trkpt>
      <trkpt lat="43.74475" lon="6.0858">
        <ele>446</ele>
        <time>2015-06-14T12:25:04Z</time>
      </trkpt>
      <trkpt lat="43.74479" lon="6.08571">
        <ele>443</ele>
        <time>2015-06-14T12:25:10Z</time>
      </trkpt>
      <trkpt lat="43.74481" lon="6.0856">
        <ele>442</ele>
        <time>2015-06-14T12:25:17Z</time>
      </trkpt>
      <trkpt lat="43.74482" lon="6.0855">
        <ele>439</ele>
        <time>2015-06-14T12:25:24Z</time>
      </trkpt>
      <trkpt lat="43.74485" lon="6.08541">
        <ele>435</ele>
        <time>2015-06-14T12:25:31Z</time>
      </trkpt>
      <trkpt lat="43.74488" lon="6.08533">
        <ele>433</ele>
        <time>2015-06-14T12:25:38Z</time>
      </trkpt>
      <trkpt lat="43.74488" lon="6.08527">
        <ele>432</ele>
        <time>2015-06-14T12:25:45Z</time>
      </trkpt>
      <trkpt lat="43.74491" lon="6.08518">
        <ele>433</ele>
        <time>2015-06-14T12:25:49Z</time>
      </trkpt>
      <trkpt lat="43.74492" lon="6.08511">
        <ele>432</ele>
        <time>2015-06-14T12:25:56Z</time>
      </trkpt>
      <trkpt lat="43.74496" lon="6.08502">
        <ele>432</ele>
        <time>2015-06-14T12:26:03Z</time>
      </trkpt>
      <trkpt lat="43.74498" lon="6.08496">
        <ele>434</ele>
        <time>2015-06-14T12:26:10Z</time>
      </trkpt>
      <trkpt lat="43.74499" lon="6.08486">
        <ele>432</ele>
        <time>2015-06-14T12:26:17Z</time>
      </trkpt>
      <trkpt lat="43.745" lon="6.08481">
        <ele>433</ele>
        <time>2015-06-14T12:26:24Z</time>
      </trkpt>
      <trkpt lat="43.74503" lon="6.08471">
        <ele>440</ele>
        <time>2015-06-14T12:26:30Z</time>
      </trkpt>
      <trkpt lat="43.74505" lon="6.08462">
        <ele>440</ele>
        <time>2015-06-14T12:26:37Z</time>
      </trkpt>
      <trkpt lat="43.74507" lon="6.08452">
        <ele>435</ele>
        <time>2015-06-14T12:26:44Z</time>
      </trkpt>
      <trkpt lat="43.74511" lon="6.08444">
        <ele>434</ele>
        <time>2015-06-14T12:26:51Z</time>
      </trkpt>
      <trkpt lat="43.74512" lon="6.08436">
        <ele>439</ele>
        <time>2015-06-14T12:26:58Z</time>
      </trkpt>
      <trkpt lat="43.74515" lon="6.08427">
        <ele>440</ele>
        <time>2015-06-14T12:27:04Z</time>
      </trkpt>
      <trkpt lat="43.74519" lon="6.08418">
        <ele>440</ele>
        <time>2015-06-14T12:27:11Z</time>
      </trkpt>
      <trkpt lat="43.74524" lon="6.08409">
        <ele>439</ele>
        <time>2015-06-14T12:27:17Z</time>
      </trkpt>
      <trkpt lat="43.74528" lon="6.08399">
        <ele>437</ele>
        <time>2015-06-14T12:27:24Z</time>
      </trkpt>
      <trkpt lat="43.7453" lon="6.08394">
        <ele>431</ele>
        <time>2015-06-14T12:27:31Z</time>
      </trkpt>
      <trkpt lat="43.74534" lon="6.08384">
        <ele>428</ele>
        <time>2015-06-14T12:27:38Z</time>
      </trkpt>
      <trkpt lat="43.74537" lon="6.08374">
        <ele>429</ele>
        <time>2015-06-14T12:27:44Z</time>
      </trkpt>
      <trkpt lat="43.74542" lon="6.08366">
        <ele>424</ele>
        <time>2015-06-14T12:27:51Z</time>
      </trkpt>
      <trkpt lat="43.74545" lon="6.08357">
        <ele>415</ele>
        <time>2015-06-14T12:27:58Z</time>
      </trkpt>
      <trkpt lat="43.74549" lon="6.08349">
        <ele>413</ele>
        <time>2015-06-14T12:28:05Z</time>
      </trkpt>
      <trkpt lat="43.7455" lon="6.08343">
        <ele>417</ele>
        <time>2015-06-14T12:28:12Z</time>
      </trkpt>
      <trkpt lat="43.74556" lon="6.08333">
        <ele>421</ele>
        <time>2015-06-14T12:28:19Z</time>
      </trkpt>
      <trkpt lat="43.7456" lon="6.08324">
        <ele>422</ele>
        <time>2015-06-14T12:28:26Z</time>
      </trkpt>
      <trkpt lat="43.74563" lon="6.08317">
        <ele>424</ele>
        <time>2015-06-14T12:28:33Z</time>
      </trkpt>
      <trkpt lat="43.74561" lon="6.08318">
        <ele>420</ele>
        <time>2015-06-14T12:28:40Z</time>
      </trkpt>
      <trkpt lat="43.74564" lon="6.08312">
        <ele>417</ele>
        <time>2015-06-14T12:28:47Z</time>
      </trkpt>
      <trkpt lat="43.74565" lon="6.08307">
        <ele>429</ele>
        <time>2015-06-14T12:28:54Z</time>
      </trkpt>
      <trkpt lat="43.74567" lon="6.08301">
        <ele>439</ele>
        <time>2015-06-14T12:29:01Z</time>
      </trkpt>
      <trkpt lat="43.74566" lon="6.08299">
        <ele>446</ele>
        <time>2015-06-14T12:29:08Z</time>
      </trkpt>
      <trkpt lat="43.74567" lon="6.08301">
        <ele>445</ele>
        <time>2015-06-14T12:29:15Z</time>
      </trkpt>
      <trkpt lat="43.74567" lon="6.08303">
        <ele>446</ele>
        <time>2015-06-14T12:29:22Z</time>
      </trkpt>
      <trkpt lat="43.74565" lon="6.08301">
        <ele>450</ele>
        <time>2015-06-14T12:29:29Z</time>
      </trkpt>
      <trkpt lat="43.74563" lon="6.08296">
        <ele>454</ele>
        <time>2015-06-14T12:29:36Z</time>
      </trkpt>
      <trkpt lat="43.7456" lon="6.08287">
        <ele>456</ele>
        <time>2015-06-14T12:29:43Z</time>
      </trkpt>
      <trkpt lat="43.7456" lon="6.08285">
        <ele>457</ele>
        <time>2015-06-14T12:29:48Z</time>
      </trkpt>
      <trkpt lat="43.7456" lon="6.08285">
        <ele>457</ele>
        <time>2015-06-14T12:29:55Z</time>
      </trkpt>
      <trkpt lat="43.74564" lon="6.08285">
        <ele>457</ele>
        <time>2015-06-14T12:30:02Z</time>
      </trkpt>
      <trkpt lat="43.74564" lon="6.08285">
        <ele>457</ele>
        <time>2015-06-14T12:30:05Z</time>
      </trkpt>
      <trkpt lat="43.74563" lon="6.08283">
        <ele>456</ele>
        <time>2015-06-14T12:30:15Z</time>
      </trkpt>
      <trkpt lat="43.74563" lon="6.08283">
        <ele>456</ele>
        <time>2015-06-14T12:30:16Z</time>
      </trkpt>
      <trkpt lat="43.74562" lon="6.08282">
        <ele>456</ele>
        <time>2015-06-14T12:30:30Z</time>
      </trkpt>
      <trkpt lat="43.74562" lon="6.08282">
        <ele>456</ele>
        <time>2015-06-14T12:30:32Z</time>
      </trkpt>
      <trkpt lat="43.7456" lon="6.0828">
        <ele>454</ele>
        <time>2015-06-14T12:30:39Z</time>
      </trkpt>
      <trkpt lat="43.7456" lon="6.08279">
        <ele>454</ele>
        <time>2015-06-14T12:30:41Z</time>
      </trkpt>
      <trkpt lat="43.74559" lon="6.08276">
        <ele>454</ele>
        <time>2015-06-14T12:30:50Z</time>
      </trkpt>
      <trkpt lat="43.74559" lon="6.08276">
        <ele>454</ele>
        <time>2015-06-14T12:30:55Z</time>
      </trkpt>
      <trkpt lat="43.74558" lon="6.08274">
        <ele>453</ele>
        <time>2015-06-14T12:31:03Z</time>
      </trkpt>
      <trkpt lat="43.74556" lon="6.08271">
        <ele>453</ele>
        <time>2015-06-14T12:31:10Z</time>
      </trkpt>
      <trkpt lat="43.74556" lon="6.08272">
        <ele>453</ele>
        <time>2015-06-14T12:31:11Z</time>
      </trkpt>
      <trkpt lat="43.74555" lon="6.08269">
        <ele>451</ele>
        <time>2015-06-14T12:31:21Z</time>
      </trkpt>
      <trkpt lat="43.74556" lon="6.08266">
        <ele>451</ele>
        <time>2015-06-14T12:31:28Z</time>
      </trkpt>
      <trkpt lat="43.74556" lon="6.08265">
        <ele>452</ele>
        <time>2015-06-14T12:31:35Z</time>
      </trkpt>
      <trkpt lat="43.74558" lon="6.08258">
        <ele>453</ele>
        <time>2015-06-14T12:31:42Z</time>
      </trkpt>
      <trkpt lat="43.74558" lon="6.08257">
        <ele>452</ele>
        <time>2015-06-14T12:31:49Z</time>
      </trkpt>
      <trkpt lat="43.74558" lon="6.08257">
        <ele>452</ele>
        <time>2015-06-14T12:31:50Z</time>
      </trkpt>
      <trkpt lat="43.74559" lon="6.08257">
        <ele>452</ele>
        <time>2015-06-14T12:32:02Z</time>
      </trkpt>
      <trkpt lat="43.74559" lon="6.08257">
        <ele>452</ele>
        <time>2015-06-14T12:32:03Z</time>
      </trkpt>
      <trkpt lat="43.74557" lon="6.08256">
        <ele>456</ele>
        <time>2015-06-14T12:32:10Z</time>
      </trkpt>
      <trkpt lat="43.74558" lon="6.08254">
        <ele>457</ele>
        <time>2015-06-14T12:32:16Z</time>
      </trkpt>
      <trkpt lat="43.74558" lon="6.08253">
        <ele>458</ele>
        <time>2015-06-14T12:40:48Z</time>
      </trkpt>
      <trkpt lat="43.74558" lon="6.08253">
        <ele>458</ele>
        <time>2015-06-14T12:40:49Z</time>
      </trkpt>
      <trkpt lat="43.74553" lon="6.08254">
        <ele>461</ele>
        <time>2015-06-14T12:43:49Z</time>
      </trkpt>
      <trkpt lat="43.74553" lon="6.08252">
        <ele>461</ele>
        <time>2015-06-14T12:43:55Z</time>
      </trkpt>
      <trkpt lat="43.74553" lon="6.08251">
        <ele>460</ele>
        <time>2015-06-14T12:44:16Z</time>
      </trkpt>
      <trkpt lat="43.74553" lon="6.08251">
        <ele>460</ele>
        <time>2015-06-14T12:44:17Z</time>
      </trkpt>
    </trkseg>
  </trk>
</gpx>